<?xml version='1.0' encoding='UTF-8'?>
<gpx version="1.1" creator="https://www.komoot.de" xmlns="http://www.topografix.com/GPX/1/1" xmlns:xsi="http://www.w3.org/2001/XMLSchema-instance" xsi:schemaLocation="http://www.topografix.com/GPX/1/1 http://www.topografix.com/GPX/1/1/gpx.xsd">
  <metadata>
    <name>Neuilly-Rambouillet</name>
    <author>
      <link href="https://www.komoot.de">
        <text>komoot</text>
        <type>text/html</type>
      </link>
    </author>
  </metadata>
  <trk>
    <name>Neuilly-Rambouillet</name>
    <trkseg>
      <trkpt lat="48.884219" lon="2.270216">
        <ele>41.726565</ele>
        <time>2023-02-22T17:53:27.200Z</time>
      </trkpt>
      <trkpt lat="48.884296" lon="2.269881">
        <ele>41.726565</ele>
        <time>2023-02-22T17:53:31.395Z</time>
      </trkpt>
      <trkpt lat="48.884266" lon="2.269802">
        <ele>41.726565</ele>
        <time>2023-02-22T17:53:32.353Z</time>
      </trkpt>
      <trkpt lat="48.884289" lon="2.269697">
        <ele>41.726565</ele>
        <time>2023-02-22T17:53:33.686Z</time>
      </trkpt>
      <trkpt lat="48.884439" lon="2.269026">
        <ele>41.726565</ele>
        <time>2023-02-22T17:53:42.472Z</time>
      </trkpt>
      <trkpt lat="48.884462" lon="2.268923">
        <ele>41.727291</ele>
        <time>2023-02-22T17:53:43.824Z</time>
      </trkpt>
      <trkpt lat="48.884560" lon="2.268487">
        <ele>41.777668</ele>
        <time>2023-02-22T17:53:49.098Z</time>
      </trkpt>
      <trkpt lat="48.884586" lon="2.268373">
        <ele>41.790860</ele>
        <time>2023-02-22T17:53:50.469Z</time>
      </trkpt>
      <trkpt lat="48.884663" lon="2.268043">
        <ele>41.829144</ele>
        <time>2023-02-22T17:53:54.126Z</time>
      </trkpt>
      <trkpt lat="48.884795" lon="2.267467">
        <ele>41.895834</ele>
        <time>2023-02-22T17:54:00.853Z</time>
      </trkpt>
      <trkpt lat="48.884866" lon="2.267418">
        <ele>41.908797</ele>
        <time>2023-02-22T17:54:02.175Z</time>
      </trkpt>
      <trkpt lat="48.885647" lon="2.264041">
        <ele>40.985264</ele>
        <time>2023-02-22T17:54:33.329Z</time>
      </trkpt>
      <trkpt lat="48.885604" lon="2.263934">
        <ele>40.933314</ele>
        <time>2023-02-22T17:54:34.243Z</time>
      </trkpt>
      <trkpt lat="48.885635" lon="2.263809">
        <ele>40.883228</ele>
        <time>2023-02-22T17:54:35.342Z</time>
      </trkpt>
      <trkpt lat="48.885665" lon="2.263684">
        <ele>40.848099</ele>
        <time>2023-02-22T17:54:36.382Z</time>
      </trkpt>
      <trkpt lat="48.885729" lon="2.263679">
        <ele>40.822371</ele>
        <time>2023-02-22T17:54:37.114Z</time>
      </trkpt>
      <trkpt lat="48.885795" lon="2.263389">
        <ele>40.741358</ele>
        <time>2023-02-22T17:54:39.488Z</time>
      </trkpt>
      <trkpt lat="48.885951" lon="2.262734">
        <ele>40.557451</ele>
        <time>2023-02-22T17:54:45.220Z</time>
      </trkpt>
      <trkpt lat="48.885924" lon="2.262633">
        <ele>40.528669</ele>
        <time>2023-02-22T17:54:46.137Z</time>
      </trkpt>
      <trkpt lat="48.886180" lon="2.262095">
        <ele>40.353356</ele>
        <time>2023-02-22T17:54:52.139Z</time>
      </trkpt>
      <trkpt lat="48.886348" lon="2.261853">
        <ele>40.260456</ele>
        <time>2023-02-22T17:54:56.173Z</time>
      </trkpt>
      <trkpt lat="48.886381" lon="2.261735">
        <ele>40.226605</ele>
        <time>2023-02-22T17:54:57.443Z</time>
      </trkpt>
      <trkpt lat="48.886281" lon="2.261709">
        <ele>40.185875</ele>
        <time>2023-02-22T17:54:59.016Z</time>
      </trkpt>
      <trkpt lat="48.886199" lon="2.261603">
        <ele>40.244836</ele>
        <time>2023-02-22T17:55:00.911Z</time>
      </trkpt>
      <trkpt lat="48.886167" lon="2.261485">
        <ele>40.335455</ele>
        <time>2023-02-22T17:55:02.206Z</time>
      </trkpt>
      <trkpt lat="48.886167" lon="2.261414">
        <ele>40.385861</ele>
        <time>2023-02-22T17:55:02.878Z</time>
      </trkpt>
      <trkpt lat="48.886201" lon="2.261343">
        <ele>40.448218</ele>
        <time>2023-02-22T17:55:03.687Z</time>
      </trkpt>
      <trkpt lat="48.886247" lon="2.261313">
        <ele>40.502257</ele>
        <time>2023-02-22T17:55:04.585Z</time>
      </trkpt>
      <trkpt lat="48.885937" lon="2.261143">
        <ele>40.858054</ele>
        <time>2023-02-22T17:55:10.243Z</time>
      </trkpt>
      <trkpt lat="48.885877" lon="2.261112">
        <ele>40.926471</ele>
        <time>2023-02-22T17:55:11.597Z</time>
      </trkpt>
      <trkpt lat="48.885580" lon="2.260958">
        <ele>41.265262</ele>
        <time>2023-02-22T17:55:17.609Z</time>
      </trkpt>
      <trkpt lat="48.885436" lon="2.260881">
        <ele>41.430067</ele>
        <time>2023-02-22T17:55:21.119Z</time>
      </trkpt>
      <trkpt lat="48.885050" lon="2.260673">
        <ele>41.872212</ele>
        <time>2023-02-22T17:55:30.345Z</time>
      </trkpt>
      <trkpt lat="48.884959" lon="2.260633">
        <ele>41.974485</ele>
        <time>2023-02-22T17:55:32.412Z</time>
      </trkpt>
      <trkpt lat="48.884944" lon="2.260441">
        <ele>42.111757</ele>
        <time>2023-02-22T17:55:35.282Z</time>
      </trkpt>
      <trkpt lat="48.884868" lon="2.260282">
        <ele>42.172054</ele>
        <time>2023-02-22T17:55:38.560Z</time>
      </trkpt>
      <trkpt lat="48.884746" lon="2.260215">
        <ele>42.232242</ele>
        <time>2023-02-22T17:55:41.812Z</time>
      </trkpt>
      <trkpt lat="48.884621" lon="2.260264">
        <ele>42.292139</ele>
        <time>2023-02-22T17:55:45.045Z</time>
      </trkpt>
      <trkpt lat="48.884539" lon="2.260417">
        <ele>42.352364</ele>
        <time>2023-02-22T17:55:47.876Z</time>
      </trkpt>
      <trkpt lat="48.884434" lon="2.260368">
        <ele>42.403328</ele>
        <time>2023-02-22T17:55:49.728Z</time>
      </trkpt>
      <trkpt lat="48.883753" lon="2.260045">
        <ele>42.734332</ele>
        <time>2023-02-22T17:56:00.538Z</time>
      </trkpt>
      <trkpt lat="48.883262" lon="2.259812">
        <ele>42.918525</ele>
        <time>2023-02-22T17:56:07.823Z</time>
      </trkpt>
      <trkpt lat="48.883001" lon="2.259688">
        <ele>42.780489</ele>
        <time>2023-02-22T17:56:12.152Z</time>
      </trkpt>
      <trkpt lat="48.882898" lon="2.259639">
        <ele>42.726009</ele>
        <time>2023-02-22T17:56:13.719Z</time>
      </trkpt>
      <trkpt lat="48.882179" lon="2.259298">
        <ele>42.345808</ele>
        <time>2023-02-22T17:56:24.095Z</time>
      </trkpt>
      <trkpt lat="48.881527" lon="2.258989">
        <ele>41.976082</ele>
        <time>2023-02-22T17:56:32.193Z</time>
      </trkpt>
      <trkpt lat="48.881478" lon="2.258965">
        <ele>41.932960</ele>
        <time>2023-02-22T17:56:32.871Z</time>
      </trkpt>
      <trkpt lat="48.881450" lon="2.258952">
        <ele>41.908437</ele>
        <time>2023-02-22T17:56:33.260Z</time>
      </trkpt>
      <trkpt lat="48.881049" lon="2.258653">
        <ele>41.534328</ele>
        <time>2023-02-22T17:56:38.976Z</time>
      </trkpt>
      <trkpt lat="48.880486" lon="2.258389">
        <ele>41.040814</ele>
        <time>2023-02-22T17:56:46.380Z</time>
      </trkpt>
      <trkpt lat="48.880417" lon="2.258356">
        <ele>40.980224</ele>
        <time>2023-02-22T17:56:47.268Z</time>
      </trkpt>
      <trkpt lat="48.880316" lon="2.258298">
        <ele>40.889789</ele>
        <time>2023-02-22T17:56:48.584Z</time>
      </trkpt>
      <trkpt lat="48.880189" lon="2.258231">
        <ele>40.777186</ele>
        <time>2023-02-22T17:56:50.197Z</time>
      </trkpt>
      <trkpt lat="48.879928" lon="2.258141">
        <ele>40.553007</ele>
        <time>2023-02-22T17:56:53.370Z</time>
      </trkpt>
      <trkpt lat="48.877318" lon="2.256790">
        <ele>39.415344</ele>
        <time>2023-02-22T17:57:30.762Z</time>
      </trkpt>
      <trkpt lat="48.876979" lon="2.256619">
        <ele>39.316966</ele>
        <time>2023-02-22T17:57:36.116Z</time>
      </trkpt>
      <trkpt lat="48.876826" lon="2.256493">
        <ele>39.269039</ele>
        <time>2023-02-22T17:57:38.490Z</time>
      </trkpt>
      <trkpt lat="48.876760" lon="2.256469">
        <ele>39.250347</ele>
        <time>2023-02-22T17:57:39.449Z</time>
      </trkpt>
      <trkpt lat="48.876038" lon="2.256146">
        <ele>38.993344</ele>
        <time>2023-02-22T17:57:49.861Z</time>
      </trkpt>
      <trkpt lat="48.875779" lon="2.256018">
        <ele>38.890517</ele>
        <time>2023-02-22T17:57:53.418Z</time>
      </trkpt>
      <trkpt lat="48.875668" lon="2.255964">
        <ele>38.846513</ele>
        <time>2023-02-22T17:57:54.952Z</time>
      </trkpt>
      <trkpt lat="48.875600" lon="2.255929">
        <ele>38.819407</ele>
        <time>2023-02-22T17:57:55.939Z</time>
      </trkpt>
      <trkpt lat="48.874449" lon="2.255328">
        <ele>38.349040</ele>
        <time>2023-02-22T17:58:12.499Z</time>
      </trkpt>
      <trkpt lat="48.874340" lon="2.255216">
        <ele>38.295457</ele>
        <time>2023-02-22T17:58:14.197Z</time>
      </trkpt>
      <trkpt lat="48.874251" lon="2.255124">
        <ele>38.251623</ele>
        <time>2023-02-22T17:58:15.641Z</time>
      </trkpt>
      <trkpt lat="48.874214" lon="2.255027">
        <ele>38.221585</ele>
        <time>2023-02-22T17:58:16.720Z</time>
      </trkpt>
      <trkpt lat="48.874093" lon="2.254966">
        <ele>38.169663</ele>
        <time>2023-02-22T17:58:18.401Z</time>
      </trkpt>
      <trkpt lat="48.874012" lon="2.255030">
        <ele>38.132483</ele>
        <time>2023-02-22T17:58:19.594Z</time>
      </trkpt>
      <trkpt lat="48.873891" lon="2.254972">
        <ele>38.080809</ele>
        <time>2023-02-22T17:58:21.301Z</time>
      </trkpt>
      <trkpt lat="48.873839" lon="2.254946">
        <ele>38.058514</ele>
        <time>2023-02-22T17:58:22.072Z</time>
      </trkpt>
      <trkpt lat="48.873746" lon="2.254901">
        <ele>38.018764</ele>
        <time>2023-02-22T17:58:23.365Z</time>
      </trkpt>
      <trkpt lat="48.873727" lon="2.254741">
        <ele>37.975209</ele>
        <time>2023-02-22T17:58:30.799Z</time>
      </trkpt>
      <trkpt lat="48.873675" lon="2.254707">
        <ele>37.952154</ele>
        <time>2023-02-22T17:58:34.704Z</time>
      </trkpt>
      <trkpt lat="48.873727" lon="2.254741">
        <ele>37.929099</ele>
        <time>2023-02-22T17:58:38.609Z</time>
      </trkpt>
      <trkpt lat="48.873746" lon="2.254901">
        <ele>37.885544</ele>
        <time>2023-02-22T17:58:46.043Z</time>
      </trkpt>
      <trkpt lat="48.873678" lon="2.254869">
        <ele>37.856552</ele>
        <time>2023-02-22T17:58:46.946Z</time>
      </trkpt>
      <trkpt lat="48.873752" lon="2.254945">
        <ele>37.820180</ele>
        <time>2023-02-22T17:58:48.150Z</time>
      </trkpt>
      <trkpt lat="48.873856" lon="2.255054">
        <ele>37.768732</ele>
        <time>2023-02-22T17:58:49.913Z</time>
      </trkpt>
      <trkpt lat="48.873973" lon="2.255204">
        <ele>37.752362</ele>
        <time>2023-02-22T17:58:51.931Z</time>
      </trkpt>
      <trkpt lat="48.873983" lon="2.255264">
        <ele>37.748695</ele>
        <time>2023-02-22T17:58:52.495Z</time>
      </trkpt>
      <trkpt lat="48.873994" lon="2.255296">
        <ele>37.746556</ele>
        <time>2023-02-22T17:58:52.811Z</time>
      </trkpt>
      <trkpt lat="48.874045" lon="2.255369">
        <ele>37.740247</ele>
        <time>2023-02-22T17:58:53.746Z</time>
      </trkpt>
      <trkpt lat="48.874114" lon="2.255396">
        <ele>37.733830</ele>
        <time>2023-02-22T17:58:54.775Z</time>
      </trkpt>
      <trkpt lat="48.874175" lon="2.255375">
        <ele>37.728197</ele>
        <time>2023-02-22T17:58:55.657Z</time>
      </trkpt>
      <trkpt lat="48.874225" lon="2.255315">
        <ele>37.722459</ele>
        <time>2023-02-22T17:58:56.488Z</time>
      </trkpt>
      <trkpt lat="48.874242" lon="2.255274">
        <ele>37.719588</ele>
        <time>2023-02-22T17:58:56.924Z</time>
      </trkpt>
      <trkpt lat="48.874251" lon="2.255124">
        <ele>37.710665</ele>
        <time>2023-02-22T17:58:58.270Z</time>
      </trkpt>
      <trkpt lat="48.874214" lon="2.255027">
        <ele>37.704023</ele>
        <time>2023-02-22T17:58:59.361Z</time>
      </trkpt>
      <trkpt lat="48.874213" lon="2.254883">
        <ele>37.695492</ele>
        <time>2023-02-22T17:59:00.731Z</time>
      </trkpt>
      <trkpt lat="48.874212" lon="2.254666">
        <ele>37.682636</ele>
        <time>2023-02-22T17:59:02.733Z</time>
      </trkpt>
      <trkpt lat="48.874795" lon="2.252263">
        <ele>37.533907</ele>
        <time>2023-02-22T17:59:28.461Z</time>
      </trkpt>
      <trkpt lat="48.874916" lon="2.251790">
        <ele>37.505086</ele>
        <time>2023-02-22T17:59:33.043Z</time>
      </trkpt>
      <trkpt lat="48.875024" lon="2.251339">
        <ele>37.477830</ele>
        <time>2023-02-22T17:59:37.484Z</time>
      </trkpt>
      <trkpt lat="48.875076" lon="2.251127">
        <ele>37.464981</ele>
        <time>2023-02-22T17:59:39.614Z</time>
      </trkpt>
      <trkpt lat="48.875397" lon="2.249835">
        <ele>36.830694</ele>
        <time>2023-02-22T17:59:52.407Z</time>
      </trkpt>
      <trkpt lat="48.875444" lon="2.249646">
        <ele>36.715609</ele>
        <time>2023-02-22T17:59:54.165Z</time>
      </trkpt>
      <trkpt lat="48.875539" lon="2.249250">
        <ele>36.475529</ele>
        <time>2023-02-22T17:59:57.539Z</time>
      </trkpt>
      <trkpt lat="48.875846" lon="2.248017">
        <ele>35.615541</ele>
        <time>2023-02-22T18:00:07.512Z</time>
      </trkpt>
      <trkpt lat="48.875882" lon="2.247867">
        <ele>35.464791</ele>
        <time>2023-02-22T18:00:08.725Z</time>
      </trkpt>
      <trkpt lat="48.875997" lon="2.247395">
        <ele>34.989579</ele>
        <time>2023-02-22T18:00:12.531Z</time>
      </trkpt>
      <trkpt lat="48.876071" lon="2.246960">
        <ele>34.565379</ele>
        <time>2023-02-22T18:00:15.822Z</time>
      </trkpt>
      <trkpt lat="48.876167" lon="2.246661">
        <ele>34.251252</ele>
        <time>2023-02-22T18:00:18.245Z</time>
      </trkpt>
      <trkpt lat="48.876194" lon="2.246573">
        <ele>34.159575</ele>
        <time>2023-02-22T18:00:18.954Z</time>
      </trkpt>
      <trkpt lat="48.876227" lon="2.246475">
        <ele>34.055631</ele>
        <time>2023-02-22T18:00:19.800Z</time>
      </trkpt>
      <trkpt lat="48.876310" lon="2.246237">
        <ele>33.801302</ele>
        <time>2023-02-22T18:00:21.846Z</time>
      </trkpt>
      <trkpt lat="48.876935" lon="2.244759">
        <ele>32.922318</ele>
        <time>2023-02-22T18:00:36.349Z</time>
      </trkpt>
      <trkpt lat="48.877342" lon="2.244067">
        <ele>32.632021</ele>
        <time>2023-02-22T18:00:44.596Z</time>
      </trkpt>
      <trkpt lat="48.877432" lon="2.243933">
        <ele>32.572131</ele>
        <time>2023-02-22T18:00:46.370Z</time>
      </trkpt>
      <trkpt lat="48.877831" lon="2.243386">
        <ele>32.620051</ele>
        <time>2023-02-22T18:00:57.490Z</time>
      </trkpt>
      <trkpt lat="48.877972" lon="2.243192">
        <ele>32.730275</ele>
        <time>2023-02-22T18:01:01.703Z</time>
      </trkpt>
      <trkpt lat="48.878259" lon="2.242803">
        <ele>32.953133</ele>
        <time>2023-02-22T18:01:08.662Z</time>
      </trkpt>
      <trkpt lat="48.878293" lon="2.242767">
        <ele>32.977148</ele>
        <time>2023-02-22T18:01:09.389Z</time>
      </trkpt>
      <trkpt lat="48.878445" lon="2.242564">
        <ele>33.094414</ele>
        <time>2023-02-22T18:01:12.986Z</time>
      </trkpt>
      <trkpt lat="48.878485" lon="2.242511">
        <ele>33.125168</ele>
        <time>2023-02-22T18:01:14.047Z</time>
      </trkpt>
      <trkpt lat="48.878554" lon="2.242426">
        <ele>33.176642</ele>
        <time>2023-02-22T18:01:15.714Z</time>
      </trkpt>
      <trkpt lat="48.878859" lon="2.241921">
        <ele>33.438015</ele>
        <time>2023-02-22T18:01:23.679Z</time>
      </trkpt>
      <trkpt lat="48.878891" lon="2.241864">
        <ele>33.466585</ele>
        <time>2023-02-22T18:01:24.535Z</time>
      </trkpt>
      <trkpt lat="48.878917" lon="2.241820">
        <ele>33.489134</ele>
        <time>2023-02-22T18:01:25.234Z</time>
      </trkpt>
      <trkpt lat="48.879147" lon="2.241344">
        <ele>33.736951</ele>
        <time>2023-02-22T18:01:32.114Z</time>
      </trkpt>
      <trkpt lat="48.879533" lon="2.240544">
        <ele>34.154432</ele>
        <time>2023-02-22T18:01:43.537Z</time>
      </trkpt>
      <trkpt lat="48.879564" lon="2.240479">
        <ele>34.188216</ele>
        <time>2023-02-22T18:01:44.507Z</time>
      </trkpt>
      <trkpt lat="48.879380" lon="2.240243">
        <ele>34.342223</ele>
        <time>2023-02-22T18:01:48.654Z</time>
      </trkpt>
      <trkpt lat="48.879345" lon="2.240202">
        <ele>34.370490</ele>
        <time>2023-02-22T18:01:49.422Z</time>
      </trkpt>
      <trkpt lat="48.879400" lon="2.239145">
        <ele>34.725631</ele>
        <time>2023-02-22T18:02:01.427Z</time>
      </trkpt>
      <trkpt lat="48.879431" lon="2.238625">
        <ele>34.827664</ele>
        <time>2023-02-22T18:02:06.676Z</time>
      </trkpt>
      <trkpt lat="48.879559" lon="2.236881">
        <ele>35.170585</ele>
        <time>2023-02-22T18:02:24.350Z</time>
      </trkpt>
      <trkpt lat="48.879572" lon="2.236640">
        <ele>35.375130</ele>
        <time>2023-02-22T18:02:27.010Z</time>
      </trkpt>
      <trkpt lat="48.879614" lon="2.236372">
        <ele>35.659999</ele>
        <time>2023-02-22T18:02:30.091Z</time>
      </trkpt>
      <trkpt lat="48.879717" lon="2.235463">
        <ele>36.613744</ele>
        <time>2023-02-22T18:02:41.799Z</time>
      </trkpt>
      <trkpt lat="48.879758" lon="2.234586">
        <ele>37.522839</ele>
        <time>2023-02-22T18:02:54.790Z</time>
      </trkpt>
      <trkpt lat="48.879759" lon="2.234544">
        <ele>37.566295</ele>
        <time>2023-02-22T18:02:55.436Z</time>
      </trkpt>
      <trkpt lat="48.879761" lon="2.234503">
        <ele>37.608805</ele>
        <time>2023-02-22T18:02:56.087Z</time>
      </trkpt>
      <trkpt lat="48.879766" lon="2.234387">
        <ele>37.729005</ele>
        <time>2023-02-22T18:02:57.922Z</time>
      </trkpt>
      <trkpt lat="48.879787" lon="2.233838">
        <ele>38.692840</ele>
        <time>2023-02-22T18:03:07.472Z</time>
      </trkpt>
      <trkpt lat="48.879813" lon="2.233350">
        <ele>39.892591</ele>
        <time>2023-02-22T18:03:16.532Z</time>
      </trkpt>
      <trkpt lat="48.879846" lon="2.232524">
        <ele>41.920417</ele>
        <time>2023-02-22T18:03:32.904Z</time>
      </trkpt>
      <trkpt lat="48.879883" lon="2.231612">
        <ele>44.159498</ele>
        <time>2023-02-22T18:03:51.591Z</time>
      </trkpt>
      <trkpt lat="48.879906" lon="2.231610">
        <ele>44.245340</ele>
        <time>2023-02-22T18:03:52.366Z</time>
      </trkpt>
      <trkpt lat="48.879948" lon="2.231580">
        <ele>44.418246</ele>
        <time>2023-02-22T18:03:53.930Z</time>
      </trkpt>
      <trkpt lat="48.879979" lon="2.231481">
        <ele>44.686939</ele>
        <time>2023-02-22T18:03:56.283Z</time>
      </trkpt>
      <trkpt lat="48.879966" lon="2.231409">
        <ele>44.926320</ele>
        <time>2023-02-22T18:03:57.842Z</time>
      </trkpt>
      <trkpt lat="48.879958" lon="2.231254">
        <ele>45.442730</ele>
        <time>2023-02-22T18:04:01.135Z</time>
      </trkpt>
      <trkpt lat="48.879947" lon="2.230946">
        <ele>46.467248</ele>
        <time>2023-02-22T18:04:08.004Z</time>
      </trkpt>
      <trkpt lat="48.879936" lon="2.230656">
        <ele>47.432073</ele>
        <time>2023-02-22T18:04:14.402Z</time>
      </trkpt>
      <trkpt lat="48.879965" lon="2.230484">
        <ele>48.021841</ele>
        <time>2023-02-22T18:04:18.480Z</time>
      </trkpt>
      <trkpt lat="48.880224" lon="2.229869">
        <ele>50.447481</ele>
        <time>2023-02-22T18:04:35.938Z</time>
      </trkpt>
      <trkpt lat="48.879810" lon="2.229176">
        <ele>53.557174</ele>
        <time>2023-02-22T18:04:57.202Z</time>
      </trkpt>
      <trkpt lat="48.879711" lon="2.229017">
        <ele>54.408658</ele>
        <time>2023-02-22T18:05:03.100Z</time>
      </trkpt>
      <trkpt lat="48.879565" lon="2.228781">
        <ele>55.758199</ele>
        <time>2023-02-22T18:05:10.696Z</time>
      </trkpt>
      <trkpt lat="48.879491" lon="2.228663">
        <ele>56.437325</ele>
        <time>2023-02-22T18:05:15.508Z</time>
      </trkpt>
      <trkpt lat="48.879216" lon="2.227861">
        <ele>60.204563</ele>
        <time>2023-02-22T18:05:39.324Z</time>
      </trkpt>
      <trkpt lat="48.878996" lon="2.226636">
        <ele>65.469586</ele>
        <time>2023-02-22T18:06:14.959Z</time>
      </trkpt>
      <trkpt lat="48.878932" lon="2.226266">
        <ele>66.937742</ele>
        <time>2023-02-22T18:06:25.072Z</time>
      </trkpt>
      <trkpt lat="48.878223" lon="2.223852">
        <ele>76.605845</ele>
        <time>2023-02-22T18:07:30.862Z</time>
      </trkpt>
      <trkpt lat="48.878126" lon="2.223566">
        <ele>77.419915</ele>
        <time>2023-02-22T18:07:37.530Z</time>
      </trkpt>
      <trkpt lat="48.876973" lon="2.221814">
        <ele>83.704279</ele>
        <time>2023-02-22T18:08:32.059Z</time>
      </trkpt>
      <trkpt lat="48.877422" lon="2.221128">
        <ele>86.184468</ele>
        <time>2023-02-22T18:08:50.130Z</time>
      </trkpt>
      <trkpt lat="48.877642" lon="2.220802">
        <ele>87.381451</ele>
        <time>2023-02-22T18:08:59.668Z</time>
      </trkpt>
      <trkpt lat="48.877070" lon="2.220101">
        <ele>90.321653</ele>
        <time>2023-02-22T18:09:24.225Z</time>
      </trkpt>
      <trkpt lat="48.876964" lon="2.219998">
        <ele>90.871733</ele>
        <time>2023-02-22T18:09:28.192Z</time>
      </trkpt>
      <trkpt lat="48.876791" lon="2.219701">
        <ele>92.012707</ele>
        <time>2023-02-22T18:09:36.845Z</time>
      </trkpt>
      <trkpt lat="48.876502" lon="2.218900">
        <ele>94.640165</ele>
        <time>2023-02-22T18:09:55.658Z</time>
      </trkpt>
      <trkpt lat="48.876390" lon="2.218572">
        <ele>95.703020</ele>
        <time>2023-02-22T18:10:03.394Z</time>
      </trkpt>
      <trkpt lat="48.876318" lon="2.218496">
        <ele>96.086291</ele>
        <time>2023-02-22T18:10:06.737Z</time>
      </trkpt>
      <trkpt lat="48.876199" lon="2.218507">
        <ele>96.607610</ele>
        <time>2023-02-22T18:10:10.311Z</time>
      </trkpt>
      <trkpt lat="48.875966" lon="2.218859">
        <ele>97.879816</ele>
        <time>2023-02-22T18:10:21.565Z</time>
      </trkpt>
      <trkpt lat="48.875658" lon="2.219218">
        <ele>99.087878</ele>
        <time>2023-02-22T18:10:33.671Z</time>
      </trkpt>
      <trkpt lat="48.875544" lon="2.219305">
        <ele>99.484935</ele>
        <time>2023-02-22T18:10:37.862Z</time>
      </trkpt>
      <trkpt lat="48.875458" lon="2.219332">
        <ele>99.758288</ele>
        <time>2023-02-22T18:10:40.567Z</time>
      </trkpt>
      <trkpt lat="48.875307" lon="2.219327">
        <ele>100.228440</ele>
        <time>2023-02-22T18:10:44.562Z</time>
      </trkpt>
      <trkpt lat="48.875362" lon="2.219079">
        <ele>100.764264</ele>
        <time>2023-02-22T18:10:49.375Z</time>
      </trkpt>
      <trkpt lat="48.875389" lon="2.218931">
        <ele>101.078707</ele>
        <time>2023-02-22T18:10:52.101Z</time>
      </trkpt>
      <trkpt lat="48.875517" lon="2.218261">
        <ele>102.507106</ele>
        <time>2023-02-22T18:11:02.413Z</time>
      </trkpt>
      <trkpt lat="48.875597" lon="2.218045">
        <ele>103.014622</ele>
        <time>2023-02-22T18:11:06.091Z</time>
      </trkpt>
      <trkpt lat="48.875676" lon="2.217833">
        <ele>103.115963</ele>
        <time>2023-02-22T18:11:09.312Z</time>
      </trkpt>
      <trkpt lat="48.875678" lon="2.217731">
        <ele>103.136179</ele>
        <time>2023-02-22T18:11:10.846Z</time>
      </trkpt>
      <trkpt lat="48.875641" lon="2.217613">
        <ele>103.162076</ele>
        <time>2023-02-22T18:11:12.720Z</time>
      </trkpt>
      <trkpt lat="48.875536" lon="2.217674">
        <ele>103.195934</ele>
        <time>2023-02-22T18:11:14.792Z</time>
      </trkpt>
      <trkpt lat="48.875423" lon="2.217743">
        <ele>103.232613</ele>
        <time>2023-02-22T18:11:17.016Z</time>
      </trkpt>
      <trkpt lat="48.875324" lon="2.217802">
        <ele>103.264642</ele>
        <time>2023-02-22T18:11:19.435Z</time>
      </trkpt>
      <trkpt lat="48.874916" lon="2.217755">
        <ele>103.387889</ele>
        <time>2023-02-22T18:11:26.883Z</time>
      </trkpt>
      <trkpt lat="48.874595" lon="2.217710">
        <ele>103.484988</ele>
        <time>2023-02-22T18:11:31.801Z</time>
      </trkpt>
      <trkpt lat="48.874079" lon="2.217634">
        <ele>103.311305</ele>
        <time>2023-02-22T18:11:38.445Z</time>
      </trkpt>
      <trkpt lat="48.873998" lon="2.217623">
        <ele>103.024935</ele>
        <time>2023-02-22T18:11:39.316Z</time>
      </trkpt>
      <trkpt lat="48.873281" lon="2.217573">
        <ele>100.497423</ele>
        <time>2023-02-22T18:11:46.431Z</time>
      </trkpt>
      <trkpt lat="48.873027" lon="2.217656">
        <ele>99.582557</ele>
        <time>2023-02-22T18:11:48.898Z</time>
      </trkpt>
      <trkpt lat="48.872826" lon="2.217865">
        <ele>98.725051</ele>
        <time>2023-02-22T18:11:51.222Z</time>
      </trkpt>
      <trkpt lat="48.872283" lon="2.218707">
        <ele>96.104962</ele>
        <time>2023-02-22T18:11:58.765Z</time>
      </trkpt>
      <trkpt lat="48.872119" lon="2.218911">
        <ele>95.423191</ele>
        <time>2023-02-22T18:12:00.869Z</time>
      </trkpt>
      <trkpt lat="48.871990" lon="2.218977">
        <ele>94.985265</ele>
        <time>2023-02-22T18:12:02.196Z</time>
      </trkpt>
      <trkpt lat="48.871861" lon="2.218981">
        <ele>94.570124</ele>
        <time>2023-02-22T18:12:03.468Z</time>
      </trkpt>
      <trkpt lat="48.871706" lon="2.218900">
        <ele>94.042777</ele>
        <time>2023-02-22T18:12:05.071Z</time>
      </trkpt>
      <trkpt lat="48.870545" lon="2.218216">
        <ele>91.428946</ele>
        <time>2023-02-22T18:12:18.258Z</time>
      </trkpt>
      <trkpt lat="48.870470" lon="2.218144">
        <ele>91.416155</ele>
        <time>2023-02-22T18:12:19.625Z</time>
      </trkpt>
      <trkpt lat="48.870022" lon="2.217597">
        <ele>91.333290</ele>
        <time>2023-02-22T18:12:29.603Z</time>
      </trkpt>
      <trkpt lat="48.869905" lon="2.217518">
        <ele>91.314827</ele>
        <time>2023-02-22T18:12:31.943Z</time>
      </trkpt>
      <trkpt lat="48.869791" lon="2.217472">
        <ele>91.297818</ele>
        <time>2023-02-22T18:12:34.153Z</time>
      </trkpt>
      <trkpt lat="48.869598" lon="2.217442">
        <ele>91.269839</ele>
        <time>2023-02-22T18:12:37.602Z</time>
      </trkpt>
      <trkpt lat="48.869379" lon="2.217442">
        <ele>91.238256</ele>
        <time>2023-02-22T18:12:41.666Z</time>
      </trkpt>
      <trkpt lat="48.869254" lon="2.217400">
        <ele>91.312119</ele>
        <time>2023-02-22T18:12:43.954Z</time>
      </trkpt>
      <trkpt lat="48.868659" lon="2.217396">
        <ele>91.751047</ele>
        <time>2023-02-22T18:12:55.300Z</time>
      </trkpt>
      <trkpt lat="48.868527" lon="2.217382">
        <ele>91.848658</ele>
        <time>2023-02-22T18:12:57.957Z</time>
      </trkpt>
      <trkpt lat="48.868313" lon="2.217384">
        <ele>92.006526</ele>
        <time>2023-02-22T18:13:01.914Z</time>
      </trkpt>
      <trkpt lat="48.868158" lon="2.217347">
        <ele>92.122269</ele>
        <time>2023-02-22T18:13:04.883Z</time>
      </trkpt>
      <trkpt lat="48.867648" lon="2.217001">
        <ele>92.534253</ele>
        <time>2023-02-22T18:13:14.316Z</time>
      </trkpt>
      <trkpt lat="48.867497" lon="2.216898">
        <ele>92.474091</ele>
        <time>2023-02-22T18:13:16.943Z</time>
      </trkpt>
      <trkpt lat="48.867182" lon="2.216674">
        <ele>92.236476</ele>
        <time>2023-02-22T18:13:21.970Z</time>
      </trkpt>
      <trkpt lat="48.867144" lon="2.216648">
        <ele>92.208003</ele>
        <time>2023-02-22T18:13:22.583Z</time>
      </trkpt>
      <trkpt lat="48.867102" lon="2.216617">
        <ele>92.176102</ele>
        <time>2023-02-22T18:13:23.273Z</time>
      </trkpt>
      <trkpt lat="48.866979" lon="2.216524">
        <ele>92.082238</ele>
        <time>2023-02-22T18:13:24.955Z</time>
      </trkpt>
      <trkpt lat="48.866769" lon="2.216275">
        <ele>91.900266</ele>
        <time>2023-02-22T18:13:28.404Z</time>
      </trkpt>
      <trkpt lat="48.866755" lon="2.216253">
        <ele>91.886508</ele>
        <time>2023-02-22T18:13:28.632Z</time>
      </trkpt>
      <trkpt lat="48.866734" lon="2.216234">
        <ele>91.869810</ele>
        <time>2023-02-22T18:13:28.904Z</time>
      </trkpt>
      <trkpt lat="48.866403" lon="2.215843">
        <ele>91.583393</ele>
        <time>2023-02-22T18:13:33.859Z</time>
      </trkpt>
      <trkpt lat="48.866158" lon="2.215538">
        <ele>91.367021</ele>
        <time>2023-02-22T18:13:37.668Z</time>
      </trkpt>
      <trkpt lat="48.866131" lon="2.215505">
        <ele>91.343350</ele>
        <time>2023-02-22T18:13:38.052Z</time>
      </trkpt>
      <trkpt lat="48.866100" lon="2.215466">
        <ele>91.310129</ele>
        <time>2023-02-22T18:13:38.527Z</time>
      </trkpt>
      <trkpt lat="48.866047" lon="2.215402">
        <ele>91.248216</ele>
        <time>2023-02-22T18:13:39.373Z</time>
      </trkpt>
      <trkpt lat="48.865856" lon="2.215171">
        <ele>91.024961</ele>
        <time>2023-02-22T18:13:42.155Z</time>
      </trkpt>
      <trkpt lat="48.865820" lon="2.215126">
        <ele>90.982329</ele>
        <time>2023-02-22T18:13:42.701Z</time>
      </trkpt>
      <trkpt lat="48.865817" lon="2.215229">
        <ele>90.920292</ele>
        <time>2023-02-22T18:13:43.544Z</time>
      </trkpt>
      <trkpt lat="48.865719" lon="2.215113">
        <ele>90.806681</ele>
        <time>2023-02-22T18:13:45.037Z</time>
      </trkpt>
      <trkpt lat="48.865288" lon="2.214584">
        <ele>90.299983</ele>
        <time>2023-02-22T18:13:51.612Z</time>
      </trkpt>
      <trkpt lat="48.865173" lon="2.214445">
        <ele>90.165593</ele>
        <time>2023-02-22T18:13:53.561Z</time>
      </trkpt>
      <trkpt lat="48.864627" lon="2.213782">
        <ele>89.647719</ele>
        <time>2023-02-22T18:14:02.765Z</time>
      </trkpt>
      <trkpt lat="48.864517" lon="2.213642">
        <ele>89.615293</ele>
        <time>2023-02-22T18:14:04.924Z</time>
      </trkpt>
      <trkpt lat="48.864414" lon="2.213520">
        <ele>89.585779</ele>
        <time>2023-02-22T18:14:06.806Z</time>
      </trkpt>
      <trkpt lat="48.863829" lon="2.212817">
        <ele>89.417228</ele>
        <time>2023-02-22T18:14:18.198Z</time>
      </trkpt>
      <trkpt lat="48.863781" lon="2.212765">
        <ele>89.403906</ele>
        <time>2023-02-22T18:14:19.022Z</time>
      </trkpt>
      <trkpt lat="48.863703" lon="2.212645">
        <ele>89.378823</ele>
        <time>2023-02-22T18:14:20.656Z</time>
      </trkpt>
      <trkpt lat="48.863430" lon="2.212321">
        <ele>89.300539</ele>
        <time>2023-02-22T18:14:25.339Z</time>
      </trkpt>
      <trkpt lat="48.863326" lon="2.212201">
        <ele>89.236469</ele>
        <time>2023-02-22T18:14:27.099Z</time>
      </trkpt>
      <trkpt lat="48.863176" lon="2.212337">
        <ele>89.060245</ele>
        <time>2023-02-22T18:14:29.349Z</time>
      </trkpt>
      <trkpt lat="48.863074" lon="2.212344">
        <ele>88.957224</ele>
        <time>2023-02-22T18:14:30.763Z</time>
      </trkpt>
      <trkpt lat="48.863015" lon="2.212349">
        <ele>88.897602</ele>
        <time>2023-02-22T18:14:31.536Z</time>
      </trkpt>
      <trkpt lat="48.862024" lon="2.212430">
        <ele>87.896259</ele>
        <time>2023-02-22T18:14:43.667Z</time>
      </trkpt>
      <trkpt lat="48.861809" lon="2.212390">
        <ele>87.677710</ele>
        <time>2023-02-22T18:14:46.121Z</time>
      </trkpt>
      <trkpt lat="48.861663" lon="2.212359">
        <ele>87.528968</ele>
        <time>2023-02-22T18:14:47.787Z</time>
      </trkpt>
      <trkpt lat="48.861624" lon="2.212417">
        <ele>87.473917</ele>
        <time>2023-02-22T18:14:48.399Z</time>
      </trkpt>
      <trkpt lat="48.861587" lon="2.212470">
        <ele>87.465550</ele>
        <time>2023-02-22T18:14:48.963Z</time>
      </trkpt>
      <trkpt lat="48.861512" lon="2.212578">
        <ele>87.463975</ele>
        <time>2023-02-22T18:14:50.117Z</time>
      </trkpt>
      <trkpt lat="48.861331" lon="2.212795">
        <ele>87.460459</ele>
        <time>2023-02-22T18:14:52.737Z</time>
      </trkpt>
      <trkpt lat="48.860970" lon="2.212975">
        <ele>87.454666</ele>
        <time>2023-02-22T18:14:57.246Z</time>
      </trkpt>
      <trkpt lat="48.860862" lon="2.213023">
        <ele>87.452950</ele>
        <time>2023-02-22T18:14:58.737Z</time>
      </trkpt>
      <trkpt lat="48.860077" lon="2.213405">
        <ele>87.440381</ele>
        <time>2023-02-22T18:15:13.696Z</time>
      </trkpt>
      <trkpt lat="48.859860" lon="2.213492">
        <ele>87.813636</ele>
        <time>2023-02-22T18:15:18.508Z</time>
      </trkpt>
      <trkpt lat="48.859668" lon="2.213484">
        <ele>88.416078</ele>
        <time>2023-02-22T18:15:23.106Z</time>
      </trkpt>
      <trkpt lat="48.859539" lon="2.213538">
        <ele>88.835756</ele>
        <time>2023-02-22T18:15:26.126Z</time>
      </trkpt>
      <trkpt lat="48.859501" lon="2.213401">
        <ele>89.142560</ele>
        <time>2023-02-22T18:15:28.857Z</time>
      </trkpt>
      <trkpt lat="48.859397" lon="2.213061">
        <ele>89.916293</ele>
        <time>2023-02-22T18:15:34.987Z</time>
      </trkpt>
      <trkpt lat="48.859349" lon="2.212904">
        <ele>90.273545</ele>
        <time>2023-02-22T18:15:38.322Z</time>
      </trkpt>
      <trkpt lat="48.859268" lon="2.212627">
        <ele>90.899069</ele>
        <time>2023-02-22T18:15:43.757Z</time>
      </trkpt>
      <trkpt lat="48.859225" lon="2.212494">
        <ele>91.204872</ele>
        <time>2023-02-22T18:15:46.568Z</time>
      </trkpt>
      <trkpt lat="48.859170" lon="2.212354">
        <ele>91.541357</ele>
        <time>2023-02-22T18:15:50.008Z</time>
      </trkpt>
      <trkpt lat="48.859042" lon="2.211893">
        <ele>92.573911</ele>
        <time>2023-02-22T18:16:00.752Z</time>
      </trkpt>
      <trkpt lat="48.859006" lon="2.211732">
        <ele>92.924810</ele>
        <time>2023-02-22T18:16:04.437Z</time>
      </trkpt>
      <trkpt lat="48.858978" lon="2.211612">
        <ele>93.203001</ele>
        <time>2023-02-22T18:16:07.206Z</time>
      </trkpt>
      <trkpt lat="48.858943" lon="2.211562">
        <ele>93.375360</ele>
        <time>2023-02-22T18:16:08.842Z</time>
      </trkpt>
      <trkpt lat="48.858897" lon="2.211496">
        <ele>93.602351</ele>
        <time>2023-02-22T18:16:11.183Z</time>
      </trkpt>
      <trkpt lat="48.858814" lon="2.211381">
        <ele>94.005359</ele>
        <time>2023-02-22T18:16:15.064Z</time>
      </trkpt>
      <trkpt lat="48.858589" lon="2.211198">
        <ele>94.921066</ele>
        <time>2023-02-22T18:16:23.446Z</time>
      </trkpt>
      <trkpt lat="48.858098" lon="2.210915">
        <ele>96.805379</ele>
        <time>2023-02-22T18:16:38.518Z</time>
      </trkpt>
      <trkpt lat="48.858062" lon="2.210714">
        <ele>97.297185</ele>
        <time>2023-02-22T18:16:42.199Z</time>
      </trkpt>
      <trkpt lat="48.857949" lon="2.210519">
        <ele>97.910667</ele>
        <time>2023-02-22T18:16:46.846Z</time>
      </trkpt>
      <trkpt lat="48.857747" lon="2.210338">
        <ele>98.752100</ele>
        <time>2023-02-22T18:16:52.995Z</time>
      </trkpt>
      <trkpt lat="48.856958" lon="2.209773">
        <ele>100.681424</ele>
        <time>2023-02-22T18:17:16.306Z</time>
      </trkpt>
      <trkpt lat="48.856851" lon="2.209678">
        <ele>100.898694</ele>
        <time>2023-02-22T18:17:19.442Z</time>
      </trkpt>
      <trkpt lat="48.855519" lon="2.208007">
        <ele>103.480228</ele>
        <time>2023-02-22T18:17:50.978Z</time>
      </trkpt>
      <trkpt lat="48.854475" lon="2.206703">
        <ele>105.679747</ele>
        <time>2023-02-22T18:18:16.815Z</time>
      </trkpt>
      <trkpt lat="48.854298" lon="2.206574">
        <ele>106.418145</ele>
        <time>2023-02-22T18:18:21.512Z</time>
      </trkpt>
      <trkpt lat="48.852899" lon="2.205842">
        <ele>112.288318</ele>
        <time>2023-02-22T18:19:09.345Z</time>
      </trkpt>
      <trkpt lat="48.852830" lon="2.205820">
        <ele>112.710842</ele>
        <time>2023-02-22T18:19:12.365Z</time>
      </trkpt>
      <trkpt lat="48.852160" lon="2.205630">
        <ele>116.795503</ele>
        <time>2023-02-22T18:19:41.089Z</time>
      </trkpt>
      <trkpt lat="48.852083" lon="2.205602">
        <ele>117.269996</ele>
        <time>2023-02-22T18:19:43.996Z</time>
      </trkpt>
      <trkpt lat="48.851961" lon="2.205509">
        <ele>118.087973</ele>
        <time>2023-02-22T18:19:49.251Z</time>
      </trkpt>
      <trkpt lat="48.851830" lon="2.205478">
        <ele>118.882525</ele>
        <time>2023-02-22T18:19:55.131Z</time>
      </trkpt>
      <trkpt lat="48.851717" lon="2.205346">
        <ele>119.736683</ele>
        <time>2023-02-22T18:20:00.539Z</time>
      </trkpt>
      <trkpt lat="48.851256" lon="2.205101">
        <ele>122.601804</ele>
        <time>2023-02-22T18:20:19.462Z</time>
      </trkpt>
      <trkpt lat="48.851035" lon="2.204928">
        <ele>123.869351</ele>
        <time>2023-02-22T18:20:28.848Z</time>
      </trkpt>
      <trkpt lat="48.850943" lon="2.204811">
        <ele>124.481023</ele>
        <time>2023-02-22T18:20:33.215Z</time>
      </trkpt>
      <trkpt lat="48.850752" lon="2.204383">
        <ele>126.216110</ele>
        <time>2023-02-22T18:20:45.696Z</time>
      </trkpt>
      <trkpt lat="48.850643" lon="2.204245">
        <ele>126.939478</ele>
        <time>2023-02-22T18:20:51.597Z</time>
      </trkpt>
      <trkpt lat="48.850360" lon="2.203743">
        <ele>129.157358</ele>
        <time>2023-02-22T18:21:06.733Z</time>
      </trkpt>
      <trkpt lat="48.850099" lon="2.203088">
        <ele>131.565501</ele>
        <time>2023-02-22T18:21:21.732Z</time>
      </trkpt>
      <trkpt lat="48.850001" lon="2.202875">
        <ele>131.978368</ele>
        <time>2023-02-22T18:21:27.609Z</time>
      </trkpt>
      <trkpt lat="48.849754" lon="2.202300">
        <ele>133.069187</ele>
        <time>2023-02-22T18:21:40.810Z</time>
      </trkpt>
      <trkpt lat="48.849436" lon="2.201621">
        <ele>134.393116</ele>
        <time>2023-02-22T18:21:54.015Z</time>
      </trkpt>
      <trkpt lat="48.849297" lon="2.201406">
        <ele>134.871917</ele>
        <time>2023-02-22T18:21:58.226Z</time>
      </trkpt>
      <trkpt lat="48.849009" lon="2.201078">
        <ele>135.740756</ele>
        <time>2023-02-22T18:22:05.496Z</time>
      </trkpt>
      <trkpt lat="48.848948" lon="2.200985">
        <ele>135.682851</ele>
        <time>2023-02-22T18:22:07.188Z</time>
      </trkpt>
      <trkpt lat="48.848114" lon="2.199449">
        <ele>134.327214</ele>
        <time>2023-02-22T18:22:23.770Z</time>
      </trkpt>
      <trkpt lat="48.847941" lon="2.199019">
        <ele>133.984111</ele>
        <time>2023-02-22T18:22:27.219Z</time>
      </trkpt>
      <trkpt lat="48.847832" lon="2.198742">
        <ele>133.491202</ele>
        <time>2023-02-22T18:22:29.396Z</time>
      </trkpt>
      <trkpt lat="48.847519" lon="2.198093">
        <ele>131.856642</ele>
        <time>2023-02-22T18:22:34.684Z</time>
      </trkpt>
      <trkpt lat="48.847483" lon="2.198021">
        <ele>131.672948</ele>
        <time>2023-02-22T18:22:35.279Z</time>
      </trkpt>
      <trkpt lat="48.847363" lon="2.197853">
        <ele>131.169262</ele>
        <time>2023-02-22T18:22:36.914Z</time>
      </trkpt>
      <trkpt lat="48.847351" lon="2.197679">
        <ele>130.813854</ele>
        <time>2023-02-22T18:22:38.041Z</time>
      </trkpt>
      <trkpt lat="48.847215" lon="2.197234">
        <ele>129.817124</ele>
        <time>2023-02-22T18:22:41.293Z</time>
      </trkpt>
      <trkpt lat="48.847201" lon="2.197183">
        <ele>129.704867</ele>
        <time>2023-02-22T18:22:41.658Z</time>
      </trkpt>
      <trkpt lat="48.847143" lon="2.196943">
        <ele>129.185481</ele>
        <time>2023-02-22T18:22:43.384Z</time>
      </trkpt>
      <trkpt lat="48.847110" lon="2.196815">
        <ele>128.906211</ele>
        <time>2023-02-22T18:22:44.331Z</time>
      </trkpt>
      <trkpt lat="48.847005" lon="2.196397">
        <ele>128.095598</ele>
        <time>2023-02-22T18:22:47.413Z</time>
      </trkpt>
      <trkpt lat="48.846978" lon="2.196254">
        <ele>127.877682</ele>
        <time>2023-02-22T18:22:48.453Z</time>
      </trkpt>
      <trkpt lat="48.846962" lon="2.196179">
        <ele>127.762194</ele>
        <time>2023-02-22T18:22:48.988Z</time>
      </trkpt>
      <trkpt lat="48.846885" lon="2.195418">
        <ele>126.634389</ele>
        <time>2023-02-22T18:22:54.346Z</time>
      </trkpt>
      <trkpt lat="48.846880" lon="2.195218">
        <ele>126.341219</ele>
        <time>2023-02-22T18:22:55.764Z</time>
      </trkpt>
      <trkpt lat="48.846886" lon="2.195093">
        <ele>126.157634</ele>
        <time>2023-02-22T18:22:56.625Z</time>
      </trkpt>
      <trkpt lat="48.846964" lon="2.194476">
        <ele>125.237333</ele>
        <time>2023-02-22T18:23:01.022Z</time>
      </trkpt>
      <trkpt lat="48.846967" lon="2.194226">
        <ele>124.871075</ele>
        <time>2023-02-22T18:23:02.800Z</time>
      </trkpt>
      <trkpt lat="48.846951" lon="2.193995">
        <ele>124.530839</ele>
        <time>2023-02-22T18:23:04.549Z</time>
      </trkpt>
      <trkpt lat="48.846886" lon="2.193748">
        <ele>124.339930</ele>
        <time>2023-02-22T18:23:06.576Z</time>
      </trkpt>
      <trkpt lat="48.846826" lon="2.193516">
        <ele>124.328888</ele>
        <time>2023-02-22T18:23:08.657Z</time>
      </trkpt>
      <trkpt lat="48.846633" lon="2.192773">
        <ele>124.293505</ele>
        <time>2023-02-22T18:23:15.676Z</time>
      </trkpt>
      <trkpt lat="48.846476" lon="2.192193">
        <ele>124.265725</ele>
        <time>2023-02-22T18:23:21.521Z</time>
      </trkpt>
      <trkpt lat="48.846019" lon="2.190045">
        <ele>125.628180</ele>
        <time>2023-02-22T18:23:50.315Z</time>
      </trkpt>
      <trkpt lat="48.845867" lon="2.189268">
        <ele>126.477342</ele>
        <time>2023-02-22T18:24:03.954Z</time>
      </trkpt>
      <trkpt lat="48.845768" lon="2.188908">
        <ele>126.886071</ele>
        <time>2023-02-22T18:24:09.756Z</time>
      </trkpt>
      <trkpt lat="48.845656" lon="2.188464">
        <ele>127.035061</ele>
        <time>2023-02-22T18:24:16.257Z</time>
      </trkpt>
      <trkpt lat="48.845678" lon="2.188319">
        <ele>127.007067</ele>
        <time>2023-02-22T18:24:18.541Z</time>
      </trkpt>
      <trkpt lat="48.845822" lon="2.187913">
        <ele>126.920303</ele>
        <time>2023-02-22T18:24:23.682Z</time>
      </trkpt>
      <trkpt lat="48.845864" lon="2.187722">
        <ele>126.882419</ele>
        <time>2023-02-22T18:24:25.762Z</time>
      </trkpt>
      <trkpt lat="48.845816" lon="2.187523">
        <ele>126.842547</ele>
        <time>2023-02-22T18:24:27.513Z</time>
      </trkpt>
      <trkpt lat="48.845766" lon="2.187437">
        <ele>126.820960</ele>
        <time>2023-02-22T18:24:28.587Z</time>
      </trkpt>
      <trkpt lat="48.845013" lon="2.186727">
        <ele>126.516828</ele>
        <time>2023-02-22T18:24:39.027Z</time>
      </trkpt>
      <trkpt lat="48.844924" lon="2.186796">
        <ele>126.262129</ele>
        <time>2023-02-22T18:24:40.080Z</time>
      </trkpt>
      <trkpt lat="48.844837" lon="2.186931">
        <ele>125.945149</ele>
        <time>2023-02-22T18:24:41.466Z</time>
      </trkpt>
      <trkpt lat="48.844809" lon="2.186967">
        <ele>125.851650</ele>
        <time>2023-02-22T18:24:41.877Z</time>
      </trkpt>
      <trkpt lat="48.844696" lon="2.186940">
        <ele>125.560055</ele>
        <time>2023-02-22T18:24:43.120Z</time>
      </trkpt>
      <trkpt lat="48.844612" lon="2.186820">
        <ele>125.266153</ele>
        <time>2023-02-22T18:24:44.371Z</time>
      </trkpt>
      <trkpt lat="48.844580" lon="2.186641">
        <ele>124.954979</ele>
        <time>2023-02-22T18:24:45.767Z</time>
      </trkpt>
      <trkpt lat="48.844292" lon="2.185730">
        <ele>123.259479</ele>
        <time>2023-02-22T18:24:52.672Z</time>
      </trkpt>
      <trkpt lat="48.844217" lon="2.185588">
        <ele>122.954025</ele>
        <time>2023-02-22T18:24:53.904Z</time>
      </trkpt>
      <trkpt lat="48.844129" lon="2.185429">
        <ele>122.605494</ele>
        <time>2023-02-22T18:24:55.239Z</time>
      </trkpt>
      <trkpt lat="48.844023" lon="2.185257">
        <ele>122.210176</ele>
        <time>2023-02-22T18:24:56.793Z</time>
      </trkpt>
      <trkpt lat="48.843680" lon="2.184951">
        <ele>121.303612</ele>
        <time>2023-02-22T18:25:00.782Z</time>
      </trkpt>
      <trkpt lat="48.843507" lon="2.185379">
        <ele>120.575081</ele>
        <time>2023-02-22T18:25:04.226Z</time>
      </trkpt>
      <trkpt lat="48.842937" lon="2.186498">
        <ele>118.522646</ele>
        <time>2023-02-22T18:25:14.503Z</time>
      </trkpt>
      <trkpt lat="48.842695" lon="2.186430">
        <ele>118.012486</ele>
        <time>2023-02-22T18:25:17.369Z</time>
      </trkpt>
      <trkpt lat="48.842290" lon="2.186316">
        <ele>117.759798</ele>
        <time>2023-02-22T18:25:22.175Z</time>
      </trkpt>
      <trkpt lat="48.840937" lon="2.185942">
        <ele>116.908701</ele>
        <time>2023-02-22T18:25:42.108Z</time>
      </trkpt>
      <trkpt lat="48.840119" lon="2.185714">
        <ele>115.690416</ele>
        <time>2023-02-22T18:25:52.232Z</time>
      </trkpt>
      <trkpt lat="48.839979" lon="2.185740">
        <ele>115.483803</ele>
        <time>2023-02-22T18:25:54.007Z</time>
      </trkpt>
      <trkpt lat="48.839852" lon="2.185745">
        <ele>115.297698</ele>
        <time>2023-02-22T18:25:55.281Z</time>
      </trkpt>
      <trkpt lat="48.838731" lon="2.186442">
        <ele>113.726805</ele>
        <time>2023-02-22T18:26:08.478Z</time>
      </trkpt>
      <trkpt lat="48.838613" lon="2.186500">
        <ele>113.593551</ele>
        <time>2023-02-22T18:26:09.865Z</time>
      </trkpt>
      <trkpt lat="48.838533" lon="2.186525">
        <ele>113.505796</ele>
        <time>2023-02-22T18:26:10.664Z</time>
      </trkpt>
      <trkpt lat="48.838442" lon="2.186571">
        <ele>113.402752</ele>
        <time>2023-02-22T18:26:11.707Z</time>
      </trkpt>
      <trkpt lat="48.838442" lon="2.186653">
        <ele>113.344763</ele>
        <time>2023-02-22T18:26:12.328Z</time>
      </trkpt>
      <trkpt lat="48.838330" lon="2.186584">
        <ele>113.214908</ele>
        <time>2023-02-22T18:26:13.766Z</time>
      </trkpt>
      <trkpt lat="48.838278" lon="2.186547">
        <ele>113.153213</ele>
        <time>2023-02-22T18:26:14.438Z</time>
      </trkpt>
      <trkpt lat="48.838082" lon="2.186156">
        <ele>112.805640</ele>
        <time>2023-02-22T18:26:18.294Z</time>
      </trkpt>
      <trkpt lat="48.838035" lon="2.186018">
        <ele>112.695757</ele>
        <time>2023-02-22T18:26:19.734Z</time>
      </trkpt>
      <trkpt lat="48.837381" lon="2.184769">
        <ele>114.297929</ele>
        <time>2023-02-22T18:26:40.179Z</time>
      </trkpt>
      <trkpt lat="48.837271" lon="2.184649">
        <ele>114.657285</ele>
        <time>2023-02-22T18:26:43.580Z</time>
      </trkpt>
      <trkpt lat="48.837175" lon="2.184630">
        <ele>114.914188</ele>
        <time>2023-02-22T18:26:46.210Z</time>
      </trkpt>
      <trkpt lat="48.837108" lon="2.184658">
        <ele>115.098587</ele>
        <time>2023-02-22T18:26:47.889Z</time>
      </trkpt>
      <trkpt lat="48.836831" lon="2.184793">
        <ele>115.870543</ele>
        <time>2023-02-22T18:26:56.402Z</time>
      </trkpt>
      <trkpt lat="48.836655" lon="2.184884">
        <ele>116.363891</ele>
        <time>2023-02-22T18:27:02.008Z</time>
      </trkpt>
      <trkpt lat="48.836567" lon="2.184933">
        <ele>116.612602</ele>
        <time>2023-02-22T18:27:05.041Z</time>
      </trkpt>
      <trkpt lat="48.836262" lon="2.185100">
        <ele>117.903865</ele>
        <time>2023-02-22T18:27:15.908Z</time>
      </trkpt>
      <trkpt lat="48.836136" lon="2.185138">
        <ele>118.669502</ele>
        <time>2023-02-22T18:27:20.608Z</time>
      </trkpt>
      <trkpt lat="48.835702" lon="2.185134">
        <ele>121.256269</ele>
        <time>2023-02-22T18:27:36.864Z</time>
      </trkpt>
      <trkpt lat="48.835234" lon="2.185167">
        <ele>124.048639</ele>
        <time>2023-02-22T18:27:56.220Z</time>
      </trkpt>
      <trkpt lat="48.834779" lon="2.185220">
        <ele>126.768482</ele>
        <time>2023-02-22T18:28:15.056Z</time>
      </trkpt>
      <trkpt lat="48.833928" lon="2.185272">
        <ele>131.938514</ele>
        <time>2023-02-22T18:28:49.718Z</time>
      </trkpt>
      <trkpt lat="48.833824" lon="2.184501">
        <ele>135.098669</ele>
        <time>2023-02-22T18:29:12.793Z</time>
      </trkpt>
      <trkpt lat="48.833458" lon="2.182900">
        <ele>141.065093</ele>
        <time>2023-02-22T18:30:00.868Z</time>
      </trkpt>
      <trkpt lat="48.833162" lon="2.182388">
        <ele>143.057272</ele>
        <time>2023-02-22T18:30:19.347Z</time>
      </trkpt>
      <trkpt lat="48.832873" lon="2.182026">
        <ele>144.720856</ele>
        <time>2023-02-22T18:30:34.800Z</time>
      </trkpt>
      <trkpt lat="48.832031" lon="2.181100">
        <ele>146.418752</ele>
        <time>2023-02-22T18:31:04.516Z</time>
      </trkpt>
      <trkpt lat="48.831824" lon="2.180765">
        <ele>146.212343</ele>
        <time>2023-02-22T18:31:10.162Z</time>
      </trkpt>
      <trkpt lat="48.831428" lon="2.179841">
        <ele>145.717027</ele>
        <time>2023-02-22T18:31:21.301Z</time>
      </trkpt>
      <trkpt lat="48.831371" lon="2.179692">
        <ele>145.639608</ele>
        <time>2023-02-22T18:31:32.571Z</time>
      </trkpt>
      <trkpt lat="48.831024" lon="2.178849">
        <ele>144.420705</ele>
        <time>2023-02-22T18:31:39.164Z</time>
      </trkpt>
      <trkpt lat="48.830726" lon="2.178135">
        <ele>143.283183</ele>
        <time>2023-02-22T18:31:44.806Z</time>
      </trkpt>
      <trkpt lat="48.830710" lon="2.178092">
        <ele>143.216722</ele>
        <time>2023-02-22T18:31:45.169Z</time>
      </trkpt>
      <trkpt lat="48.830547" lon="2.177678">
        <ele>142.567643</ele>
        <time>2023-02-22T18:31:48.838Z</time>
      </trkpt>
      <trkpt lat="48.830509" lon="2.177582">
        <ele>142.416918</ele>
        <time>2023-02-22T18:31:49.826Z</time>
      </trkpt>
      <trkpt lat="48.830467" lon="2.177607">
        <ele>142.324715</ele>
        <time>2023-02-22T18:31:50.392Z</time>
      </trkpt>
      <trkpt lat="48.830347" lon="2.177670">
        <ele>142.065203</ele>
        <time>2023-02-22T18:31:52.199Z</time>
      </trkpt>
      <trkpt lat="48.830310" lon="2.177530">
        <ele>141.964892</ele>
        <time>2023-02-22T18:31:53.662Z</time>
      </trkpt>
      <trkpt lat="48.830179" lon="2.177043">
        <ele>143.011632</ele>
        <time>2023-02-22T18:31:59.936Z</time>
      </trkpt>
      <trkpt lat="48.830107" lon="2.176637">
        <ele>143.848235</ele>
        <time>2023-02-22T18:32:06.081Z</time>
      </trkpt>
      <trkpt lat="48.830055" lon="2.174515">
        <ele>148.606742</ele>
        <time>2023-02-22T18:32:51.066Z</time>
      </trkpt>
      <trkpt lat="48.829964" lon="2.174368">
        <ele>149.300346</ele>
        <time>2023-02-22T18:32:55.976Z</time>
      </trkpt>
      <trkpt lat="48.829860" lon="2.174333">
        <ele>149.856551</ele>
        <time>2023-02-22T18:33:00.097Z</time>
      </trkpt>
      <trkpt lat="48.829603" lon="2.174399">
        <ele>151.217523</ele>
        <time>2023-02-22T18:33:09.816Z</time>
      </trkpt>
      <trkpt lat="48.828387" lon="2.174875">
        <ele>157.498328</ele>
        <time>2023-02-22T18:33:55.748Z</time>
      </trkpt>
      <trkpt lat="48.828274" lon="2.174919">
        <ele>157.946213</ele>
        <time>2023-02-22T18:34:00.011Z</time>
      </trkpt>
      <trkpt lat="48.827866" lon="2.175078">
        <ele>159.563437</ele>
        <time>2023-02-22T18:34:14.095Z</time>
      </trkpt>
      <trkpt lat="48.827736" lon="2.175126">
        <ele>160.077098</ele>
        <time>2023-02-22T18:34:18.462Z</time>
      </trkpt>
      <trkpt lat="48.827380" lon="2.174839">
        <ele>161.624515</ele>
        <time>2023-02-22T18:34:32.264Z</time>
      </trkpt>
      <trkpt lat="48.826957" lon="2.174505">
        <ele>163.454918</ele>
        <time>2023-02-22T18:34:47.321Z</time>
      </trkpt>
      <trkpt lat="48.826861" lon="2.174427">
        <ele>163.774201</ele>
        <time>2023-02-22T18:34:50.576Z</time>
      </trkpt>
      <trkpt lat="48.825373" lon="2.173222">
        <ele>167.534717</ele>
        <time>2023-02-22T18:35:40.072Z</time>
      </trkpt>
      <trkpt lat="48.824590" lon="2.172589">
        <ele>168.537564</ele>
        <time>2023-02-22T18:36:02.571Z</time>
      </trkpt>
      <trkpt lat="48.824378" lon="2.172313">
        <ele>168.834506</ele>
        <time>2023-02-22T18:36:09.177Z</time>
      </trkpt>
      <trkpt lat="48.824220" lon="2.172033">
        <ele>169.092707</ele>
        <time>2023-02-22T18:36:14.910Z</time>
      </trkpt>
      <trkpt lat="48.823986" lon="2.171470">
        <ele>169.558880</ele>
        <time>2023-02-22T18:36:24.897Z</time>
      </trkpt>
      <trkpt lat="48.823943" lon="2.171206">
        <ele>169.603341</ele>
        <time>2023-02-22T18:36:28.840Z</time>
      </trkpt>
      <trkpt lat="48.823352" lon="2.167034">
        <ele>170.143085</ele>
        <time>2023-02-22T18:37:27.481Z</time>
      </trkpt>
      <trkpt lat="48.823246" lon="2.165876">
        <ele>170.435293</ele>
        <time>2023-02-22T18:37:42.779Z</time>
      </trkpt>
      <trkpt lat="48.823158" lon="2.164836">
        <ele>171.360275</ele>
        <time>2023-02-22T18:37:58.336Z</time>
      </trkpt>
      <trkpt lat="48.823156" lon="2.164343">
        <ele>171.795184</ele>
        <time>2023-02-22T18:38:07.056Z</time>
      </trkpt>
      <trkpt lat="48.823469" lon="2.163017">
        <ele>173.603692</ele>
        <time>2023-02-22T18:38:34.411Z</time>
      </trkpt>
      <trkpt lat="48.823691" lon="2.162179">
        <ele>175.512952</ele>
        <time>2023-02-22T18:38:54.422Z</time>
      </trkpt>
      <trkpt lat="48.823709" lon="2.162111">
        <ele>175.667863</ele>
        <time>2023-02-22T18:38:55.990Z</time>
      </trkpt>
      <trkpt lat="48.823737" lon="2.162085">
        <ele>175.773221</ele>
        <time>2023-02-22T18:38:56.990Z</time>
      </trkpt>
      <trkpt lat="48.823732" lon="2.161901">
        <ele>176.162465</ele>
        <time>2023-02-22T18:39:00.702Z</time>
      </trkpt>
      <trkpt lat="48.823692" lon="2.161804">
        <ele>176.404386</ele>
        <time>2023-02-22T18:39:03.022Z</time>
      </trkpt>
      <trkpt lat="48.823607" lon="2.161461">
        <ele>177.179027</ele>
        <time>2023-02-22T18:39:11.576Z</time>
      </trkpt>
      <trkpt lat="48.823445" lon="2.160809">
        <ele>178.540846</ele>
        <time>2023-02-22T18:39:27.881Z</time>
      </trkpt>
      <trkpt lat="48.823172" lon="2.160097">
        <ele>179.492741</ele>
        <time>2023-02-22T18:39:44.573Z</time>
      </trkpt>
      <trkpt lat="48.822887" lon="2.159467">
        <ele>180.375833</ele>
        <time>2023-02-22T18:39:57.891Z</time>
      </trkpt>
      <trkpt lat="48.822476" lon="2.158823">
        <ele>181.412024</ele>
        <time>2023-02-22T18:40:11.934Z</time>
      </trkpt>
      <trkpt lat="48.822356" lon="2.158464">
        <ele>181.390388</ele>
        <time>2023-02-22T18:40:17.664Z</time>
      </trkpt>
      <trkpt lat="48.822229" lon="2.157966">
        <ele>181.051394</ele>
        <time>2023-02-22T18:40:24.865Z</time>
      </trkpt>
      <trkpt lat="48.822178" lon="2.157596">
        <ele>180.811442</ele>
        <time>2023-02-22T18:40:29.491Z</time>
      </trkpt>
      <trkpt lat="48.822148" lon="2.157353">
        <ele>180.654507</ele>
        <time>2023-02-22T18:40:32.240Z</time>
      </trkpt>
      <trkpt lat="48.822116" lon="2.157099">
        <ele>180.490353</ele>
        <time>2023-02-22T18:40:35.019Z</time>
      </trkpt>
      <trkpt lat="48.821918" lon="2.155238">
        <ele>178.944539</ele>
        <time>2023-02-22T18:40:54.590Z</time>
      </trkpt>
      <trkpt lat="48.821757" lon="2.153721">
        <ele>177.332780</ele>
        <time>2023-02-22T18:41:11.072Z</time>
      </trkpt>
      <trkpt lat="48.821720" lon="2.153529">
        <ele>177.122937</ele>
        <time>2023-02-22T18:41:13.329Z</time>
      </trkpt>
      <trkpt lat="48.821571" lon="2.153088">
        <ele>176.882271</ele>
        <time>2023-02-22T18:41:18.955Z</time>
      </trkpt>
      <trkpt lat="48.821214" lon="2.152400">
        <ele>176.675326</ele>
        <time>2023-02-22T18:41:29.204Z</time>
      </trkpt>
      <trkpt lat="48.820980" lon="2.152097">
        <ele>176.564992</ele>
        <time>2023-02-22T18:41:35.045Z</time>
      </trkpt>
      <trkpt lat="48.820616" lon="2.151821">
        <ele>176.419014</ele>
        <time>2023-02-22T18:41:43.401Z</time>
      </trkpt>
      <trkpt lat="48.820076" lon="2.151368">
        <ele>176.583382</ele>
        <time>2023-02-22T18:41:57.178Z</time>
      </trkpt>
      <trkpt lat="48.819725" lon="2.151041">
        <ele>176.908907</ele>
        <time>2023-02-22T18:42:07.227Z</time>
      </trkpt>
      <trkpt lat="48.819579" lon="2.150941">
        <ele>177.035521</ele>
        <time>2023-02-22T18:42:11.196Z</time>
      </trkpt>
      <trkpt lat="48.819163" lon="2.150879">
        <ele>177.365967</ele>
        <time>2023-02-22T18:42:21.594Z</time>
      </trkpt>
      <trkpt lat="48.819121" lon="2.150828">
        <ele>177.408477</ele>
        <time>2023-02-22T18:42:22.883Z</time>
      </trkpt>
      <trkpt lat="48.819123" lon="2.150685">
        <ele>177.482929</ele>
        <time>2023-02-22T18:42:25.286Z</time>
      </trkpt>
      <trkpt lat="48.819156" lon="2.150560">
        <ele>177.553030</ele>
        <time>2023-02-22T18:42:26.974Z</time>
      </trkpt>
      <trkpt lat="48.819182" lon="2.150375">
        <ele>177.651496</ele>
        <time>2023-02-22T18:42:29.255Z</time>
      </trkpt>
      <trkpt lat="48.819185" lon="2.150250">
        <ele>177.716604</ele>
        <time>2023-02-22T18:42:30.715Z</time>
      </trkpt>
      <trkpt lat="48.819098" lon="2.150106">
        <ele>177.576707</ele>
        <time>2023-02-22T18:42:33.104Z</time>
      </trkpt>
      <trkpt lat="48.818983" lon="2.150094">
        <ele>177.386796</ele>
        <time>2023-02-22T18:42:35.011Z</time>
      </trkpt>
      <trkpt lat="48.819012" lon="2.149750">
        <ele>177.010582</ele>
        <time>2023-02-22T18:42:38.450Z</time>
      </trkpt>
      <trkpt lat="48.819039" lon="2.149475">
        <ele>176.708967</ele>
        <time>2023-02-22T18:42:40.795Z</time>
      </trkpt>
      <trkpt lat="48.819089" lon="2.148934">
        <ele>176.116344</ele>
        <time>2023-02-22T18:42:44.646Z</time>
      </trkpt>
      <trkpt lat="48.819067" lon="2.148461">
        <ele>175.601960</ele>
        <time>2023-02-22T18:42:47.957Z</time>
      </trkpt>
      <trkpt lat="48.818975" lon="2.148093">
        <ele>175.174952</ele>
        <time>2023-02-22T18:42:50.637Z</time>
      </trkpt>
      <trkpt lat="48.818881" lon="2.147854">
        <ele>174.872955</ele>
        <time>2023-02-22T18:42:52.457Z</time>
      </trkpt>
      <trkpt lat="48.818676" lon="2.147526">
        <ele>173.958140</ele>
        <time>2023-02-22T18:42:55.489Z</time>
      </trkpt>
      <trkpt lat="48.818432" lon="2.147311">
        <ele>172.993378</ele>
        <time>2023-02-22T18:42:58.326Z</time>
      </trkpt>
      <trkpt lat="48.818316" lon="2.147237">
        <ele>172.563080</ele>
        <time>2023-02-22T18:42:59.541Z</time>
      </trkpt>
      <trkpt lat="48.818115" lon="2.147185">
        <ele>171.865757</ele>
        <time>2023-02-22T18:43:01.665Z</time>
      </trkpt>
      <trkpt lat="48.818011" lon="2.147191">
        <ele>171.509821</ele>
        <time>2023-02-22T18:43:02.716Z</time>
      </trkpt>
      <trkpt lat="48.817826" lon="2.147277">
        <ele>170.848144</ele>
        <time>2023-02-22T18:43:04.736Z</time>
      </trkpt>
      <trkpt lat="48.817677" lon="2.147433">
        <ele>170.229206</ele>
        <time>2023-02-22T18:43:06.672Z</time>
      </trkpt>
      <trkpt lat="48.817381" lon="2.148110">
        <ele>168.252686</ele>
        <time>2023-02-22T18:43:11.801Z</time>
      </trkpt>
      <trkpt lat="48.817317" lon="2.148207">
        <ele>167.743190</ele>
        <time>2023-02-22T18:43:12.857Z</time>
      </trkpt>
      <trkpt lat="48.817125" lon="2.148351">
        <ele>166.536554</ele>
        <time>2023-02-22T18:43:14.816Z</time>
      </trkpt>
      <trkpt lat="48.816900" lon="2.148388">
        <ele>165.261294</ele>
        <time>2023-02-22T18:43:17.331Z</time>
      </trkpt>
      <trkpt lat="48.816805" lon="2.148366">
        <ele>164.719793</ele>
        <time>2023-02-22T18:43:18.183Z</time>
      </trkpt>
      <trkpt lat="48.816520" lon="2.148209">
        <ele>163.011462</ele>
        <time>2023-02-22T18:43:21.141Z</time>
      </trkpt>
      <trkpt lat="48.816446" lon="2.148132">
        <ele>162.505993</ele>
        <time>2023-02-22T18:43:21.906Z</time>
      </trkpt>
      <trkpt lat="48.816333" lon="2.147932">
        <ele>161.528174</ele>
        <time>2023-02-22T18:43:23.634Z</time>
      </trkpt>
      <trkpt lat="48.815857" lon="2.146627">
        <ele>154.959466</ele>
        <time>2023-02-22T18:43:32.344Z</time>
      </trkpt>
      <trkpt lat="48.815672" lon="2.146108">
        <ele>151.863632</ele>
        <time>2023-02-22T18:43:35.706Z</time>
      </trkpt>
      <trkpt lat="48.815529" lon="2.145683">
        <ele>149.360004</ele>
        <time>2023-02-22T18:43:38.443Z</time>
      </trkpt>
      <trkpt lat="48.815333" lon="2.145158">
        <ele>146.194149</ele>
        <time>2023-02-22T18:43:41.914Z</time>
      </trkpt>
      <trkpt lat="48.814586" lon="2.143041">
        <ele>137.554241</ele>
        <time>2023-02-22T18:43:56.583Z</time>
      </trkpt>
      <trkpt lat="48.814011" lon="2.141451">
        <ele>133.565089</ele>
        <time>2023-02-22T18:44:08.930Z</time>
      </trkpt>
      <trkpt lat="48.813890" lon="2.141097">
        <ele>132.969903</ele>
        <time>2023-02-22T18:44:11.837Z</time>
      </trkpt>
      <trkpt lat="48.813826" lon="2.140909">
        <ele>132.654085</ele>
        <time>2023-02-22T18:44:13.385Z</time>
      </trkpt>
      <trkpt lat="48.813391" lon="2.139711">
        <ele>130.774246</ele>
        <time>2023-02-22T18:44:23.687Z</time>
      </trkpt>
      <trkpt lat="48.813357" lon="2.139532">
        <ele>130.583796</ele>
        <time>2023-02-22T18:44:24.989Z</time>
      </trkpt>
      <trkpt lat="48.813600" lon="2.136652">
        <ele>127.845339</ele>
        <time>2023-02-22T18:44:46.947Z</time>
      </trkpt>
      <trkpt lat="48.813617" lon="2.136486">
        <ele>127.728557</ele>
        <time>2023-02-22T18:44:48.302Z</time>
      </trkpt>
      <trkpt lat="48.813684" lon="2.136307">
        <ele>127.585430</ele>
        <time>2023-02-22T18:44:49.967Z</time>
      </trkpt>
      <trkpt lat="48.813653" lon="2.136083">
        <ele>127.426316</ele>
        <time>2023-02-22T18:44:51.831Z</time>
      </trkpt>
      <trkpt lat="48.813653" lon="2.136001">
        <ele>127.369314</ele>
        <time>2023-02-22T18:44:52.503Z</time>
      </trkpt>
      <trkpt lat="48.812954" lon="2.135892">
        <ele>126.627547</ele>
        <time>2023-02-22T18:45:01.280Z</time>
      </trkpt>
      <trkpt lat="48.812873" lon="2.135842">
        <ele>126.535247</ele>
        <time>2023-02-22T18:45:02.820Z</time>
      </trkpt>
      <trkpt lat="48.812526" lon="2.135635">
        <ele>126.298032</ele>
        <time>2023-02-22T18:45:09.329Z</time>
      </trkpt>
      <trkpt lat="48.812467" lon="2.135599">
        <ele>126.266693</ele>
        <time>2023-02-22T18:45:10.138Z</time>
      </trkpt>
      <trkpt lat="48.812424" lon="2.135573">
        <ele>126.243882</ele>
        <time>2023-02-22T18:45:10.715Z</time>
      </trkpt>
      <trkpt lat="48.812232" lon="2.135454">
        <ele>126.141676</ele>
        <time>2023-02-22T18:45:14.405Z</time>
      </trkpt>
      <trkpt lat="48.811941" lon="2.135273">
        <ele>125.986690</ele>
        <time>2023-02-22T18:45:20.132Z</time>
      </trkpt>
      <trkpt lat="48.811834" lon="2.135207">
        <ele>125.929770</ele>
        <time>2023-02-22T18:45:21.691Z</time>
      </trkpt>
      <trkpt lat="48.811704" lon="2.135127">
        <ele>125.860637</ele>
        <time>2023-02-22T18:45:23.613Z</time>
      </trkpt>
      <trkpt lat="48.811533" lon="2.135020">
        <ele>125.769484</ele>
        <time>2023-02-22T18:45:26.166Z</time>
      </trkpt>
      <trkpt lat="48.811456" lon="2.134973">
        <ele>125.728583</ele>
        <time>2023-02-22T18:45:27.337Z</time>
      </trkpt>
      <trkpt lat="48.811276" lon="2.134864">
        <ele>125.633075</ele>
        <time>2023-02-22T18:45:30.028Z</time>
      </trkpt>
      <trkpt lat="48.811207" lon="2.134823">
        <ele>125.596557</ele>
        <time>2023-02-22T18:45:31.080Z</time>
      </trkpt>
      <trkpt lat="48.810856" lon="2.134609">
        <ele>125.720196</ele>
        <time>2023-02-22T18:45:38.584Z</time>
      </trkpt>
      <trkpt lat="48.810800" lon="2.134576">
        <ele>125.756946</ele>
        <time>2023-02-22T18:45:39.532Z</time>
      </trkpt>
      <trkpt lat="48.810751" lon="2.134545">
        <ele>125.789422</ele>
        <time>2023-02-22T18:45:40.370Z</time>
      </trkpt>
      <trkpt lat="48.810164" lon="2.134178">
        <ele>126.177801</ele>
        <time>2023-02-22T18:45:54.172Z</time>
      </trkpt>
      <trkpt lat="48.810135" lon="2.134162">
        <ele>126.196678</ele>
        <time>2023-02-22T18:45:54.885Z</time>
      </trkpt>
      <trkpt lat="48.810018" lon="2.134094">
        <ele>126.273323</ele>
        <time>2023-02-22T18:45:57.099Z</time>
      </trkpt>
      <trkpt lat="48.809923" lon="2.134040">
        <ele>126.335383</ele>
        <time>2023-02-22T18:45:58.900Z</time>
      </trkpt>
      <trkpt lat="48.809820" lon="2.133977">
        <ele>126.403319</ele>
        <time>2023-02-22T18:46:01.060Z</time>
      </trkpt>
      <trkpt lat="48.809775" lon="2.133950">
        <ele>126.432922</ele>
        <time>2023-02-22T18:46:02.008Z</time>
      </trkpt>
      <trkpt lat="48.809747" lon="2.133933">
        <ele>126.451371</ele>
        <time>2023-02-22T18:46:02.607Z</time>
      </trkpt>
      <trkpt lat="48.809691" lon="2.133899">
        <ele>126.488269</ele>
        <time>2023-02-22T18:46:03.810Z</time>
      </trkpt>
      <trkpt lat="48.809625" lon="2.133858">
        <ele>126.531896</ele>
        <time>2023-02-22T18:46:05.221Z</time>
      </trkpt>
      <trkpt lat="48.809596" lon="2.133841">
        <ele>126.550915</ele>
        <time>2023-02-22T18:46:05.854Z</time>
      </trkpt>
      <trkpt lat="48.809443" lon="2.133750">
        <ele>126.654143</ele>
        <time>2023-02-22T18:46:10.292Z</time>
      </trkpt>
      <trkpt lat="48.809225" lon="2.133619">
        <ele>126.949091</ele>
        <time>2023-02-22T18:46:16.512Z</time>
      </trkpt>
      <trkpt lat="48.809107" lon="2.133549">
        <ele>127.108467</ele>
        <time>2023-02-22T18:46:19.963Z</time>
      </trkpt>
      <trkpt lat="48.809064" lon="2.133524">
        <ele>127.166392</ele>
        <time>2023-02-22T18:46:20.963Z</time>
      </trkpt>
      <trkpt lat="48.809014" lon="2.133490">
        <ele>127.235314</ele>
        <time>2023-02-22T18:46:22.048Z</time>
      </trkpt>
      <trkpt lat="48.808919" lon="2.133430">
        <ele>127.364754</ele>
        <time>2023-02-22T18:46:24.035Z</time>
      </trkpt>
      <trkpt lat="48.808829" lon="2.133379">
        <ele>127.485606</ele>
        <time>2023-02-22T18:46:26.005Z</time>
      </trkpt>
      <trkpt lat="48.808777" lon="2.133348">
        <ele>127.555885</ele>
        <time>2023-02-22T18:46:27.119Z</time>
      </trkpt>
      <trkpt lat="48.808763" lon="2.133341">
        <ele>127.574428</ele>
        <time>2023-02-22T18:46:27.401Z</time>
      </trkpt>
      <trkpt lat="48.808398" lon="2.133131">
        <ele>128.065471</ele>
        <time>2023-02-22T18:46:36.510Z</time>
      </trkpt>
      <trkpt lat="48.808228" lon="2.133029">
        <ele>128.295430</ele>
        <time>2023-02-22T18:46:40.950Z</time>
      </trkpt>
      <trkpt lat="48.808035" lon="2.132913">
        <ele>128.556562</ele>
        <time>2023-02-22T18:46:46.248Z</time>
      </trkpt>
      <trkpt lat="48.807721" lon="2.132723">
        <ele>128.999740</ele>
        <time>2023-02-22T18:46:54.942Z</time>
      </trkpt>
      <trkpt lat="48.807679" lon="2.132698">
        <ele>129.071010</ele>
        <time>2023-02-22T18:46:56.174Z</time>
      </trkpt>
      <trkpt lat="48.807617" lon="2.132660">
        <ele>129.176640</ele>
        <time>2023-02-22T18:46:57.943Z</time>
      </trkpt>
      <trkpt lat="48.807555" lon="2.132623">
        <ele>129.281885</ele>
        <time>2023-02-22T18:46:59.356Z</time>
      </trkpt>
      <trkpt lat="48.807471" lon="2.132572">
        <ele>129.424810</ele>
        <time>2023-02-22T18:47:01.257Z</time>
      </trkpt>
      <trkpt lat="48.807370" lon="2.132511">
        <ele>129.596535</ele>
        <time>2023-02-22T18:47:03.701Z</time>
      </trkpt>
      <trkpt lat="48.807226" lon="2.132424">
        <ele>129.841382</ele>
        <time>2023-02-22T18:47:07.026Z</time>
      </trkpt>
      <trkpt lat="48.807148" lon="2.132377">
        <ele>129.973960</ele>
        <time>2023-02-22T18:47:08.833Z</time>
      </trkpt>
      <trkpt lat="48.807103" lon="2.132344">
        <ele>130.052911</ele>
        <time>2023-02-22T18:47:09.889Z</time>
      </trkpt>
      <trkpt lat="48.806600" lon="2.132033">
        <ele>130.910939</ele>
        <time>2023-02-22T18:47:21.849Z</time>
      </trkpt>
      <trkpt lat="48.806093" lon="2.131724">
        <ele>131.770306</ele>
        <time>2023-02-22T18:47:32.644Z</time>
      </trkpt>
      <trkpt lat="48.806043" lon="2.131694">
        <ele>131.839960</ele>
        <time>2023-02-22T18:47:33.840Z</time>
      </trkpt>
      <trkpt lat="48.806006" lon="2.131671">
        <ele>131.891758</ele>
        <time>2023-02-22T18:47:34.713Z</time>
      </trkpt>
      <trkpt lat="48.805689" lon="2.131480">
        <ele>132.333612</ele>
        <time>2023-02-22T18:47:41.937Z</time>
      </trkpt>
      <trkpt lat="48.805330" lon="2.131263">
        <ele>132.834227</ele>
        <time>2023-02-22T18:47:50.780Z</time>
      </trkpt>
      <trkpt lat="48.805301" lon="2.131241">
        <ele>132.876227</ele>
        <time>2023-02-22T18:47:51.486Z</time>
      </trkpt>
      <trkpt lat="48.805258" lon="2.131215">
        <ele>132.936192</ele>
        <time>2023-02-22T18:47:52.418Z</time>
      </trkpt>
      <trkpt lat="48.805186" lon="2.131182">
        <ele>133.033631</ele>
        <time>2023-02-22T18:47:53.981Z</time>
      </trkpt>
      <trkpt lat="48.805139" lon="2.131090">
        <ele>133.132982</ele>
        <time>2023-02-22T18:47:55.648Z</time>
      </trkpt>
      <trkpt lat="48.805106" lon="2.131077">
        <ele>133.177152</ele>
        <time>2023-02-22T18:47:56.407Z</time>
      </trkpt>
      <trkpt lat="48.804974" lon="2.131035">
        <ele>133.351883</ele>
        <time>2023-02-22T18:47:59.197Z</time>
      </trkpt>
      <trkpt lat="48.804891" lon="2.131012">
        <ele>133.461192</ele>
        <time>2023-02-22T18:48:00.770Z</time>
      </trkpt>
      <trkpt lat="48.804800" lon="2.130991">
        <ele>133.580444</ele>
        <time>2023-02-22T18:48:02.520Z</time>
      </trkpt>
      <trkpt lat="48.804698" lon="2.131013">
        <ele>133.713920</ele>
        <time>2023-02-22T18:48:04.553Z</time>
      </trkpt>
      <trkpt lat="48.804663" lon="2.131008">
        <ele>133.759465</ele>
        <time>2023-02-22T18:48:05.205Z</time>
      </trkpt>
      <trkpt lat="48.804262" lon="2.130866">
        <ele>134.084931</ele>
        <time>2023-02-22T18:48:12.018Z</time>
      </trkpt>
      <trkpt lat="48.804164" lon="2.130792">
        <ele>134.085869</ele>
        <time>2023-02-22T18:48:13.573Z</time>
      </trkpt>
      <trkpt lat="48.804075" lon="2.130805">
        <ele>134.086636</ele>
        <time>2023-02-22T18:48:14.956Z</time>
      </trkpt>
      <trkpt lat="48.803949" lon="2.130737">
        <ele>134.087781</ele>
        <time>2023-02-22T18:48:17.016Z</time>
      </trkpt>
      <trkpt lat="48.803306" lon="2.130353">
        <ele>134.093702</ele>
        <time>2023-02-22T18:48:27.593Z</time>
      </trkpt>
      <trkpt lat="48.802642" lon="2.129947">
        <ele>133.951333</ele>
        <time>2023-02-22T18:48:37.666Z</time>
      </trkpt>
      <trkpt lat="48.802587" lon="2.129912">
        <ele>133.865305</ele>
        <time>2023-02-22T18:48:38.424Z</time>
      </trkpt>
      <trkpt lat="48.802573" lon="2.129842">
        <ele>133.795797</ele>
        <time>2023-02-22T18:48:39.024Z</time>
      </trkpt>
      <trkpt lat="48.802520" lon="2.129807">
        <ele>133.712423</ele>
        <time>2023-02-22T18:48:39.745Z</time>
      </trkpt>
      <trkpt lat="48.802471" lon="2.129776">
        <ele>133.635847</ele>
        <time>2023-02-22T18:48:40.378Z</time>
      </trkpt>
      <trkpt lat="48.802375" lon="2.129716">
        <ele>133.486088</ele>
        <time>2023-02-22T18:48:41.584Z</time>
      </trkpt>
      <trkpt lat="48.802245" lon="2.129635">
        <ele>133.283380</ele>
        <time>2023-02-22T18:48:43.209Z</time>
      </trkpt>
      <trkpt lat="48.802069" lon="2.129529">
        <ele>133.010245</ele>
        <time>2023-02-22T18:48:45.358Z</time>
      </trkpt>
      <trkpt lat="48.802035" lon="2.129506">
        <ele>132.956550</ele>
        <time>2023-02-22T18:48:45.767Z</time>
      </trkpt>
      <trkpt lat="48.801955" lon="2.129455">
        <ele>132.831386</ele>
        <time>2023-02-22T18:48:46.735Z</time>
      </trkpt>
      <trkpt lat="48.801858" lon="2.129415">
        <ele>132.686390</ele>
        <time>2023-02-22T18:48:47.858Z</time>
      </trkpt>
      <trkpt lat="48.801156" lon="2.128972">
        <ele>131.589730</ele>
        <time>2023-02-22T18:48:56.328Z</time>
      </trkpt>
      <trkpt lat="48.800824" lon="2.128775">
        <ele>131.196456</ele>
        <time>2023-02-22T18:49:00.332Z</time>
      </trkpt>
      <trkpt lat="48.800584" lon="2.128591">
        <ele>130.917984</ele>
        <time>2023-02-22T18:49:03.322Z</time>
      </trkpt>
      <trkpt lat="48.800465" lon="2.128520">
        <ele>130.785555</ele>
        <time>2023-02-22T18:49:04.721Z</time>
      </trkpt>
      <trkpt lat="48.800269" lon="2.128395">
        <ele>130.565367</ele>
        <time>2023-02-22T18:49:07.114Z</time>
      </trkpt>
      <trkpt lat="48.799952" lon="2.128223">
        <ele>130.216702</ele>
        <time>2023-02-22T18:49:11.147Z</time>
      </trkpt>
      <trkpt lat="48.799848" lon="2.128146">
        <ele>130.096859</ele>
        <time>2023-02-22T18:49:12.624Z</time>
      </trkpt>
      <trkpt lat="48.799777" lon="2.128096">
        <ele>130.015795</ele>
        <time>2023-02-22T18:49:13.678Z</time>
      </trkpt>
      <trkpt lat="48.799683" lon="2.128041">
        <ele>129.911456</ele>
        <time>2023-02-22T18:49:15.152Z</time>
      </trkpt>
      <trkpt lat="48.799612" lon="2.128003">
        <ele>129.833483</ele>
        <time>2023-02-22T18:49:16.253Z</time>
      </trkpt>
      <trkpt lat="48.799509" lon="2.127937">
        <ele>129.717690</ele>
        <time>2023-02-22T18:49:17.971Z</time>
      </trkpt>
      <trkpt lat="48.799357" lon="2.127839">
        <ele>129.738183</ele>
        <time>2023-02-22T18:49:20.888Z</time>
      </trkpt>
      <trkpt lat="48.799115" lon="2.127744">
        <ele>130.002465</ele>
        <time>2023-02-22T18:49:25.376Z</time>
      </trkpt>
      <trkpt lat="48.799107" lon="2.127739">
        <ele>130.011612</ele>
        <time>2023-02-22T18:49:25.563Z</time>
      </trkpt>
      <trkpt lat="48.798798" lon="2.127533">
        <ele>130.368430</ele>
        <time>2023-02-22T18:49:32.041Z</time>
      </trkpt>
      <trkpt lat="48.798781" lon="2.127522">
        <ele>130.387968</ele>
        <time>2023-02-22T18:49:32.396Z</time>
      </trkpt>
      <trkpt lat="48.798095" lon="2.127050">
        <ele>131.184290</ele>
        <time>2023-02-22T18:49:47.136Z</time>
      </trkpt>
      <trkpt lat="48.797518" lon="2.126663">
        <ele>131.765461</ele>
        <time>2023-02-22T18:50:00.585Z</time>
      </trkpt>
      <trkpt lat="48.797270" lon="2.126493">
        <ele>131.973067</ele>
        <time>2023-02-22T18:50:06.145Z</time>
      </trkpt>
      <trkpt lat="48.796974" lon="2.126293">
        <ele>132.220258</ele>
        <time>2023-02-22T18:50:12.246Z</time>
      </trkpt>
      <trkpt lat="48.796679" lon="2.126089">
        <ele>132.467579</ele>
        <time>2023-02-22T18:50:17.591Z</time>
      </trkpt>
      <trkpt lat="48.796404" lon="2.125914">
        <ele>132.695078</ele>
        <time>2023-02-22T18:50:22.091Z</time>
      </trkpt>
      <trkpt lat="48.795825" lon="2.125523">
        <ele>133.275216</ele>
        <time>2023-02-22T18:50:31.552Z</time>
      </trkpt>
      <trkpt lat="48.795205" lon="2.125097">
        <ele>133.985141</ele>
        <time>2023-02-22T18:50:44.196Z</time>
      </trkpt>
      <trkpt lat="48.794595" lon="2.124681">
        <ele>134.682733</ele>
        <time>2023-02-22T18:50:57.331Z</time>
      </trkpt>
      <trkpt lat="48.793982" lon="2.124269">
        <ele>136.832811</ele>
        <time>2023-02-22T18:51:13.562Z</time>
      </trkpt>
      <trkpt lat="48.793735" lon="2.125122">
        <ele>139.046534</ele>
        <time>2023-02-22T18:51:31.134Z</time>
      </trkpt>
      <trkpt lat="48.793467" lon="2.126031">
        <ele>141.554089</ele>
        <time>2023-02-22T18:51:51.865Z</time>
      </trkpt>
      <trkpt lat="48.792980" lon="2.127696">
        <ele>150.446558</ele>
        <time>2023-02-22T18:52:46.009Z</time>
      </trkpt>
      <trkpt lat="48.792927" lon="2.127772">
        <ele>150.986790</ele>
        <time>2023-02-22T18:52:49.903Z</time>
      </trkpt>
      <trkpt lat="48.792802" lon="2.128218">
        <ele>153.352707</ele>
        <time>2023-02-22T18:53:05.485Z</time>
      </trkpt>
      <trkpt lat="48.792811" lon="2.128350">
        <ele>154.000489</ele>
        <time>2023-02-22T18:53:10.418Z</time>
      </trkpt>
      <trkpt lat="48.792819" lon="2.128388">
        <ele>154.195222</ele>
        <time>2023-02-22T18:53:11.423Z</time>
      </trkpt>
      <trkpt lat="48.792758" lon="2.128513">
        <ele>154.943322</ele>
        <time>2023-02-22T18:53:16.311Z</time>
      </trkpt>
      <trkpt lat="48.792699" lon="2.128539">
        <ele>155.383868</ele>
        <time>2023-02-22T18:53:19.141Z</time>
      </trkpt>
      <trkpt lat="48.792406" lon="2.128484">
        <ele>157.500921</ele>
        <time>2023-02-22T18:53:33.231Z</time>
      </trkpt>
      <trkpt lat="48.792273" lon="2.128354">
        <ele>158.635263</ele>
        <time>2023-02-22T18:53:40.324Z</time>
      </trkpt>
      <trkpt lat="48.792226" lon="2.128269">
        <ele>159.159502</ele>
        <time>2023-02-22T18:53:44.168Z</time>
      </trkpt>
      <trkpt lat="48.791916" lon="2.127100">
        <ele>165.112572</ele>
        <time>2023-02-22T18:54:21.397Z</time>
      </trkpt>
      <trkpt lat="48.791759" lon="2.126277">
        <ele>168.288413</ele>
        <time>2023-02-22T18:54:42.181Z</time>
      </trkpt>
      <trkpt lat="48.791674" lon="2.125696">
        <ele>169.620470</ele>
        <time>2023-02-22T18:54:53.398Z</time>
      </trkpt>
      <trkpt lat="48.791560" lon="2.125103">
        <ele>171.003063</ele>
        <time>2023-02-22T18:55:04.472Z</time>
      </trkpt>
      <trkpt lat="48.791445" lon="2.124761">
        <ele>171.862464</ele>
        <time>2023-02-22T18:55:10.747Z</time>
      </trkpt>
      <trkpt lat="48.791281" lon="2.124433">
        <ele>172.784080</ele>
        <time>2023-02-22T18:55:17.428Z</time>
      </trkpt>
      <trkpt lat="48.791153" lon="2.124264">
        <ele>173.360432</ele>
        <time>2023-02-22T18:55:20.590Z</time>
      </trkpt>
      <trkpt lat="48.791005" lon="2.124142">
        <ele>173.698507</ele>
        <time>2023-02-22T18:55:25.404Z</time>
      </trkpt>
      <trkpt lat="48.790807" lon="2.124072">
        <ele>173.881509</ele>
        <time>2023-02-22T18:55:29.569Z</time>
      </trkpt>
      <trkpt lat="48.790560" lon="2.124089">
        <ele>174.104078</ele>
        <time>2023-02-22T18:55:36.075Z</time>
      </trkpt>
      <trkpt lat="48.790292" lon="2.124251">
        <ele>174.363748</ele>
        <time>2023-02-22T18:55:43.125Z</time>
      </trkpt>
      <trkpt lat="48.789960" lon="2.124596">
        <ele>174.725929</ele>
        <time>2023-02-22T18:55:50.787Z</time>
      </trkpt>
      <trkpt lat="48.789606" lon="2.125008">
        <ele>175.127479</ele>
        <time>2023-02-22T18:55:56.882Z</time>
      </trkpt>
      <trkpt lat="48.789441" lon="2.125195">
        <ele>174.997428</ele>
        <time>2023-02-22T18:55:59.214Z</time>
      </trkpt>
      <trkpt lat="48.789224" lon="2.125469">
        <ele>174.245298</ele>
        <time>2023-02-22T18:56:02.248Z</time>
      </trkpt>
      <trkpt lat="48.789061" lon="2.125726">
        <ele>173.619047</ele>
        <time>2023-02-22T18:56:04.681Z</time>
      </trkpt>
      <trkpt lat="48.788983" lon="2.125869">
        <ele>173.293138</ele>
        <time>2023-02-22T18:56:05.980Z</time>
      </trkpt>
      <trkpt lat="48.788900" lon="2.126041">
        <ele>172.918858</ele>
        <time>2023-02-22T18:56:07.413Z</time>
      </trkpt>
      <trkpt lat="48.788787" lon="2.126362">
        <ele>172.279940</ele>
        <time>2023-02-22T18:56:09.904Z</time>
      </trkpt>
      <trkpt lat="48.788689" lon="2.126755">
        <ele>171.542255</ele>
        <time>2023-02-22T18:56:12.672Z</time>
      </trkpt>
      <trkpt lat="48.788612" lon="2.127298">
        <ele>170.567173</ele>
        <time>2023-02-22T18:56:16.377Z</time>
      </trkpt>
      <trkpt lat="48.788509" lon="2.128935">
        <ele>166.738160</ele>
        <time>2023-02-22T18:56:27.148Z</time>
      </trkpt>
      <trkpt lat="48.788485" lon="2.129379">
        <ele>165.689147</ele>
        <time>2023-02-22T18:56:30.120Z</time>
      </trkpt>
      <trkpt lat="48.788399" lon="2.130584">
        <ele>162.964556</ele>
        <time>2023-02-22T18:56:37.913Z</time>
      </trkpt>
      <trkpt lat="48.788336" lon="2.130966">
        <ele>162.139283</ele>
        <time>2023-02-22T18:56:40.630Z</time>
      </trkpt>
      <trkpt lat="48.788151" lon="2.131688">
        <ele>160.515751</ele>
        <time>2023-02-22T18:56:45.981Z</time>
      </trkpt>
      <trkpt lat="48.787867" lon="2.132657">
        <ele>158.293094</ele>
        <time>2023-02-22T18:56:53.018Z</time>
      </trkpt>
      <trkpt lat="48.787847" lon="2.132706">
        <ele>158.204187</ele>
        <time>2023-02-22T18:56:53.431Z</time>
      </trkpt>
      <trkpt lat="48.787714" lon="2.133081">
        <ele>157.551971</ele>
        <time>2023-02-22T18:56:56.234Z</time>
      </trkpt>
      <trkpt lat="48.787679" lon="2.133268">
        <ele>157.254258</ele>
        <time>2023-02-22T18:56:57.637Z</time>
      </trkpt>
      <trkpt lat="48.787602" lon="2.133245">
        <ele>157.071844</ele>
        <time>2023-02-22T18:56:58.411Z</time>
      </trkpt>
      <trkpt lat="48.787458" lon="2.133202">
        <ele>156.730710</ele>
        <time>2023-02-22T18:56:59.865Z</time>
      </trkpt>
      <trkpt lat="48.787123" lon="2.133120">
        <ele>155.941965</ele>
        <time>2023-02-22T18:57:03.582Z</time>
      </trkpt>
      <trkpt lat="48.787000" lon="2.133091">
        <ele>155.652631</ele>
        <time>2023-02-22T18:57:05.163Z</time>
      </trkpt>
      <trkpt lat="48.786995" lon="2.133090">
        <ele>155.640909</ele>
        <time>2023-02-22T18:57:05.243Z</time>
      </trkpt>
      <trkpt lat="48.786859" lon="2.133034">
        <ele>155.313359</ele>
        <time>2023-02-22T18:57:06.832Z</time>
      </trkpt>
      <trkpt lat="48.786806" lon="2.132988">
        <ele>155.171444</ele>
        <time>2023-02-22T18:57:07.465Z</time>
      </trkpt>
      <trkpt lat="48.786294" lon="2.132841">
        <ele>153.949535</ele>
        <time>2023-02-22T18:57:13.745Z</time>
      </trkpt>
      <trkpt lat="48.786189" lon="2.132817">
        <ele>153.685082</ele>
        <time>2023-02-22T18:57:14.856Z</time>
      </trkpt>
      <trkpt lat="48.786123" lon="2.132801">
        <ele>153.518624</ele>
        <time>2023-02-22T18:57:15.526Z</time>
      </trkpt>
      <trkpt lat="48.785863" lon="2.132761">
        <ele>152.867772</ele>
        <time>2023-02-22T18:57:18.250Z</time>
      </trkpt>
      <trkpt lat="48.785586" lon="2.132798">
        <ele>152.175232</ele>
        <time>2023-02-22T18:57:21.159Z</time>
      </trkpt>
      <trkpt lat="48.785186" lon="2.132724">
        <ele>151.171652</ele>
        <time>2023-02-22T18:57:25.449Z</time>
      </trkpt>
      <trkpt lat="48.784549" lon="2.132577">
        <ele>149.552348</ele>
        <time>2023-02-22T18:57:32.171Z</time>
      </trkpt>
      <trkpt lat="48.784344" lon="2.132537">
        <ele>148.918995</ele>
        <time>2023-02-22T18:57:34.282Z</time>
      </trkpt>
      <trkpt lat="48.784236" lon="2.132482">
        <ele>148.569917</ele>
        <time>2023-02-22T18:57:35.418Z</time>
      </trkpt>
      <trkpt lat="48.783569" lon="2.132376">
        <ele>146.514852</ele>
        <time>2023-02-22T18:57:42.163Z</time>
      </trkpt>
      <trkpt lat="48.782882" lon="2.132241">
        <ele>144.392103</ele>
        <time>2023-02-22T18:57:49.214Z</time>
      </trkpt>
      <trkpt lat="48.782773" lon="2.132221">
        <ele>144.077040</ele>
        <time>2023-02-22T18:57:50.336Z</time>
      </trkpt>
      <trkpt lat="48.782668" lon="2.132204">
        <ele>143.863049</ele>
        <time>2023-02-22T18:57:51.884Z</time>
      </trkpt>
      <trkpt lat="48.781597" lon="2.131957">
        <ele>141.667737</ele>
        <time>2023-02-22T18:58:08.708Z</time>
      </trkpt>
      <trkpt lat="48.780884" lon="2.131511">
        <ele>139.818676</ele>
        <time>2023-02-22T18:58:21.879Z</time>
      </trkpt>
      <trkpt lat="48.780760" lon="2.131469">
        <ele>139.361440</ele>
        <time>2023-02-22T18:58:23.494Z</time>
      </trkpt>
      <trkpt lat="48.780413" lon="2.131540">
        <ele>138.101340</ele>
        <time>2023-02-22T18:58:27.328Z</time>
      </trkpt>
      <trkpt lat="48.780257" lon="2.131522">
        <ele>137.538299</ele>
        <time>2023-02-22T18:58:29.012Z</time>
      </trkpt>
      <trkpt lat="48.779750" lon="2.131157">
        <ele>135.518779</ele>
        <time>2023-02-22T18:58:34.425Z</time>
      </trkpt>
      <trkpt lat="48.779255" lon="2.130800">
        <ele>133.049839</ele>
        <time>2023-02-22T18:58:39.549Z</time>
      </trkpt>
      <trkpt lat="48.779443" lon="2.130178">
        <ele>129.653441</ele>
        <time>2023-02-22T18:58:45.238Z</time>
      </trkpt>
      <trkpt lat="48.779432" lon="2.130032">
        <ele>128.924087</ele>
        <time>2023-02-22T18:58:46.450Z</time>
      </trkpt>
      <trkpt lat="48.779400" lon="2.129928">
        <ele>128.354411</ele>
        <time>2023-02-22T18:58:47.408Z</time>
      </trkpt>
      <trkpt lat="48.778929" lon="2.129421">
        <ele>124.005018</ele>
        <time>2023-02-22T18:58:54.599Z</time>
      </trkpt>
      <trkpt lat="48.778768" lon="2.129253">
        <ele>122.533359</ele>
        <time>2023-02-22T18:58:57.074Z</time>
      </trkpt>
      <trkpt lat="48.778293" lon="2.128683">
        <ele>118.648961</ele>
        <time>2023-02-22T18:59:04.685Z</time>
      </trkpt>
      <trkpt lat="48.777789" lon="2.128262">
        <ele>115.497521</ele>
        <time>2023-02-22T18:59:12.138Z</time>
      </trkpt>
      <trkpt lat="48.777647" lon="2.128143">
        <ele>114.608943</ele>
        <time>2023-02-22T18:59:14.282Z</time>
      </trkpt>
      <trkpt lat="48.777191" lon="2.128002">
        <ele>112.059738</ele>
        <time>2023-02-22T18:59:20.812Z</time>
      </trkpt>
      <trkpt lat="48.776775" lon="2.127944">
        <ele>110.782652</ele>
        <time>2023-02-22T18:59:27.013Z</time>
      </trkpt>
      <trkpt lat="48.776708" lon="2.127963">
        <ele>110.864461</ele>
        <time>2023-02-22T18:59:27.905Z</time>
      </trkpt>
      <trkpt lat="48.776374" lon="2.127801">
        <ele>111.285325</ele>
        <time>2023-02-22T18:59:31.909Z</time>
      </trkpt>
      <trkpt lat="48.776218" lon="2.127606">
        <ele>111.527911</ele>
        <time>2023-02-22T18:59:34.678Z</time>
      </trkpt>
      <trkpt lat="48.776048" lon="2.127327">
        <ele>111.828465</ele>
        <time>2023-02-22T18:59:38.287Z</time>
      </trkpt>
      <trkpt lat="48.775894" lon="2.127021">
        <ele>112.133009</ele>
        <time>2023-02-22T18:59:43.773Z</time>
      </trkpt>
      <trkpt lat="48.775808" lon="2.126920">
        <ele>112.263534</ele>
        <time>2023-02-22T18:59:46.250Z</time>
      </trkpt>
      <trkpt lat="48.775600" lon="2.126871">
        <ele>112.516177</ele>
        <time>2023-02-22T18:59:54.307Z</time>
      </trkpt>
      <trkpt lat="48.775470" lon="2.126797">
        <ele>112.682826</ele>
        <time>2023-02-22T18:59:58.398Z</time>
      </trkpt>
      <trkpt lat="48.775417" lon="2.126763">
        <ele>112.751891</ele>
        <time>2023-02-22T19:00:00.618Z</time>
      </trkpt>
      <trkpt lat="48.775326" lon="2.126673">
        <ele>113.585462</ele>
        <time>2023-02-22T19:00:06.565Z</time>
      </trkpt>
      <trkpt lat="48.775147" lon="2.126587">
        <ele>115.103932</ele>
        <time>2023-02-22T19:00:15.714Z</time>
      </trkpt>
      <trkpt lat="48.774959" lon="2.126527">
        <ele>116.657623</ele>
        <time>2023-02-22T19:00:25.739Z</time>
      </trkpt>
      <trkpt lat="48.774902" lon="2.126510">
        <ele>117.127423</ele>
        <time>2023-02-22T19:00:28.655Z</time>
      </trkpt>
      <trkpt lat="48.774819" lon="2.126477">
        <ele>117.821335</ele>
        <time>2023-02-22T19:00:32.880Z</time>
      </trkpt>
      <trkpt lat="48.774353" lon="2.126319">
        <ele>121.682986</ele>
        <time>2023-02-22T19:00:56.241Z</time>
      </trkpt>
      <trkpt lat="48.774257" lon="2.126317">
        <ele>122.459447</ele>
        <time>2023-02-22T19:01:01.909Z</time>
      </trkpt>
      <trkpt lat="48.773805" lon="2.126192">
        <ele>126.175155</ele>
        <time>2023-02-22T19:01:25.141Z</time>
      </trkpt>
      <trkpt lat="48.773773" lon="2.126183">
        <ele>126.438359</ele>
        <time>2023-02-22T19:01:26.763Z</time>
      </trkpt>
      <trkpt lat="48.773700" lon="2.126310">
        <ele>127.329532</ele>
        <time>2023-02-22T19:01:32.236Z</time>
      </trkpt>
      <trkpt lat="48.773016" lon="2.127945">
        <ele>135.281806</ele>
        <time>2023-02-22T19:02:29.004Z</time>
      </trkpt>
      <trkpt lat="48.772959" lon="2.128216">
        <ele>136.449924</ele>
        <time>2023-02-22T19:02:33.300Z</time>
      </trkpt>
      <trkpt lat="48.772929" lon="2.128256">
        <ele>136.698760</ele>
        <time>2023-02-22T19:02:34.190Z</time>
      </trkpt>
      <trkpt lat="48.772912" lon="2.128280">
        <ele>136.843440</ele>
        <time>2023-02-22T19:02:34.751Z</time>
      </trkpt>
      <trkpt lat="48.772852" lon="2.128247">
        <ele>137.241087</ele>
        <time>2023-02-22T19:02:37.233Z</time>
      </trkpt>
      <trkpt lat="48.772835" lon="2.128181">
        <ele>137.532070</ele>
        <time>2023-02-22T19:02:38.443Z</time>
      </trkpt>
      <trkpt lat="48.773228" lon="2.126340">
        <ele>142.375704</ele>
        <time>2023-02-22T19:03:14.736Z</time>
      </trkpt>
      <trkpt lat="48.773229" lon="2.126058">
        <ele>143.017873</ele>
        <time>2023-02-22T19:03:21.290Z</time>
      </trkpt>
      <trkpt lat="48.773158" lon="2.125627">
        <ele>144.029528</ele>
        <time>2023-02-22T19:03:28.891Z</time>
      </trkpt>
      <trkpt lat="48.773084" lon="2.125470">
        <ele>144.469067</ele>
        <time>2023-02-22T19:03:32.731Z</time>
      </trkpt>
      <trkpt lat="48.772713" lon="2.125302">
        <ele>145.337090</ele>
        <time>2023-02-22T19:03:42.764Z</time>
      </trkpt>
      <trkpt lat="48.772641" lon="2.125226">
        <ele>145.508224</ele>
        <time>2023-02-22T19:03:44.659Z</time>
      </trkpt>
      <trkpt lat="48.772338" lon="2.124696">
        <ele>146.410449</ele>
        <time>2023-02-22T19:03:56.556Z</time>
      </trkpt>
      <trkpt lat="48.772200" lon="2.124543">
        <ele>146.743931</ele>
        <time>2023-02-22T19:04:00.926Z</time>
      </trkpt>
      <trkpt lat="48.771724" lon="2.124269">
        <ele>147.737274</ele>
        <time>2023-02-22T19:04:11.102Z</time>
      </trkpt>
      <trkpt lat="48.771473" lon="2.124129">
        <ele>148.238974</ele>
        <time>2023-02-22T19:04:15.459Z</time>
      </trkpt>
      <trkpt lat="48.771483" lon="2.124019">
        <ele>148.250770</ele>
        <time>2023-02-22T19:04:16.780Z</time>
      </trkpt>
      <trkpt lat="48.771428" lon="2.123945">
        <ele>148.262619</ele>
        <time>2023-02-22T19:04:18.097Z</time>
      </trkpt>
      <trkpt lat="48.771372" lon="2.123957">
        <ele>148.271735</ele>
        <time>2023-02-22T19:04:18.997Z</time>
      </trkpt>
      <trkpt lat="48.771333" lon="2.124039">
        <ele>148.282477</ele>
        <time>2023-02-22T19:04:19.941Z</time>
      </trkpt>
      <trkpt lat="48.771336" lon="2.124099">
        <ele>148.288869</ele>
        <time>2023-02-22T19:04:20.513Z</time>
      </trkpt>
      <trkpt lat="48.771345" lon="2.124126">
        <ele>148.292084</ele>
        <time>2023-02-22T19:04:20.803Z</time>
      </trkpt>
      <trkpt lat="48.770801" lon="2.124667">
        <ele>148.396925</ele>
        <time>2023-02-22T19:04:34.174Z</time>
      </trkpt>
      <trkpt lat="48.770603" lon="2.124899">
        <ele>148.437249</ele>
        <time>2023-02-22T19:04:39.317Z</time>
      </trkpt>
      <trkpt lat="48.770477" lon="2.125158">
        <ele>148.471448</ele>
        <time>2023-02-22T19:04:43.367Z</time>
      </trkpt>
      <trkpt lat="48.770125" lon="2.125930">
        <ele>148.618548</ele>
        <time>2023-02-22T19:04:55.472Z</time>
      </trkpt>
      <trkpt lat="48.769450" lon="2.127344">
        <ele>149.003316</ele>
        <time>2023-02-22T19:05:21.629Z</time>
      </trkpt>
      <trkpt lat="48.769260" lon="2.127742">
        <ele>149.111619</ele>
        <time>2023-02-22T19:05:28.930Z</time>
      </trkpt>
      <trkpt lat="48.769070" lon="2.128255">
        <ele>149.086288</ele>
        <time>2023-02-22T19:05:36.712Z</time>
      </trkpt>
      <trkpt lat="48.768906" lon="2.128391">
        <ele>149.062903</ele>
        <time>2023-02-22T19:05:39.189Z</time>
      </trkpt>
      <trkpt lat="48.768804" lon="2.128437">
        <ele>149.049588</ele>
        <time>2023-02-22T19:05:40.601Z</time>
      </trkpt>
      <trkpt lat="48.768830" lon="2.128553">
        <ele>149.039484</ele>
        <time>2023-02-22T19:05:41.661Z</time>
      </trkpt>
      <trkpt lat="48.768854" lon="2.128876">
        <ele>149.012678</ele>
        <time>2023-02-22T19:05:44.533Z</time>
      </trkpt>
      <trkpt lat="48.768833" lon="2.128983">
        <ele>149.003471</ele>
        <time>2023-02-22T19:05:45.588Z</time>
      </trkpt>
      <trkpt lat="48.768735" lon="2.129064">
        <ele>148.989508</ele>
        <time>2023-02-22T19:05:47.188Z</time>
      </trkpt>
      <trkpt lat="48.768521" lon="2.129164">
        <ele>148.961491</ele>
        <time>2023-02-22T19:05:50.310Z</time>
      </trkpt>
      <trkpt lat="48.768282" lon="2.129334">
        <ele>148.928463</ele>
        <time>2023-02-22T19:05:54.112Z</time>
      </trkpt>
      <trkpt lat="48.767855" lon="2.129524">
        <ele>148.990576</ele>
        <time>2023-02-22T19:06:00.793Z</time>
      </trkpt>
      <trkpt lat="48.767606" lon="2.129541">
        <ele>149.079191</ele>
        <time>2023-02-22T19:06:04.391Z</time>
      </trkpt>
      <trkpt lat="48.767303" lon="2.129453">
        <ele>149.188870</ele>
        <time>2023-02-22T19:06:08.631Z</time>
      </trkpt>
      <trkpt lat="48.766959" lon="2.129215">
        <ele>149.323287</ele>
        <time>2023-02-22T19:06:13.956Z</time>
      </trkpt>
      <trkpt lat="48.766648" lon="2.128989">
        <ele>149.445883</ele>
        <time>2023-02-22T19:06:19.639Z</time>
      </trkpt>
      <trkpt lat="48.766607" lon="2.128926">
        <ele>149.466630</ele>
        <time>2023-02-22T19:06:20.928Z</time>
      </trkpt>
      <trkpt lat="48.766227" lon="2.128601">
        <ele>149.953035</ele>
        <time>2023-02-22T19:06:30.443Z</time>
      </trkpt>
      <trkpt lat="48.765351" lon="2.127957">
        <ele>151.754054</ele>
        <time>2023-02-22T19:06:53.161Z</time>
      </trkpt>
      <trkpt lat="48.765176" lon="2.127833">
        <ele>152.111409</ele>
        <time>2023-02-22T19:06:57.670Z</time>
      </trkpt>
      <trkpt lat="48.765038" lon="2.127747">
        <ele>152.387436</ele>
        <time>2023-02-22T19:07:00.956Z</time>
      </trkpt>
      <trkpt lat="48.764556" lon="2.127401">
        <ele>153.240638</ele>
        <time>2023-02-22T19:07:12.500Z</time>
      </trkpt>
      <trkpt lat="48.764173" lon="2.127118">
        <ele>153.819959</ele>
        <time>2023-02-22T19:07:21.409Z</time>
      </trkpt>
      <trkpt lat="48.763956" lon="2.126970">
        <ele>154.143499</ele>
        <time>2023-02-22T19:07:26.369Z</time>
      </trkpt>
      <trkpt lat="48.763610" lon="2.126732">
        <ele>154.660119</ele>
        <time>2023-02-22T19:07:34.062Z</time>
      </trkpt>
      <trkpt lat="48.762023" lon="2.125546">
        <ele>156.207446</ele>
        <time>2023-02-22T19:08:06.484Z</time>
      </trkpt>
      <trkpt lat="48.761101" lon="2.124861">
        <ele>156.351757</ele>
        <time>2023-02-22T19:08:22.775Z</time>
      </trkpt>
      <trkpt lat="48.760988" lon="2.124770">
        <ele>156.299403</ele>
        <time>2023-02-22T19:08:24.739Z</time>
      </trkpt>
      <trkpt lat="48.760971" lon="2.124640">
        <ele>156.263650</ele>
        <time>2023-02-22T19:08:25.972Z</time>
      </trkpt>
      <trkpt lat="48.760942" lon="2.124582">
        <ele>156.244012</ele>
        <time>2023-02-22T19:08:26.627Z</time>
      </trkpt>
      <trkpt lat="48.760856" lon="2.124522">
        <ele>156.205274</ele>
        <time>2023-02-22T19:08:27.938Z</time>
      </trkpt>
      <trkpt lat="48.760753" lon="2.124564">
        <ele>156.161627</ele>
        <time>2023-02-22T19:08:29.526Z</time>
      </trkpt>
      <trkpt lat="48.760624" lon="2.124499">
        <ele>156.106001</ele>
        <time>2023-02-22T19:08:31.340Z</time>
      </trkpt>
      <trkpt lat="48.759325" lon="2.123569">
        <ele>154.565595</ele>
        <time>2023-02-22T19:08:48.618Z</time>
      </trkpt>
      <trkpt lat="48.758797" lon="2.123252">
        <ele>153.614485</ele>
        <time>2023-02-22T19:08:54.822Z</time>
      </trkpt>
      <trkpt lat="48.758008" lon="2.122672">
        <ele>152.019263</ele>
        <time>2023-02-22T19:09:04.394Z</time>
      </trkpt>
      <trkpt lat="48.757677" lon="2.122429">
        <ele>151.286453</ele>
        <time>2023-02-22T19:09:08.404Z</time>
      </trkpt>
      <trkpt lat="48.757451" lon="2.122269">
        <ele>150.789441</ele>
        <time>2023-02-22T19:09:11.126Z</time>
      </trkpt>
      <trkpt lat="48.756062" lon="2.121255">
        <ele>148.066851</ele>
        <time>2023-02-22T19:09:28.165Z</time>
      </trkpt>
      <trkpt lat="48.755657" lon="2.120980">
        <ele>147.386913</ele>
        <time>2023-02-22T19:09:33.305Z</time>
      </trkpt>
      <trkpt lat="48.755353" lon="2.120815">
        <ele>146.892159</ele>
        <time>2023-02-22T19:09:37.094Z</time>
      </trkpt>
      <trkpt lat="48.754863" lon="2.120647">
        <ele>146.359082</ele>
        <time>2023-02-22T19:09:43.079Z</time>
      </trkpt>
      <trkpt lat="48.753285" lon="2.120392">
        <ele>145.587478</ele>
        <time>2023-02-22T19:10:04.087Z</time>
      </trkpt>
      <trkpt lat="48.751122" lon="2.120091">
        <ele>147.323911</ele>
        <time>2023-02-22T19:10:42.608Z</time>
      </trkpt>
      <trkpt lat="48.750659" lon="2.120026">
        <ele>148.104925</ele>
        <time>2023-02-22T19:10:52.328Z</time>
      </trkpt>
      <trkpt lat="48.750350" lon="2.119985">
        <ele>148.625926</ele>
        <time>2023-02-22T19:10:59.333Z</time>
      </trkpt>
      <trkpt lat="48.750159" lon="2.119991">
        <ele>148.946813</ele>
        <time>2023-02-22T19:11:03.864Z</time>
      </trkpt>
      <trkpt lat="48.750096" lon="2.119962">
        <ele>149.057399</ele>
        <time>2023-02-22T19:11:05.452Z</time>
      </trkpt>
      <trkpt lat="48.749966" lon="2.119980">
        <ele>149.276665</ele>
        <time>2023-02-22T19:11:08.659Z</time>
      </trkpt>
      <trkpt lat="48.749923" lon="2.120012">
        <ele>149.357117</ele>
        <time>2023-02-22T19:11:09.815Z</time>
      </trkpt>
      <trkpt lat="48.749722" lon="2.119886">
        <ele>149.728583</ele>
        <time>2023-02-22T19:11:15.244Z</time>
      </trkpt>
      <trkpt lat="48.749527" lon="2.119845">
        <ele>150.119948</ele>
        <time>2023-02-22T19:11:20.147Z</time>
      </trkpt>
      <trkpt lat="48.749311" lon="2.119765">
        <ele>150.561972</ele>
        <time>2023-02-22T19:11:26.868Z</time>
      </trkpt>
      <trkpt lat="48.749117" lon="2.119693">
        <ele>150.959021</ele>
        <time>2023-02-22T19:11:32.533Z</time>
      </trkpt>
      <trkpt lat="48.748628" lon="2.119379">
        <ele>152.014691</ele>
        <time>2023-02-22T19:11:47.444Z</time>
      </trkpt>
      <trkpt lat="48.748289" lon="2.119024">
        <ele>152.833665</ele>
        <time>2023-02-22T19:11:58.939Z</time>
      </trkpt>
      <trkpt lat="48.748043" lon="2.118706">
        <ele>153.360872</ele>
        <time>2023-02-22T19:12:07.631Z</time>
      </trkpt>
      <trkpt lat="48.747843" lon="2.118366">
        <ele>153.632519</ele>
        <time>2023-02-22T19:12:15.300Z</time>
      </trkpt>
      <trkpt lat="48.747634" lon="2.117866">
        <ele>153.985469</ele>
        <time>2023-02-22T19:12:24.655Z</time>
      </trkpt>
      <trkpt lat="48.747687" lon="2.117796">
        <ele>154.049016</ele>
        <time>2023-02-22T19:12:25.993Z</time>
      </trkpt>
      <trkpt lat="48.747711" lon="2.117653">
        <ele>154.136991</ele>
        <time>2023-02-22T19:12:27.642Z</time>
      </trkpt>
      <trkpt lat="48.747682" lon="2.117525">
        <ele>154.217683</ele>
        <time>2023-02-22T19:12:29.172Z</time>
      </trkpt>
      <trkpt lat="48.747617" lon="2.117442">
        <ele>154.294513</ele>
        <time>2023-02-22T19:12:30.582Z</time>
      </trkpt>
      <trkpt lat="48.747527" lon="2.117407">
        <ele>154.378523</ele>
        <time>2023-02-22T19:12:32.246Z</time>
      </trkpt>
      <trkpt lat="48.747469" lon="2.117284">
        <ele>154.468678</ele>
        <time>2023-02-22T19:12:33.834Z</time>
      </trkpt>
      <trkpt lat="48.747336" lon="2.117019">
        <ele>154.667231</ele>
        <time>2023-02-22T19:12:37.365Z</time>
      </trkpt>
      <trkpt lat="48.747226" lon="2.116921">
        <ele>154.782584</ele>
        <time>2023-02-22T19:12:39.453Z</time>
      </trkpt>
      <trkpt lat="48.747014" lon="2.116364">
        <ele>155.141185</ele>
        <time>2023-02-22T19:12:46.651Z</time>
      </trkpt>
      <trkpt lat="48.746886" lon="2.115926">
        <ele>155.401033</ele>
        <time>2023-02-22T19:12:52.202Z</time>
      </trkpt>
      <trkpt lat="48.746804" lon="2.115705">
        <ele>155.538573</ele>
        <time>2023-02-22T19:12:55.269Z</time>
      </trkpt>
      <trkpt lat="48.746762" lon="2.115594">
        <ele>155.607985</ele>
        <time>2023-02-22T19:12:57.043Z</time>
      </trkpt>
      <trkpt lat="48.746384" lon="2.114782">
        <ele>156.147095</ele>
        <time>2023-02-22T19:13:09.005Z</time>
      </trkpt>
      <trkpt lat="48.746174" lon="2.114447">
        <ele>156.401429</ele>
        <time>2023-02-22T19:13:14.646Z</time>
      </trkpt>
      <trkpt lat="48.746142" lon="2.114383">
        <ele>156.450762</ele>
        <time>2023-02-22T19:13:15.785Z</time>
      </trkpt>
      <trkpt lat="48.746136" lon="2.114249">
        <ele>156.533258</ele>
        <time>2023-02-22T19:13:17.707Z</time>
      </trkpt>
      <trkpt lat="48.746136" lon="2.114249">
        <ele>156.533258</ele>
        <time>2023-02-22T19:13:17.722Z</time>
      </trkpt>
      <trkpt lat="48.746136" lon="2.114249">
        <ele>156.533258</ele>
        <time>2023-02-22T19:13:17.722Z</time>
      </trkpt>
      <trkpt lat="48.746140" lon="2.114380">
        <ele>156.613807</ele>
        <time>2023-02-22T19:13:19.325Z</time>
      </trkpt>
      <trkpt lat="48.746120" lon="2.114260">
        <ele>156.689832</ele>
        <time>2023-02-22T19:13:20.837Z</time>
      </trkpt>
      <trkpt lat="48.746150" lon="2.114180">
        <ele>156.746361</ele>
        <time>2023-02-22T19:13:21.962Z</time>
      </trkpt>
      <trkpt lat="48.746150" lon="2.114030">
        <ele>156.838494</ele>
        <time>2023-02-22T19:13:23.796Z</time>
      </trkpt>
      <trkpt lat="48.746060" lon="2.113650">
        <ele>157.086499</ele>
        <time>2023-02-22T19:13:28.730Z</time>
      </trkpt>
      <trkpt lat="48.746060" lon="2.113120">
        <ele>157.412039</ele>
        <time>2023-02-22T19:13:35.207Z</time>
      </trkpt>
      <trkpt lat="48.746040" lon="2.113100">
        <ele>157.434354</ele>
        <time>2023-02-22T19:13:35.651Z</time>
      </trkpt>
      <trkpt lat="48.745900" lon="2.113090">
        <ele>157.564908</ele>
        <time>2023-02-22T19:13:38.249Z</time>
      </trkpt>
      <trkpt lat="48.745960" lon="2.112130">
        <ele>158.104866</ele>
        <time>2023-02-22T19:13:50.033Z</time>
      </trkpt>
      <trkpt lat="48.745962" lon="2.112140">
        <ele>158.108269</ele>
        <time>2023-02-22T19:13:50.155Z</time>
      </trkpt>
      <trkpt lat="48.746004" lon="2.111914">
        <ele>158.184718</ele>
        <time>2023-02-22T19:13:53.464Z</time>
      </trkpt>
      <trkpt lat="48.746026" lon="2.111818">
        <ele>158.217808</ele>
        <time>2023-02-22T19:13:54.532Z</time>
      </trkpt>
      <trkpt lat="48.746016" lon="2.111782">
        <ele>158.230527</ele>
        <time>2023-02-22T19:13:54.965Z</time>
      </trkpt>
      <trkpt lat="48.746069" lon="2.111648">
        <ele>158.281402</ele>
        <time>2023-02-22T19:13:57.199Z</time>
      </trkpt>
      <trkpt lat="48.746065" lon="2.111569">
        <ele>158.307199</ele>
        <time>2023-02-22T19:13:58.773Z</time>
      </trkpt>
      <trkpt lat="48.746097" lon="2.111037">
        <ele>158.481130</ele>
        <time>2023-02-22T19:14:04.814Z</time>
      </trkpt>
      <trkpt lat="48.746070" lon="2.108658">
        <ele>159.145741</ele>
        <time>2023-02-22T19:14:29.621Z</time>
      </trkpt>
      <trkpt lat="48.746044" lon="2.108082">
        <ele>159.269435</ele>
        <time>2023-02-22T19:14:35.849Z</time>
      </trkpt>
      <trkpt lat="48.745936" lon="2.107663">
        <ele>159.365819</ele>
        <time>2023-02-22T19:14:40.693Z</time>
      </trkpt>
      <trkpt lat="48.745723" lon="2.107287">
        <ele>159.472022</ele>
        <time>2023-02-22T19:14:46.008Z</time>
      </trkpt>
      <trkpt lat="48.745072" lon="2.106413">
        <ele>159.632168</ele>
        <time>2023-02-22T19:15:00.120Z</time>
      </trkpt>
      <trkpt lat="48.742879" lon="2.103468">
        <ele>159.698204</ele>
        <time>2023-02-22T19:15:43.915Z</time>
      </trkpt>
      <trkpt lat="48.741755" lon="2.101950">
        <ele>159.097081</ele>
        <time>2023-02-22T19:16:04.094Z</time>
      </trkpt>
      <trkpt lat="48.741510" lon="2.101529">
        <ele>158.918494</ele>
        <time>2023-02-22T19:16:08.853Z</time>
      </trkpt>
      <trkpt lat="48.741219" lon="2.100791">
        <ele>158.563705</ele>
        <time>2023-02-22T19:16:16.221Z</time>
      </trkpt>
      <trkpt lat="48.740877" lon="2.099546">
        <ele>158.007215</ele>
        <time>2023-02-22T19:16:27.733Z</time>
      </trkpt>
      <trkpt lat="48.740747" lon="2.098858">
        <ele>157.722687</ele>
        <time>2023-02-22T19:16:33.796Z</time>
      </trkpt>
      <trkpt lat="48.740681" lon="2.098333">
        <ele>157.516467</ele>
        <time>2023-02-22T19:16:38.338Z</time>
      </trkpt>
      <trkpt lat="48.740677" lon="2.098158">
        <ele>157.448903</ele>
        <time>2023-02-22T19:16:39.820Z</time>
      </trkpt>
      <trkpt lat="48.740758" lon="2.097860">
        <ele>157.324535</ele>
        <time>2023-02-22T19:16:42.585Z</time>
      </trkpt>
      <trkpt lat="48.740756" lon="2.097756">
        <ele>157.284390</ele>
        <time>2023-02-22T19:16:43.404Z</time>
      </trkpt>
      <trkpt lat="48.740597" lon="2.097444">
        <ele>157.132247</ele>
        <time>2023-02-22T19:16:46.901Z</time>
      </trkpt>
      <trkpt lat="48.740558" lon="2.097275">
        <ele>157.063161</ele>
        <time>2023-02-22T19:16:48.392Z</time>
      </trkpt>
      <trkpt lat="48.740526" lon="2.097114">
        <ele>156.998278</ele>
        <time>2023-02-22T19:16:49.992Z</time>
      </trkpt>
      <trkpt lat="48.740564" lon="2.096936">
        <ele>156.926087</ele>
        <time>2023-02-22T19:16:51.687Z</time>
      </trkpt>
      <trkpt lat="48.740560" lon="2.096842">
        <ele>156.889742</ele>
        <time>2023-02-22T19:16:52.472Z</time>
      </trkpt>
      <trkpt lat="48.740521" lon="2.096698">
        <ele>156.829676</ele>
        <time>2023-02-22T19:16:53.812Z</time>
      </trkpt>
      <trkpt lat="48.740448" lon="2.096590">
        <ele>156.781366</ele>
        <time>2023-02-22T19:16:55.243Z</time>
      </trkpt>
      <trkpt lat="48.740348" lon="2.096523">
        <ele>156.730464</ele>
        <time>2023-02-22T19:16:56.709Z</time>
      </trkpt>
      <trkpt lat="48.740269" lon="2.096533">
        <ele>156.693554</ele>
        <time>2023-02-22T19:16:57.666Z</time>
      </trkpt>
      <trkpt lat="48.740115" lon="2.096444">
        <ele>156.616821</ele>
        <time>2023-02-22T19:16:59.898Z</time>
      </trkpt>
      <trkpt lat="48.739989" lon="2.096373">
        <ele>156.554236</ele>
        <time>2023-02-22T19:17:01.628Z</time>
      </trkpt>
      <trkpt lat="48.739702" lon="2.095912">
        <ele>156.359577</ele>
        <time>2023-02-22T19:17:07.117Z</time>
      </trkpt>
      <trkpt lat="48.739505" lon="2.095604">
        <ele>156.227832</ele>
        <time>2023-02-22T19:17:10.999Z</time>
      </trkpt>
      <trkpt lat="48.739142" lon="2.094965">
        <ele>155.945246</ele>
        <time>2023-02-22T19:17:18.419Z</time>
      </trkpt>
      <trkpt lat="48.739006" lon="2.094787">
        <ele>155.759373</ele>
        <time>2023-02-22T19:17:20.848Z</time>
      </trkpt>
      <trkpt lat="48.738829" lon="2.094614">
        <ele>155.541500</ele>
        <time>2023-02-22T19:17:23.742Z</time>
      </trkpt>
      <trkpt lat="48.738667" lon="2.094473">
        <ele>155.348245</ele>
        <time>2023-02-22T19:17:26.446Z</time>
      </trkpt>
      <trkpt lat="48.738316" lon="2.094161">
        <ele>154.927299</ele>
        <time>2023-02-22T19:17:32.145Z</time>
      </trkpt>
      <trkpt lat="48.738156" lon="2.094019">
        <ele>154.735491</ele>
        <time>2023-02-22T19:17:34.540Z</time>
      </trkpt>
      <trkpt lat="48.738135" lon="2.093999">
        <ele>154.709834</ele>
        <time>2023-02-22T19:17:34.874Z</time>
      </trkpt>
      <trkpt lat="48.738112" lon="2.093976">
        <ele>154.681329</ele>
        <time>2023-02-22T19:17:35.255Z</time>
      </trkpt>
      <trkpt lat="48.738097" lon="2.093963">
        <ele>154.663454</ele>
        <time>2023-02-22T19:17:35.448Z</time>
      </trkpt>
      <trkpt lat="48.738005" lon="2.093883">
        <ele>154.553729</ele>
        <time>2023-02-22T19:17:36.620Z</time>
      </trkpt>
      <trkpt lat="48.737851" lon="2.093752">
        <ele>154.371039</ele>
        <time>2023-02-22T19:17:38.543Z</time>
      </trkpt>
      <trkpt lat="48.737709" lon="2.093596">
        <ele>154.189617</ele>
        <time>2023-02-22T19:17:40.424Z</time>
      </trkpt>
      <trkpt lat="48.737328" lon="2.092888">
        <ele>151.067433</ele>
        <time>2023-02-22T19:17:46.663Z</time>
      </trkpt>
      <trkpt lat="48.737074" lon="2.092501">
        <ele>149.036172</ele>
        <time>2023-02-22T19:17:50.159Z</time>
      </trkpt>
      <trkpt lat="48.736798" lon="2.092064">
        <ele>146.785094</ele>
        <time>2023-02-22T19:17:53.725Z</time>
      </trkpt>
      <trkpt lat="48.736488" lon="2.091575">
        <ele>144.261624</ele>
        <time>2023-02-22T19:17:57.655Z</time>
      </trkpt>
      <trkpt lat="48.736437" lon="2.091458">
        <ele>143.560554</ele>
        <time>2023-02-22T19:17:58.481Z</time>
      </trkpt>
      <trkpt lat="48.736373" lon="2.091328">
        <ele>142.508232</ele>
        <time>2023-02-22T19:17:59.395Z</time>
      </trkpt>
      <trkpt lat="48.736283" lon="2.091240">
        <ele>141.454927</ele>
        <time>2023-02-22T19:18:00.307Z</time>
      </trkpt>
      <trkpt lat="48.736145" lon="2.091200">
        <ele>140.073031</ele>
        <time>2023-02-22T19:18:01.559Z</time>
      </trkpt>
      <trkpt lat="48.735837" lon="2.091160">
        <ele>137.032565</ele>
        <time>2023-02-22T19:18:04.222Z</time>
      </trkpt>
      <trkpt lat="48.735780" lon="2.091167">
        <ele>136.470099</ele>
        <time>2023-02-22T19:18:04.728Z</time>
      </trkpt>
      <trkpt lat="48.735577" lon="2.091254">
        <ele>134.395238</ele>
        <time>2023-02-22T19:18:06.533Z</time>
      </trkpt>
      <trkpt lat="48.734915" lon="2.091427">
        <ele>127.788045</ele>
        <time>2023-02-22T19:18:12.283Z</time>
      </trkpt>
      <trkpt lat="48.734420" lon="2.091483">
        <ele>123.637483</ele>
        <time>2023-02-22T19:18:16.550Z</time>
      </trkpt>
      <trkpt lat="48.734150" lon="2.091414">
        <ele>121.526584</ele>
        <time>2023-02-22T19:18:18.886Z</time>
      </trkpt>
      <trkpt lat="48.733963" lon="2.091250">
        <ele>119.861120</ele>
        <time>2023-02-22T19:18:20.835Z</time>
      </trkpt>
      <trkpt lat="48.733763" lon="2.091073">
        <ele>118.075788</ele>
        <time>2023-02-22T19:18:22.985Z</time>
      </trkpt>
      <trkpt lat="48.733648" lon="2.091029">
        <ele>117.161413</ele>
        <time>2023-02-22T19:18:24.046Z</time>
      </trkpt>
      <trkpt lat="48.733619" lon="2.091032">
        <ele>116.937321</ele>
        <time>2023-02-22T19:18:24.318Z</time>
      </trkpt>
      <trkpt lat="48.733477" lon="2.091111">
        <ele>115.771212</ele>
        <time>2023-02-22T19:18:25.720Z</time>
      </trkpt>
      <trkpt lat="48.733370" lon="2.091317">
        <ele>114.437917</ele>
        <time>2023-02-22T19:18:27.280Z</time>
      </trkpt>
      <trkpt lat="48.733348" lon="2.091502">
        <ele>113.482053</ele>
        <time>2023-02-22T19:18:28.433Z</time>
      </trkpt>
      <trkpt lat="48.733379" lon="2.091671">
        <ele>112.590100</ele>
        <time>2023-02-22T19:18:29.493Z</time>
      </trkpt>
      <trkpt lat="48.733440" lon="2.091819">
        <ele>112.156472</ele>
        <time>2023-02-22T19:18:30.523Z</time>
      </trkpt>
      <trkpt lat="48.733500" lon="2.092120">
        <ele>111.563824</ele>
        <time>2023-02-22T19:18:32.438Z</time>
      </trkpt>
      <trkpt lat="48.733430" lon="2.092614">
        <ele>110.611521</ele>
        <time>2023-02-22T19:18:35.518Z</time>
      </trkpt>
      <trkpt lat="48.733390" lon="2.092677">
        <ele>110.446707</ele>
        <time>2023-02-22T19:18:36.095Z</time>
      </trkpt>
      <trkpt lat="48.733259" lon="2.092538">
        <ele>109.989802</ele>
        <time>2023-02-22T19:18:37.653Z</time>
      </trkpt>
      <trkpt lat="48.732807" lon="2.092269">
        <ele>108.602246</ele>
        <time>2023-02-22T19:18:42.953Z</time>
      </trkpt>
      <trkpt lat="48.732361" lon="2.092038">
        <ele>107.327666</ele>
        <time>2023-02-22T19:18:49.657Z</time>
      </trkpt>
      <trkpt lat="48.731785" lon="2.091876">
        <ele>109.886447</ele>
        <time>2023-02-22T19:19:03.089Z</time>
      </trkpt>
      <trkpt lat="48.731759" lon="2.091869">
        <ele>110.001787</ele>
        <time>2023-02-22T19:19:03.827Z</time>
      </trkpt>
      <trkpt lat="48.731713" lon="2.091857">
        <ele>110.205658</ele>
        <time>2023-02-22T19:19:05.230Z</time>
      </trkpt>
      <trkpt lat="48.731552" lon="2.091832">
        <ele>110.912554</ele>
        <time>2023-02-22T19:19:10.254Z</time>
      </trkpt>
      <trkpt lat="48.731234" lon="2.091911">
        <ele>112.320041</ele>
        <time>2023-02-22T19:19:21.808Z</time>
      </trkpt>
      <trkpt lat="48.730527" lon="2.092366">
        <ele>116.037103</ele>
        <time>2023-02-22T19:19:54.827Z</time>
      </trkpt>
      <trkpt lat="48.730262" lon="2.092628">
        <ele>118.355399</ele>
        <time>2023-02-22T19:20:08.994Z</time>
      </trkpt>
      <trkpt lat="48.729655" lon="2.093384">
        <ele>124.111863</ele>
        <time>2023-02-22T19:20:44.865Z</time>
      </trkpt>
      <trkpt lat="48.729511" lon="2.093511">
        <ele>125.332628</ele>
        <time>2023-02-22T19:20:52.219Z</time>
      </trkpt>
      <trkpt lat="48.729196" lon="2.093637">
        <ele>127.719873</ele>
        <time>2023-02-22T19:21:06.735Z</time>
      </trkpt>
      <trkpt lat="48.729021" lon="2.093650">
        <ele>128.911940</ele>
        <time>2023-02-22T19:21:14.330Z</time>
      </trkpt>
      <trkpt lat="48.728682" lon="2.093513">
        <ele>131.137414</ele>
        <time>2023-02-22T19:21:28.797Z</time>
      </trkpt>
      <trkpt lat="48.728363" lon="2.093530">
        <ele>133.162179</ele>
        <time>2023-02-22T19:21:41.161Z</time>
      </trkpt>
      <trkpt lat="48.728229" lon="2.093590">
        <ele>134.048483</ele>
        <time>2023-02-22T19:21:46.681Z</time>
      </trkpt>
      <trkpt lat="48.727929" lon="2.093873">
        <ele>136.289817</ele>
        <time>2023-02-22T19:21:59.200Z</time>
      </trkpt>
      <trkpt lat="48.727429" lon="2.094513">
        <ele>140.402903</ele>
        <time>2023-02-22T19:22:26.063Z</time>
      </trkpt>
      <trkpt lat="48.727197" lon="2.094768">
        <ele>142.123766</ele>
        <time>2023-02-22T19:22:38.188Z</time>
      </trkpt>
      <trkpt lat="48.727026" lon="2.094892">
        <ele>143.262086</ele>
        <time>2023-02-22T19:22:46.375Z</time>
      </trkpt>
      <trkpt lat="48.726836" lon="2.094981">
        <ele>144.456299</ele>
        <time>2023-02-22T19:22:54.115Z</time>
      </trkpt>
      <trkpt lat="48.726578" lon="2.095054">
        <ele>146.032392</ele>
        <time>2023-02-22T19:23:03.984Z</time>
      </trkpt>
      <trkpt lat="48.726441" lon="2.095053">
        <ele>146.855112</ele>
        <time>2023-02-22T19:23:09.475Z</time>
      </trkpt>
      <trkpt lat="48.726247" lon="2.094997">
        <ele>148.041050</ele>
        <time>2023-02-22T19:23:17.458Z</time>
      </trkpt>
      <trkpt lat="48.725703" lon="2.094728">
        <ele>151.175928</ele>
        <time>2023-02-22T19:23:37.926Z</time>
      </trkpt>
      <trkpt lat="48.725163" lon="2.094676">
        <ele>153.390762</ele>
        <time>2023-02-22T19:23:56.404Z</time>
      </trkpt>
      <trkpt lat="48.724896" lon="2.094493">
        <ele>154.590191</ele>
        <time>2023-02-22T19:24:07.018Z</time>
      </trkpt>
      <trkpt lat="48.724772" lon="2.094341">
        <ele>155.242943</ele>
        <time>2023-02-22T19:24:11.266Z</time>
      </trkpt>
      <trkpt lat="48.724697" lon="2.094183">
        <ele>155.768556</ele>
        <time>2023-02-22T19:24:14.917Z</time>
      </trkpt>
      <trkpt lat="48.724615" lon="2.093868">
        <ele>156.682968</ele>
        <time>2023-02-22T19:24:20.488Z</time>
      </trkpt>
      <trkpt lat="48.724504" lon="2.093311">
        <ele>158.057685</ele>
        <time>2023-02-22T19:24:30.669Z</time>
      </trkpt>
      <trkpt lat="48.724307" lon="2.092220">
        <ele>159.449910</ele>
        <time>2023-02-22T19:24:49.078Z</time>
      </trkpt>
      <trkpt lat="48.724190" lon="2.091584">
        <ele>160.262584</ele>
        <time>2023-02-22T19:24:57.885Z</time>
      </trkpt>
      <trkpt lat="48.724161" lon="2.091312">
        <ele>160.601713</ele>
        <time>2023-02-22T19:25:01.681Z</time>
      </trkpt>
      <trkpt lat="48.724076" lon="2.090883">
        <ele>161.153042</ele>
        <time>2023-02-22T19:25:07.496Z</time>
      </trkpt>
      <trkpt lat="48.723997" lon="2.090626">
        <ele>161.288881</ele>
        <time>2023-02-22T19:25:11.055Z</time>
      </trkpt>
      <trkpt lat="48.723878" lon="2.090394">
        <ele>161.345882</ele>
        <time>2023-02-22T19:25:14.645Z</time>
      </trkpt>
      <trkpt lat="48.723742" lon="2.090205">
        <ele>161.400130</ele>
        <time>2023-02-22T19:25:17.888Z</time>
      </trkpt>
      <trkpt lat="48.723201" lon="2.089647">
        <ele>161.592527</ele>
        <time>2023-02-22T19:25:28.588Z</time>
      </trkpt>
      <trkpt lat="48.723099" lon="2.089560">
        <ele>161.626939</ele>
        <time>2023-02-22T19:25:30.300Z</time>
      </trkpt>
      <trkpt lat="48.722461" lon="2.089202">
        <ele>161.605083</ele>
        <time>2023-02-22T19:25:39.860Z</time>
      </trkpt>
      <trkpt lat="48.721558" lon="2.088739">
        <ele>160.619141</ele>
        <time>2023-02-22T19:25:51.401Z</time>
      </trkpt>
      <trkpt lat="48.721120" lon="2.088500">
        <ele>160.137666</ele>
        <time>2023-02-22T19:25:56.815Z</time>
      </trkpt>
      <trkpt lat="48.720656" lon="2.088262">
        <ele>159.645432</ele>
        <time>2023-02-22T19:26:02.503Z</time>
      </trkpt>
      <trkpt lat="48.720461" lon="2.088166">
        <ele>159.444038</ele>
        <time>2023-02-22T19:26:04.890Z</time>
      </trkpt>
      <trkpt lat="48.720182" lon="2.088001">
        <ele>159.149862</ele>
        <time>2023-02-22T19:26:08.435Z</time>
      </trkpt>
      <trkpt lat="48.720107" lon="2.087937">
        <ele>159.065318</ele>
        <time>2023-02-22T19:26:09.469Z</time>
      </trkpt>
      <trkpt lat="48.720072" lon="2.087806">
        <ele>158.973727</ele>
        <time>2023-02-22T19:26:10.594Z</time>
      </trkpt>
      <trkpt lat="48.720024" lon="2.087734">
        <ele>158.907393</ele>
        <time>2023-02-22T19:26:11.405Z</time>
      </trkpt>
      <trkpt lat="48.719901" lon="2.087677">
        <ele>158.781052</ele>
        <time>2023-02-22T19:26:12.962Z</time>
      </trkpt>
      <trkpt lat="48.719847" lon="2.087691">
        <ele>158.727239</ele>
        <time>2023-02-22T19:26:13.639Z</time>
      </trkpt>
      <trkpt lat="48.719764" lon="2.087766">
        <ele>158.632321</ele>
        <time>2023-02-22T19:26:14.858Z</time>
      </trkpt>
      <trkpt lat="48.719364" lon="2.087602">
        <ele>158.225289</ele>
        <time>2023-02-22T19:26:20.180Z</time>
      </trkpt>
      <trkpt lat="48.718621" lon="2.087230">
        <ele>157.984827</ele>
        <time>2023-02-22T19:26:31.581Z</time>
      </trkpt>
      <trkpt lat="48.718429" lon="2.087139">
        <ele>157.937583</ele>
        <time>2023-02-22T19:26:34.595Z</time>
      </trkpt>
      <trkpt lat="48.717303" lon="2.086594">
        <ele>157.539902</ele>
        <time>2023-02-22T19:26:50.925Z</time>
      </trkpt>
      <trkpt lat="48.716618" lon="2.086269">
        <ele>157.075300</ele>
        <time>2023-02-22T19:27:00.206Z</time>
      </trkpt>
      <trkpt lat="48.716434" lon="2.086146">
        <ele>156.945132</ele>
        <time>2023-02-22T19:27:02.640Z</time>
      </trkpt>
      <trkpt lat="48.715863" lon="2.085894">
        <ele>156.563754</ele>
        <time>2023-02-22T19:27:09.990Z</time>
      </trkpt>
      <trkpt lat="48.715786" lon="2.085859">
        <ele>156.558566</ele>
        <time>2023-02-22T19:27:11.016Z</time>
      </trkpt>
      <trkpt lat="48.715637" lon="2.085786">
        <ele>156.548459</ele>
        <time>2023-02-22T19:27:13.071Z</time>
      </trkpt>
      <trkpt lat="48.715192" lon="2.085582">
        <ele>156.518453</ele>
        <time>2023-02-22T19:27:19.493Z</time>
      </trkpt>
      <trkpt lat="48.714825" lon="2.085486">
        <ele>156.494416</ele>
        <time>2023-02-22T19:27:25.144Z</time>
      </trkpt>
      <trkpt lat="48.714510" lon="2.085384">
        <ele>156.473627</ele>
        <time>2023-02-22T19:27:30.250Z</time>
      </trkpt>
      <trkpt lat="48.714136" lon="2.085281">
        <ele>156.449093</ele>
        <time>2023-02-22T19:27:36.434Z</time>
      </trkpt>
      <trkpt lat="48.713968" lon="2.085175">
        <ele>156.348302</ele>
        <time>2023-02-22T19:27:39.476Z</time>
      </trkpt>
      <trkpt lat="48.713758" lon="2.085100">
        <ele>156.218648</ele>
        <time>2023-02-22T19:27:42.990Z</time>
      </trkpt>
      <trkpt lat="48.713489" lon="2.085034">
        <ele>156.054891</ele>
        <time>2023-02-22T19:27:47.515Z</time>
      </trkpt>
      <trkpt lat="48.712630" lon="2.084807">
        <ele>155.530896</ele>
        <time>2023-02-22T19:28:01.311Z</time>
      </trkpt>
      <trkpt lat="48.712040" lon="2.084573">
        <ele>152.939347</ele>
        <time>2023-02-22T19:28:07.448Z</time>
      </trkpt>
      <trkpt lat="48.711837" lon="2.084560">
        <ele>151.477515</ele>
        <time>2023-02-22T19:28:09.380Z</time>
      </trkpt>
      <trkpt lat="48.711180" lon="2.084620">
        <ele>146.742007</ele>
        <time>2023-02-22T19:28:15.184Z</time>
      </trkpt>
      <trkpt lat="48.711096" lon="2.084630">
        <ele>146.135788</ele>
        <time>2023-02-22T19:28:15.891Z</time>
      </trkpt>
      <trkpt lat="48.710945" lon="2.084708">
        <ele>144.988009</ele>
        <time>2023-02-22T19:28:17.257Z</time>
      </trkpt>
      <trkpt lat="48.710518" lon="2.085063">
        <ele>141.151654</ele>
        <time>2023-02-22T19:28:21.555Z</time>
      </trkpt>
      <trkpt lat="48.710468" lon="2.085078">
        <ele>140.655653</ele>
        <time>2023-02-22T19:28:21.970Z</time>
      </trkpt>
      <trkpt lat="48.710341" lon="2.085084">
        <ele>139.419193</ele>
        <time>2023-02-22T19:28:23.028Z</time>
      </trkpt>
      <trkpt lat="48.710269" lon="2.085055">
        <ele>138.694223</ele>
        <time>2023-02-22T19:28:23.704Z</time>
      </trkpt>
      <trkpt lat="48.710131" lon="2.084921">
        <ele>137.099303</ele>
        <time>2023-02-22T19:28:25.103Z</time>
      </trkpt>
      <trkpt lat="48.709577" lon="2.083721">
        <ele>127.695044</ele>
        <time>2023-02-22T19:28:33.416Z</time>
      </trkpt>
      <trkpt lat="48.709464" lon="2.083395">
        <ele>125.330435</ele>
        <time>2023-02-22T19:28:35.479Z</time>
      </trkpt>
      <trkpt lat="48.709428" lon="2.083183">
        <ele>124.230965</ele>
        <time>2023-02-22T19:28:36.788Z</time>
      </trkpt>
      <trkpt lat="48.709425" lon="2.082680">
        <ele>121.991201</ele>
        <time>2023-02-22T19:28:39.817Z</time>
      </trkpt>
      <trkpt lat="48.709615" lon="2.081268">
        <ele>115.574714</ele>
        <time>2023-02-22T19:28:48.443Z</time>
      </trkpt>
      <trkpt lat="48.709645" lon="2.080653">
        <ele>112.828886</ele>
        <time>2023-02-22T19:28:52.199Z</time>
      </trkpt>
      <trkpt lat="48.709549" lon="2.079625">
        <ele>109.200998</ele>
        <time>2023-02-22T19:28:58.558Z</time>
      </trkpt>
      <trkpt lat="48.709448" lon="2.078703">
        <ele>105.943406</ele>
        <time>2023-02-22T19:29:04.319Z</time>
      </trkpt>
      <trkpt lat="48.709389" lon="2.078452">
        <ele>105.014702</ele>
        <time>2023-02-22T19:29:05.978Z</time>
      </trkpt>
      <trkpt lat="48.709160" lon="2.077819">
        <ele>102.495328</ele>
        <time>2023-02-22T19:29:10.523Z</time>
      </trkpt>
      <trkpt lat="48.708871" lon="2.077227">
        <ele>99.918076</ele>
        <time>2023-02-22T19:29:15.148Z</time>
      </trkpt>
      <trkpt lat="48.708249" lon="2.076350">
        <ele>95.412071</ele>
        <time>2023-02-22T19:29:23.065Z</time>
      </trkpt>
      <trkpt lat="48.707603" lon="2.075636">
        <ele>91.236045</ele>
        <time>2023-02-22T19:29:30.383Z</time>
      </trkpt>
      <trkpt lat="48.707346" lon="2.075352">
        <ele>89.591425</ele>
        <time>2023-02-22T19:29:33.353Z</time>
      </trkpt>
      <trkpt lat="48.707086" lon="2.075070">
        <ele>87.938225</ele>
        <time>2023-02-22T19:29:36.383Z</time>
      </trkpt>
      <trkpt lat="48.706674" lon="2.074626">
        <ele>85.324204</ele>
        <time>2023-02-22T19:29:41.188Z</time>
      </trkpt>
      <trkpt lat="48.706594" lon="2.074568">
        <ele>84.865657</ele>
        <time>2023-02-22T19:29:42.024Z</time>
      </trkpt>
      <trkpt lat="48.706604" lon="2.074477">
        <ele>84.550880</ele>
        <time>2023-02-22T19:29:42.608Z</time>
      </trkpt>
      <trkpt lat="48.706576" lon="2.074395">
        <ele>84.307354</ele>
        <time>2023-02-22T19:29:43.183Z</time>
      </trkpt>
      <trkpt lat="48.706521" lon="2.074354">
        <ele>84.097758</ele>
        <time>2023-02-22T19:29:43.750Z</time>
      </trkpt>
      <trkpt lat="48.706541" lon="2.074238">
        <ele>83.827210</ele>
        <time>2023-02-22T19:29:44.525Z</time>
      </trkpt>
      <trkpt lat="48.706561" lon="2.073827">
        <ele>82.897245</ele>
        <time>2023-02-22T19:29:47.135Z</time>
      </trkpt>
      <trkpt lat="48.706603" lon="2.073675">
        <ele>82.525394</ele>
        <time>2023-02-22T19:29:48.218Z</time>
      </trkpt>
      <trkpt lat="48.706645" lon="2.073464">
        <ele>82.028071</ele>
        <time>2023-02-22T19:29:49.651Z</time>
      </trkpt>
      <trkpt lat="48.706664" lon="2.073299">
        <ele>81.650113</ele>
        <time>2023-02-22T19:29:50.739Z</time>
      </trkpt>
      <trkpt lat="48.706643" lon="2.073064">
        <ele>81.114982</ele>
        <time>2023-02-22T19:29:52.347Z</time>
      </trkpt>
      <trkpt lat="48.706542" lon="2.072698">
        <ele>80.219777</ele>
        <time>2023-02-22T19:29:55.077Z</time>
      </trkpt>
      <trkpt lat="48.706333" lon="2.072316">
        <ele>79.100040</ele>
        <time>2023-02-22T19:29:58.540Z</time>
      </trkpt>
      <trkpt lat="48.706290" lon="2.072249">
        <ele>78.889141</ele>
        <time>2023-02-22T19:29:59.239Z</time>
      </trkpt>
      <trkpt lat="48.706222" lon="2.072127">
        <ele>78.528782</ele>
        <time>2023-02-22T19:30:00.332Z</time>
      </trkpt>
      <trkpt lat="48.706187" lon="2.072066">
        <ele>78.346377</ele>
        <time>2023-02-22T19:30:00.891Z</time>
      </trkpt>
      <trkpt lat="48.706163" lon="2.072019">
        <ele>78.261886</ele>
        <time>2023-02-22T19:30:01.306Z</time>
      </trkpt>
      <trkpt lat="48.706093" lon="2.071735">
        <ele>77.980369</ele>
        <time>2023-02-22T19:30:03.425Z</time>
      </trkpt>
      <trkpt lat="48.706096" lon="2.071690">
        <ele>77.938369</ele>
        <time>2023-02-22T19:30:03.729Z</time>
      </trkpt>
      <trkpt lat="48.706045" lon="2.071624">
        <ele>77.843996</ele>
        <time>2023-02-22T19:30:04.406Z</time>
      </trkpt>
      <trkpt lat="48.706011" lon="2.071641">
        <ele>77.793616</ele>
        <time>2023-02-22T19:30:04.777Z</time>
      </trkpt>
      <trkpt lat="48.705877" lon="2.071575">
        <ele>77.595349</ele>
        <time>2023-02-22T19:30:06.221Z</time>
      </trkpt>
      <trkpt lat="48.705739" lon="2.071395">
        <ele>77.339132</ele>
        <time>2023-02-22T19:30:08.086Z</time>
      </trkpt>
      <trkpt lat="48.705568" lon="2.071161">
        <ele>77.014917</ele>
        <time>2023-02-22T19:30:10.551Z</time>
      </trkpt>
      <trkpt lat="48.705316" lon="2.070823">
        <ele>76.541360</ele>
        <time>2023-02-22T19:30:14.412Z</time>
      </trkpt>
      <trkpt lat="48.705252" lon="2.070685">
        <ele>76.384731</ele>
        <time>2023-02-22T19:30:15.814Z</time>
      </trkpt>
      <trkpt lat="48.705238" lon="2.070655">
        <ele>76.350611</ele>
        <time>2023-02-22T19:30:16.132Z</time>
      </trkpt>
      <trkpt lat="48.705232" lon="2.070644">
        <ele>76.337359</ele>
        <time>2023-02-22T19:30:16.258Z</time>
      </trkpt>
      <trkpt lat="48.705175" lon="2.070521">
        <ele>76.197790</ele>
        <time>2023-02-22T19:30:17.784Z</time>
      </trkpt>
      <trkpt lat="48.704873" lon="2.069924">
        <ele>76.270476</ele>
        <time>2023-02-22T19:30:26.559Z</time>
      </trkpt>
      <trkpt lat="48.704718" lon="2.069835">
        <ele>76.712535</ele>
        <time>2023-02-22T19:30:29.690Z</time>
      </trkpt>
      <trkpt lat="48.704030" lon="2.069812">
        <ele>78.547836</ele>
        <time>2023-02-22T19:30:45.572Z</time>
      </trkpt>
      <trkpt lat="48.703832" lon="2.069769">
        <ele>79.081286</ele>
        <time>2023-02-22T19:30:51.286Z</time>
      </trkpt>
      <trkpt lat="48.703226" lon="2.069634">
        <ele>80.878934</ele>
        <time>2023-02-22T19:31:11.370Z</time>
      </trkpt>
      <trkpt lat="48.703095" lon="2.069607">
        <ele>81.611402</ele>
        <time>2023-02-22T19:31:16.071Z</time>
      </trkpt>
      <trkpt lat="48.702906" lon="2.069612">
        <ele>82.658686</ele>
        <time>2023-02-22T19:31:22.807Z</time>
      </trkpt>
      <trkpt lat="48.702788" lon="2.069613">
        <ele>83.312456</ele>
        <time>2023-02-22T19:31:27.130Z</time>
      </trkpt>
      <trkpt lat="48.702718" lon="2.069613">
        <ele>83.700280</ele>
        <time>2023-02-22T19:31:29.561Z</time>
      </trkpt>
      <trkpt lat="48.702566" lon="2.069608">
        <ele>84.542610</ele>
        <time>2023-02-22T19:31:34.970Z</time>
      </trkpt>
      <trkpt lat="48.702135" lon="2.069613">
        <ele>86.930567</ele>
        <time>2023-02-22T19:31:50.897Z</time>
      </trkpt>
      <trkpt lat="48.701994" lon="2.069615">
        <ele>87.711789</ele>
        <time>2023-02-22T19:31:56.372Z</time>
      </trkpt>
      <trkpt lat="48.701745" lon="2.069552">
        <ele>89.110434</ele>
        <time>2023-02-22T19:32:06.844Z</time>
      </trkpt>
      <trkpt lat="48.700999" lon="2.069114">
        <ele>93.546453</ele>
        <time>2023-02-22T19:32:38.460Z</time>
      </trkpt>
      <trkpt lat="48.700787" lon="2.068990">
        <ele>94.806933</ele>
        <time>2023-02-22T19:32:46.884Z</time>
      </trkpt>
      <trkpt lat="48.700326" lon="2.068763">
        <ele>97.495614</ele>
        <time>2023-02-22T19:33:04.391Z</time>
      </trkpt>
      <trkpt lat="48.700123" lon="2.068746">
        <ele>98.623317</ele>
        <time>2023-02-22T19:33:11.813Z</time>
      </trkpt>
      <trkpt lat="48.699704" lon="2.068781">
        <ele>100.782848</ele>
        <time>2023-02-22T19:33:27.027Z</time>
      </trkpt>
      <trkpt lat="48.699534" lon="2.068774">
        <ele>101.371258</ele>
        <time>2023-02-22T19:33:32.735Z</time>
      </trkpt>
      <trkpt lat="48.699388" lon="2.068726">
        <ele>101.888167</ele>
        <time>2023-02-22T19:33:38.016Z</time>
      </trkpt>
      <trkpt lat="48.699236" lon="2.068644">
        <ele>102.446423</ele>
        <time>2023-02-22T19:33:43.077Z</time>
      </trkpt>
      <trkpt lat="48.698667" lon="2.068115">
        <ele>104.756228</ele>
        <time>2023-02-22T19:34:00.938Z</time>
      </trkpt>
      <trkpt lat="48.698545" lon="2.067998">
        <ele>105.255797</ele>
        <time>2023-02-22T19:34:04.283Z</time>
      </trkpt>
      <trkpt lat="48.698506" lon="2.067962">
        <ele>105.413807</ele>
        <time>2023-02-22T19:34:05.450Z</time>
      </trkpt>
      <trkpt lat="48.697888" lon="2.067396">
        <ele>107.774239</ele>
        <time>2023-02-22T19:34:23.178Z</time>
      </trkpt>
      <trkpt lat="48.697522" lon="2.067107">
        <ele>109.035785</ele>
        <time>2023-02-22T19:34:34.284Z</time>
      </trkpt>
      <trkpt lat="48.696989" lon="2.066803">
        <ele>110.776590</ele>
        <time>2023-02-22T19:34:50.323Z</time>
      </trkpt>
      <trkpt lat="48.696777" lon="2.066744">
        <ele>111.435438</ele>
        <time>2023-02-22T19:34:54.630Z</time>
      </trkpt>
      <trkpt lat="48.696632" lon="2.066761">
        <ele>111.879975</ele>
        <time>2023-02-22T19:35:00.341Z</time>
      </trkpt>
      <trkpt lat="48.696457" lon="2.066828">
        <ele>112.627350</ele>
        <time>2023-02-22T19:35:04.203Z</time>
      </trkpt>
      <trkpt lat="48.695757" lon="2.067310">
        <ele>117.204293</ele>
        <time>2023-02-22T19:35:29.004Z</time>
      </trkpt>
      <trkpt lat="48.695595" lon="2.067344">
        <ele>118.177813</ele>
        <time>2023-02-22T19:35:37.739Z</time>
      </trkpt>
      <trkpt lat="48.695382" lon="2.067317">
        <ele>119.450134</ele>
        <time>2023-02-22T19:35:46.705Z</time>
      </trkpt>
      <trkpt lat="48.694631" lon="2.067053">
        <ele>124.124897</ele>
        <time>2023-02-22T19:36:21.902Z</time>
      </trkpt>
      <trkpt lat="48.694320" lon="2.067054">
        <ele>126.119288</ele>
        <time>2023-02-22T19:36:35.433Z</time>
      </trkpt>
      <trkpt lat="48.694083" lon="2.067079">
        <ele>127.642805</ele>
        <time>2023-02-22T19:36:46.359Z</time>
      </trkpt>
      <trkpt lat="48.693954" lon="2.067139">
        <ele>128.508169</ele>
        <time>2023-02-22T19:36:51.609Z</time>
      </trkpt>
      <trkpt lat="48.693492" lon="2.067474">
        <ele>131.792769</ele>
        <time>2023-02-22T19:37:12.841Z</time>
      </trkpt>
      <trkpt lat="48.693227" lon="2.067576">
        <ele>133.546158</ele>
        <time>2023-02-22T19:37:23.319Z</time>
      </trkpt>
      <trkpt lat="48.692716" lon="2.067543">
        <ele>134.261786</ele>
        <time>2023-02-22T19:37:40.632Z</time>
      </trkpt>
      <trkpt lat="48.692467" lon="2.067585">
        <ele>134.122722</ele>
        <time>2023-02-22T19:37:45.584Z</time>
      </trkpt>
      <trkpt lat="48.692181" lon="2.067557">
        <ele>133.963644</ele>
        <time>2023-02-22T19:37:49.369Z</time>
      </trkpt>
      <trkpt lat="48.692017" lon="2.067475">
        <ele>133.867784</ele>
        <time>2023-02-22T19:37:51.388Z</time>
      </trkpt>
      <trkpt lat="48.691826" lon="2.067298">
        <ele>133.743505</ele>
        <time>2023-02-22T19:37:53.853Z</time>
      </trkpt>
      <trkpt lat="48.690473" lon="2.065579">
        <ele>126.744519</ele>
        <time>2023-02-22T19:38:10.402Z</time>
      </trkpt>
      <trkpt lat="48.689864" lon="2.064468">
        <ele>121.934347</ele>
        <time>2023-02-22T19:38:19.198Z</time>
      </trkpt>
      <trkpt lat="48.689713" lon="2.064277">
        <ele>121.003781</ele>
        <time>2023-02-22T19:38:21.020Z</time>
      </trkpt>
      <trkpt lat="48.689523" lon="2.064166">
        <ele>120.040480</ele>
        <time>2023-02-22T19:38:22.915Z</time>
      </trkpt>
      <trkpt lat="48.689147" lon="2.064188">
        <ele>118.260518</ele>
        <time>2023-02-22T19:38:26.416Z</time>
      </trkpt>
      <trkpt lat="48.688867" lon="2.064292">
        <ele>116.896768</ele>
        <time>2023-02-22T19:38:29.190Z</time>
      </trkpt>
      <trkpt lat="48.688576" lon="2.064482">
        <ele>115.426390</ele>
        <time>2023-02-22T19:38:32.383Z</time>
      </trkpt>
      <trkpt lat="48.688471" lon="2.064554">
        <ele>115.366650</ele>
        <time>2023-02-22T19:38:33.636Z</time>
      </trkpt>
      <trkpt lat="48.688206" lon="2.064369">
        <ele>115.215412</ele>
        <time>2023-02-22T19:38:36.810Z</time>
      </trkpt>
      <trkpt lat="48.687979" lon="2.064222">
        <ele>115.087454</ele>
        <time>2023-02-22T19:38:39.719Z</time>
      </trkpt>
      <trkpt lat="48.687877" lon="2.064166">
        <ele>115.031220</ele>
        <time>2023-02-22T19:38:41.237Z</time>
      </trkpt>
      <trkpt lat="48.687460" lon="2.064107">
        <ele>114.814142</ele>
        <time>2023-02-22T19:38:47.694Z</time>
      </trkpt>
      <trkpt lat="48.686867" lon="2.064139">
        <ele>114.506586</ele>
        <time>2023-02-22T19:38:57.557Z</time>
      </trkpt>
      <trkpt lat="48.686622" lon="2.064121">
        <ele>115.114835</ele>
        <time>2023-02-22T19:39:03.005Z</time>
      </trkpt>
      <trkpt lat="48.686278" lon="2.064007">
        <ele>116.067904</ele>
        <time>2023-02-22T19:39:12.017Z</time>
      </trkpt>
      <trkpt lat="48.685511" lon="2.063555">
        <ele>118.295390</ele>
        <time>2023-02-22T19:39:35.654Z</time>
      </trkpt>
      <trkpt lat="48.685281" lon="2.063252">
        <ele>119.120397</ele>
        <time>2023-02-22T19:39:44.176Z</time>
      </trkpt>
      <trkpt lat="48.684979" lon="2.062960">
        <ele>120.203884</ele>
        <time>2023-02-22T19:39:53.591Z</time>
      </trkpt>
      <trkpt lat="48.684762" lon="2.062417">
        <ele>121.516209</ele>
        <time>2023-02-22T19:40:02.948Z</time>
      </trkpt>
      <trkpt lat="48.684606" lon="2.061908">
        <ele>122.676451</ele>
        <time>2023-02-22T19:40:13.402Z</time>
      </trkpt>
      <trkpt lat="48.684386" lon="2.061513">
        <ele>123.744925</ele>
        <time>2023-02-22T19:40:23.291Z</time>
      </trkpt>
      <trkpt lat="48.684015" lon="2.061040">
        <ele>125.384971</ele>
        <time>2023-02-22T19:40:37.067Z</time>
      </trkpt>
      <trkpt lat="48.683907" lon="2.060857">
        <ele>126.124882</ele>
        <time>2023-02-22T19:40:42.000Z</time>
      </trkpt>
      <trkpt lat="48.683893" lon="2.060768">
        <ele>126.400677</ele>
        <time>2023-02-22T19:40:44.031Z</time>
      </trkpt>
      <trkpt lat="48.683931" lon="2.060538">
        <ele>127.115377</ele>
        <time>2023-02-22T19:40:48.403Z</time>
      </trkpt>
      <trkpt lat="48.683925" lon="2.060173">
        <ele>128.215988</ele>
        <time>2023-02-22T19:40:56.198Z</time>
      </trkpt>
      <trkpt lat="48.683873" lon="2.059987">
        <ele>128.824871</ele>
        <time>2023-02-22T19:40:59.941Z</time>
      </trkpt>
      <trkpt lat="48.683765" lon="2.059774">
        <ele>129.634452</ele>
        <time>2023-02-22T19:41:05.957Z</time>
      </trkpt>
      <trkpt lat="48.683611" lon="2.059344">
        <ele>131.109098</ele>
        <time>2023-02-22T19:41:16.927Z</time>
      </trkpt>
      <trkpt lat="48.682605" lon="2.055908">
        <ele>144.807046</ele>
        <time>2023-02-22T19:42:50.904Z</time>
      </trkpt>
      <trkpt lat="48.682477" lon="2.055619">
        <ele>146.135689</ele>
        <time>2023-02-22T19:42:59.619Z</time>
      </trkpt>
      <trkpt lat="48.682330" lon="2.055277">
        <ele>147.693732</ele>
        <time>2023-02-22T19:43:09.862Z</time>
      </trkpt>
      <trkpt lat="48.681886" lon="2.054622">
        <ele>151.277831</ele>
        <time>2023-02-22T19:43:33.796Z</time>
      </trkpt>
      <trkpt lat="48.681646" lon="2.054333">
        <ele>153.050840</ele>
        <time>2023-02-22T19:43:45.473Z</time>
      </trkpt>
      <trkpt lat="48.680438" lon="2.053262">
        <ele>160.277095</ele>
        <time>2023-02-22T19:44:36.312Z</time>
      </trkpt>
      <trkpt lat="48.680147" lon="2.053016">
        <ele>161.972685</ele>
        <time>2023-02-22T19:44:47.904Z</time>
      </trkpt>
      <trkpt lat="48.679994" lon="2.052835">
        <ele>162.960455</ele>
        <time>2023-02-22T19:44:53.914Z</time>
      </trkpt>
      <trkpt lat="48.679894" lon="2.052652">
        <ele>163.461824</ele>
        <time>2023-02-22T19:44:59.432Z</time>
      </trkpt>
      <trkpt lat="48.679885" lon="2.052506">
        <ele>163.741589</ele>
        <time>2023-02-22T19:45:02.299Z</time>
      </trkpt>
      <trkpt lat="48.679900" lon="2.052395">
        <ele>163.957757</ele>
        <time>2023-02-22T19:45:04.349Z</time>
      </trkpt>
      <trkpt lat="48.680142" lon="2.051560">
        <ele>165.697568</ele>
        <time>2023-02-22T19:45:21.889Z</time>
      </trkpt>
      <trkpt lat="48.680320" lon="2.050999">
        <ele>166.885066</ele>
        <time>2023-02-22T19:45:32.110Z</time>
      </trkpt>
      <trkpt lat="48.680114" lon="2.050976">
        <ele>167.481938</ele>
        <time>2023-02-22T19:45:37.241Z</time>
      </trkpt>
      <trkpt lat="48.679679" lon="2.050795">
        <ele>168.400207</ele>
        <time>2023-02-22T19:45:45.832Z</time>
      </trkpt>
      <trkpt lat="48.679345" lon="2.050556">
        <ele>168.670953</ele>
        <time>2023-02-22T19:45:52.404Z</time>
      </trkpt>
      <trkpt lat="48.679085" lon="2.050334">
        <ele>168.889713</ele>
        <time>2023-02-22T19:45:57.156Z</time>
      </trkpt>
      <trkpt lat="48.678768" lon="2.050180">
        <ele>169.133712</ele>
        <time>2023-02-22T19:46:02.614Z</time>
      </trkpt>
      <trkpt lat="48.678605" lon="2.050102">
        <ele>169.259001</ele>
        <time>2023-02-22T19:46:05.489Z</time>
      </trkpt>
      <trkpt lat="48.678385" lon="2.050079">
        <ele>169.420629</ele>
        <time>2023-02-22T19:46:08.806Z</time>
      </trkpt>
      <trkpt lat="48.678423" lon="2.049898">
        <ele>169.512544</ele>
        <time>2023-02-22T19:46:11.102Z</time>
      </trkpt>
      <trkpt lat="48.679036" lon="2.047105">
        <ele>171.299416</ele>
        <time>2023-02-22T19:46:47.714Z</time>
      </trkpt>
      <trkpt lat="48.679277" lon="2.046062">
        <ele>171.628054</ele>
        <time>2023-02-22T19:47:01.729Z</time>
      </trkpt>
      <trkpt lat="48.679339" lon="2.045801">
        <ele>171.710547</ele>
        <time>2023-02-22T19:47:04.898Z</time>
      </trkpt>
      <trkpt lat="48.679614" lon="2.044660">
        <ele>172.071783</ele>
        <time>2023-02-22T19:47:17.184Z</time>
      </trkpt>
      <trkpt lat="48.680008" lon="2.042934">
        <ele>171.336291</ele>
        <time>2023-02-22T19:47:32.416Z</time>
      </trkpt>
      <trkpt lat="48.680071" lon="2.042600">
        <ele>171.187729</ele>
        <time>2023-02-22T19:47:35.232Z</time>
      </trkpt>
      <trkpt lat="48.680108" lon="2.042183">
        <ele>171.007781</ele>
        <time>2023-02-22T19:47:38.667Z</time>
      </trkpt>
      <trkpt lat="48.680204" lon="2.037652">
        <ele>169.499014</ele>
        <time>2023-02-22T19:48:18.585Z</time>
      </trkpt>
      <trkpt lat="48.679976" lon="2.034124">
        <ele>168.263817</ele>
        <time>2023-02-22T19:48:49.668Z</time>
      </trkpt>
      <trkpt lat="48.679987" lon="2.033634">
        <ele>168.048219</ele>
        <time>2023-02-22T19:48:53.713Z</time>
      </trkpt>
      <trkpt lat="48.680058" lon="2.032845">
        <ele>167.615470</ele>
        <time>2023-02-22T19:49:00.200Z</time>
      </trkpt>
      <trkpt lat="48.680460" lon="2.029917">
        <ele>166.629046</ele>
        <time>2023-02-22T19:49:24.985Z</time>
      </trkpt>
      <trkpt lat="48.680310" lon="2.029670">
        <ele>166.615980</ele>
        <time>2023-02-22T19:49:28.169Z</time>
      </trkpt>
      <trkpt lat="48.680182" lon="2.029519">
        <ele>166.606412</ele>
        <time>2023-02-22T19:49:31.117Z</time>
      </trkpt>
      <trkpt lat="48.680071" lon="2.029443">
        <ele>166.599229</ele>
        <time>2023-02-22T19:49:33.003Z</time>
      </trkpt>
      <trkpt lat="48.679858" lon="2.029366">
        <ele>166.586316</ele>
        <time>2023-02-22T19:49:36.947Z</time>
      </trkpt>
      <trkpt lat="48.679672" lon="2.029217">
        <ele>166.573908</ele>
        <time>2023-02-22T19:49:40.479Z</time>
      </trkpt>
      <trkpt lat="48.679631" lon="2.029089">
        <ele>166.651173</ele>
        <time>2023-02-22T19:49:42.383Z</time>
      </trkpt>
      <trkpt lat="48.679584" lon="2.029055">
        <ele>166.713076</ele>
        <time>2023-02-22T19:49:43.433Z</time>
      </trkpt>
      <trkpt lat="48.678760" lon="2.029457">
        <ele>167.741934</ele>
        <time>2023-02-22T19:50:00.371Z</time>
      </trkpt>
      <trkpt lat="48.678579" lon="2.029481">
        <ele>167.957870</ele>
        <time>2023-02-22T19:50:04.277Z</time>
      </trkpt>
      <trkpt lat="48.677918" lon="2.029072">
        <ele>168.771538</ele>
        <time>2023-02-22T19:50:18.906Z</time>
      </trkpt>
      <trkpt lat="48.677754" lon="2.028947">
        <ele>168.910766</ele>
        <time>2023-02-22T19:50:22.486Z</time>
      </trkpt>
      <trkpt lat="48.677600" lon="2.028881">
        <ele>169.032134</ele>
        <time>2023-02-22T19:50:25.447Z</time>
      </trkpt>
      <trkpt lat="48.677324" lon="2.028905">
        <ele>169.241778</ele>
        <time>2023-02-22T19:50:30.439Z</time>
      </trkpt>
      <trkpt lat="48.676821" lon="2.029088">
        <ele>169.634069</ele>
        <time>2023-02-22T19:50:39.468Z</time>
      </trkpt>
      <trkpt lat="48.675585" lon="2.029455">
        <ele>170.316091</ele>
        <time>2023-02-22T19:51:00.098Z</time>
      </trkpt>
      <trkpt lat="48.675394" lon="2.029423">
        <ele>170.384583</ele>
        <time>2023-02-22T19:51:03.221Z</time>
      </trkpt>
      <trkpt lat="48.675271" lon="2.029288">
        <ele>170.438726</ele>
        <time>2023-02-22T19:51:05.627Z</time>
      </trkpt>
      <trkpt lat="48.675206" lon="2.028756">
        <ele>170.566060</ele>
        <time>2023-02-22T19:51:11.320Z</time>
      </trkpt>
      <trkpt lat="48.675073" lon="2.028314">
        <ele>170.680378</ele>
        <time>2023-02-22T19:51:16.513Z</time>
      </trkpt>
      <trkpt lat="48.674887" lon="2.027994">
        <ele>170.808583</ele>
        <time>2023-02-22T19:51:21.122Z</time>
      </trkpt>
      <trkpt lat="48.674619" lon="2.027657">
        <ele>170.985367</ele>
        <time>2023-02-22T19:51:26.891Z</time>
      </trkpt>
      <trkpt lat="48.674370" lon="2.027436">
        <ele>171.131837</ele>
        <time>2023-02-22T19:51:31.730Z</time>
      </trkpt>
      <trkpt lat="48.673447" lon="2.026868">
        <ele>171.640647</ele>
        <time>2023-02-22T19:51:48.725Z</time>
      </trkpt>
      <trkpt lat="48.672595" lon="2.026486">
        <ele>172.240153</ele>
        <time>2023-02-22T19:52:04.331Z</time>
      </trkpt>
      <trkpt lat="48.672240" lon="2.026289">
        <ele>172.495245</ele>
        <time>2023-02-22T19:52:11.001Z</time>
      </trkpt>
      <trkpt lat="48.671305" lon="2.025638">
        <ele>173.195282</ele>
        <time>2023-02-22T19:52:28.926Z</time>
      </trkpt>
      <trkpt lat="48.670741" lon="2.025130">
        <ele>173.645298</ele>
        <time>2023-02-22T19:52:40.367Z</time>
      </trkpt>
      <trkpt lat="48.670552" lon="2.024885">
        <ele>173.815911</ele>
        <time>2023-02-22T19:52:44.853Z</time>
      </trkpt>
      <trkpt lat="48.670351" lon="2.024406">
        <ele>174.072922</ele>
        <time>2023-02-22T19:52:51.751Z</time>
      </trkpt>
      <trkpt lat="48.670296" lon="2.024034">
        <ele>174.188125</ele>
        <time>2023-02-22T19:52:56.269Z</time>
      </trkpt>
      <trkpt lat="48.670310" lon="2.023497">
        <ele>174.349676</ele>
        <time>2023-02-22T19:53:02.430Z</time>
      </trkpt>
      <trkpt lat="48.670351" lon="2.023167">
        <ele>174.450616</ele>
        <time>2023-02-22T19:53:06.145Z</time>
      </trkpt>
      <trkpt lat="48.670549" lon="2.022313">
        <ele>174.722695</ele>
        <time>2023-02-22T19:53:15.989Z</time>
      </trkpt>
      <trkpt lat="48.670336" lon="2.022322">
        <ele>174.819689</ele>
        <time>2023-02-22T19:53:19.383Z</time>
      </trkpt>
      <trkpt lat="48.667386" lon="2.022074">
        <ele>175.802017</ele>
        <time>2023-02-22T19:54:04.353Z</time>
      </trkpt>
      <trkpt lat="48.667268" lon="2.022094">
        <ele>175.885999</ele>
        <time>2023-02-22T19:54:06.617Z</time>
      </trkpt>
      <trkpt lat="48.666705" lon="2.019785">
        <ele>177.562261</ele>
        <time>2023-02-22T19:54:39.984Z</time>
      </trkpt>
      <trkpt lat="48.666564" lon="2.019048">
        <ele>178.204690</ele>
        <time>2023-02-22T19:54:50.374Z</time>
      </trkpt>
      <trkpt lat="48.666484" lon="2.018260">
        <ele>178.724567</ele>
        <time>2023-02-22T19:55:00.648Z</time>
      </trkpt>
      <trkpt lat="48.666319" lon="2.013427">
        <ele>179.494924</ele>
        <time>2023-02-22T19:55:51.061Z</time>
      </trkpt>
      <trkpt lat="48.666260" lon="2.013110">
        <ele>179.507146</ele>
        <time>2023-02-22T19:55:53.913Z</time>
      </trkpt>
      <trkpt lat="48.666092" lon="2.012631">
        <ele>179.064686</ele>
        <time>2023-02-22T19:55:58.490Z</time>
      </trkpt>
      <trkpt lat="48.665966" lon="2.012421">
        <ele>178.826650</ele>
        <time>2023-02-22T19:56:00.832Z</time>
      </trkpt>
      <trkpt lat="48.665822" lon="2.012263">
        <ele>178.600743</ele>
        <time>2023-02-22T19:56:03.016Z</time>
      </trkpt>
      <trkpt lat="48.663955" lon="2.010874">
        <ele>175.422685</ele>
        <time>2023-02-22T19:56:26.447Z</time>
      </trkpt>
      <trkpt lat="48.663638" lon="2.010710">
        <ele>174.816928</ele>
        <time>2023-02-22T19:56:30.058Z</time>
      </trkpt>
      <trkpt lat="48.663074" lon="2.010630">
        <ele>173.912908</ele>
        <time>2023-02-22T19:56:36.440Z</time>
      </trkpt>
      <trkpt lat="48.662974" lon="2.010577">
        <ele>173.850949</ele>
        <time>2023-02-22T19:56:37.521Z</time>
      </trkpt>
      <trkpt lat="48.662926" lon="2.010544">
        <ele>173.820120</ele>
        <time>2023-02-22T19:56:38.128Z</time>
      </trkpt>
      <trkpt lat="48.663154" lon="2.009707">
        <ele>173.470415</ele>
        <time>2023-02-22T19:56:45.043Z</time>
      </trkpt>
      <trkpt lat="48.664637" lon="2.004250">
        <ele>171.684532</ele>
        <time>2023-02-22T19:57:39.629Z</time>
      </trkpt>
      <trkpt lat="48.665820" lon="1.999872">
        <ele>171.448985</ele>
        <time>2023-02-22T19:58:25.361Z</time>
      </trkpt>
      <trkpt lat="48.665830" lon="1.999834">
        <ele>171.446144</ele>
        <time>2023-02-22T19:58:25.757Z</time>
      </trkpt>
      <trkpt lat="48.666809" lon="1.996207">
        <ele>171.088912</ele>
        <time>2023-02-22T19:59:02.899Z</time>
      </trkpt>
      <trkpt lat="48.667816" lon="1.992476">
        <ele>170.426516</ele>
        <time>2023-02-22T19:59:40.556Z</time>
      </trkpt>
      <trkpt lat="48.668374" lon="1.990378">
        <ele>169.658337</ele>
        <time>2023-02-22T19:59:59.972Z</time>
      </trkpt>
      <trkpt lat="48.668637" lon="1.989403">
        <ele>169.162738</ele>
        <time>2023-02-22T20:00:08.817Z</time>
      </trkpt>
      <trkpt lat="48.668775" lon="1.988876">
        <ele>168.895966</ele>
        <time>2023-02-22T20:00:13.559Z</time>
      </trkpt>
      <trkpt lat="48.668818" lon="1.988894">
        <ele>168.864178</ele>
        <time>2023-02-22T20:00:14.119Z</time>
      </trkpt>
      <trkpt lat="48.668905" lon="1.988869">
        <ele>168.801081</ele>
        <time>2023-02-22T20:00:15.257Z</time>
      </trkpt>
      <trkpt lat="48.668940" lon="1.988827">
        <ele>168.769261</ele>
        <time>2023-02-22T20:00:15.828Z</time>
      </trkpt>
      <trkpt lat="48.668979" lon="1.988706">
        <ele>168.705903</ele>
        <time>2023-02-22T20:00:16.920Z</time>
      </trkpt>
      <trkpt lat="48.668970" lon="1.988593">
        <ele>168.652344</ele>
        <time>2023-02-22T20:00:17.886Z</time>
      </trkpt>
      <trkpt lat="48.668891" lon="1.988473">
        <ele>168.572612</ele>
        <time>2023-02-22T20:00:19.284Z</time>
      </trkpt>
      <trkpt lat="48.669044" lon="1.987890">
        <ele>168.340142</ele>
        <time>2023-02-22T20:00:24.511Z</time>
      </trkpt>
      <trkpt lat="48.669670" lon="1.985542">
        <ele>167.533399</ele>
        <time>2023-02-22T20:00:46.729Z</time>
      </trkpt>
      <trkpt lat="48.669913" lon="1.984764">
        <ele>167.471430</ele>
        <time>2023-02-22T20:00:54.613Z</time>
      </trkpt>
      <trkpt lat="48.670361" lon="1.983570">
        <ele>167.372551</ele>
        <time>2023-02-22T20:01:08.069Z</time>
      </trkpt>
      <trkpt lat="48.670746" lon="1.982597">
        <ele>167.505184</ele>
        <time>2023-02-22T20:01:19.991Z</time>
      </trkpt>
      <trkpt lat="48.671200" lon="1.981453">
        <ele>167.680321</ele>
        <time>2023-02-22T20:01:34.035Z</time>
      </trkpt>
      <trkpt lat="48.671336" lon="1.981109">
        <ele>167.721967</ele>
        <time>2023-02-22T20:01:38.156Z</time>
      </trkpt>
      <trkpt lat="48.671687" lon="1.980239">
        <ele>167.687661</ele>
        <time>2023-02-22T20:01:48.168Z</time>
      </trkpt>
      <trkpt lat="48.671970" lon="1.979525">
        <ele>167.659641</ele>
        <time>2023-02-22T20:01:56.023Z</time>
      </trkpt>
      <trkpt lat="48.672029" lon="1.979378">
        <ele>167.653852</ele>
        <time>2023-02-22T20:01:57.693Z</time>
      </trkpt>
      <trkpt lat="48.672355" lon="1.978484">
        <ele>167.586297</ele>
        <time>2023-02-22T20:02:07.255Z</time>
      </trkpt>
      <trkpt lat="48.672377" lon="1.978414">
        <ele>167.577062</ele>
        <time>2023-02-22T20:02:07.987Z</time>
      </trkpt>
      <trkpt lat="48.672579" lon="1.977769">
        <ele>167.492026</ele>
        <time>2023-02-22T20:02:14.611Z</time>
      </trkpt>
      <trkpt lat="48.672687" lon="1.977439">
        <ele>167.448154</ele>
        <time>2023-02-22T20:02:18.142Z</time>
      </trkpt>
      <trkpt lat="48.672982" lon="1.976175">
        <ele>167.224286</ele>
        <time>2023-02-22T20:02:30.731Z</time>
      </trkpt>
      <trkpt lat="48.673246" lon="1.975253">
        <ele>166.713523</ele>
        <time>2023-02-22T20:02:39.800Z</time>
      </trkpt>
      <trkpt lat="48.673434" lon="1.974598">
        <ele>166.350535</ele>
        <time>2023-02-22T20:02:45.807Z</time>
      </trkpt>
      <trkpt lat="48.673476" lon="1.974463">
        <ele>166.274688</ele>
        <time>2023-02-22T20:02:47.070Z</time>
      </trkpt>
      <trkpt lat="48.673542" lon="1.974351">
        <ele>166.198395</ele>
        <time>2023-02-22T20:02:48.240Z</time>
      </trkpt>
      <trkpt lat="48.673534" lon="1.974029">
        <ele>166.034624</ele>
        <time>2023-02-22T20:02:50.694Z</time>
      </trkpt>
      <trkpt lat="48.673530" lon="1.973667">
        <ele>165.829821</ele>
        <time>2023-02-22T20:02:53.411Z</time>
      </trkpt>
      <trkpt lat="48.673655" lon="1.972656">
        <ele>165.158454</ele>
        <time>2023-02-22T20:03:01.203Z</time>
      </trkpt>
      <trkpt lat="48.673670" lon="1.972282">
        <ele>164.913887</ele>
        <time>2023-02-22T20:03:04.306Z</time>
      </trkpt>
      <trkpt lat="48.673639" lon="1.972112">
        <ele>164.798771</ele>
        <time>2023-02-22T20:03:05.645Z</time>
      </trkpt>
      <trkpt lat="48.673606" lon="1.971966">
        <ele>164.698046</ele>
        <time>2023-02-22T20:03:06.968Z</time>
      </trkpt>
      <trkpt lat="48.673595" lon="1.971918">
        <ele>164.664882</ele>
        <time>2023-02-22T20:03:07.407Z</time>
      </trkpt>
      <trkpt lat="48.673504" lon="1.971650">
        <ele>164.468182</ele>
        <time>2023-02-22T20:03:09.946Z</time>
      </trkpt>
      <trkpt lat="48.673282" lon="1.971313">
        <ele>164.157476</ele>
        <time>2023-02-22T20:03:14.155Z</time>
      </trkpt>
      <trkpt lat="48.673249" lon="1.971265">
        <ele>164.157390</ele>
        <time>2023-02-22T20:03:14.727Z</time>
      </trkpt>
      <trkpt lat="48.673175" lon="1.971148">
        <ele>164.193548</ele>
        <time>2023-02-22T20:03:16.213Z</time>
      </trkpt>
      <trkpt lat="48.673023" lon="1.970911">
        <ele>164.267284</ele>
        <time>2023-02-22T20:03:19.307Z</time>
      </trkpt>
      <trkpt lat="48.672658" lon="1.970307">
        <ele>164.450013</ele>
        <time>2023-02-22T20:03:27.219Z</time>
      </trkpt>
      <trkpt lat="48.672559" lon="1.970116">
        <ele>164.504205</ele>
        <time>2023-02-22T20:03:29.884Z</time>
      </trkpt>
      <trkpt lat="48.672508" lon="1.970023">
        <ele>164.531185</ele>
        <time>2023-02-22T20:03:31.303Z</time>
      </trkpt>
      <trkpt lat="48.672141" lon="1.968979">
        <ele>164.855875</ele>
        <time>2023-02-22T20:03:46.095Z</time>
      </trkpt>
      <trkpt lat="48.671981" lon="1.968398">
        <ele>165.202627</ele>
        <time>2023-02-22T20:03:53.921Z</time>
      </trkpt>
      <trkpt lat="48.671691" lon="1.967578">
        <ele>165.715015</ele>
        <time>2023-02-22T20:04:04.721Z</time>
      </trkpt>
      <trkpt lat="48.671444" lon="1.967092">
        <ele>166.052831</ele>
        <time>2023-02-22T20:04:11.893Z</time>
      </trkpt>
      <trkpt lat="48.670906" lon="1.965892">
        <ele>166.899721</ele>
        <time>2023-02-22T20:04:29.910Z</time>
      </trkpt>
      <trkpt lat="48.670690" lon="1.965164">
        <ele>167.374613</ele>
        <time>2023-02-22T20:04:40.079Z</time>
      </trkpt>
      <trkpt lat="48.670491" lon="1.963607">
        <ele>167.977744</ele>
        <time>2023-02-22T20:04:58.757Z</time>
      </trkpt>
      <trkpt lat="48.670028" lon="1.959622">
        <ele>168.286737</ele>
        <time>2023-02-22T20:05:37.961Z</time>
      </trkpt>
      <trkpt lat="48.669937" lon="1.959158">
        <ele>168.295076</ele>
        <time>2023-02-22T20:05:42.658Z</time>
      </trkpt>
      <trkpt lat="48.669682" lon="1.958113">
        <ele>168.997654</ele>
        <time>2023-02-22T20:05:54.207Z</time>
      </trkpt>
      <trkpt lat="48.669488" lon="1.957364">
        <ele>169.594900</ele>
        <time>2023-02-22T20:06:04.596Z</time>
      </trkpt>
      <trkpt lat="48.669376" lon="1.956725">
        <ele>170.085678</ele>
        <time>2023-02-22T20:06:14.260Z</time>
      </trkpt>
      <trkpt lat="48.669349" lon="1.956612">
        <ele>170.174884</ele>
        <time>2023-02-22T20:06:16.032Z</time>
      </trkpt>
      <trkpt lat="48.669179" lon="1.955746">
        <ele>171.240053</ele>
        <time>2023-02-22T20:06:30.218Z</time>
      </trkpt>
      <trkpt lat="48.669120" lon="1.954921">
        <ele>172.318328</ele>
        <time>2023-02-22T20:06:43.549Z</time>
      </trkpt>
      <trkpt lat="48.669031" lon="1.954227">
        <ele>173.236960</ele>
        <time>2023-02-22T20:06:54.728Z</time>
      </trkpt>
      <trkpt lat="48.668926" lon="1.953775">
        <ele>173.858389</ele>
        <time>2023-02-22T20:07:01.934Z</time>
      </trkpt>
      <trkpt lat="48.668615" lon="1.952717">
        <ele>173.005977</ele>
        <time>2023-02-22T20:07:14.293Z</time>
      </trkpt>
      <trkpt lat="48.668548" lon="1.952389">
        <ele>172.753263</ele>
        <time>2023-02-22T20:07:16.902Z</time>
      </trkpt>
      <trkpt lat="48.668486" lon="1.951615">
        <ele>172.179372</ele>
        <time>2023-02-22T20:07:22.466Z</time>
      </trkpt>
      <trkpt lat="48.668513" lon="1.950832">
        <ele>170.991071</ele>
        <time>2023-02-22T20:07:27.648Z</time>
      </trkpt>
      <trkpt lat="48.668818" lon="1.948465">
        <ele>164.950023</ele>
        <time>2023-02-22T20:07:43.100Z</time>
      </trkpt>
      <trkpt lat="48.668892" lon="1.947537">
        <ele>163.861707</ele>
        <time>2023-02-22T20:07:49.481Z</time>
      </trkpt>
      <trkpt lat="48.668883" lon="1.946815">
        <ele>163.020936</ele>
        <time>2023-02-22T20:07:54.836Z</time>
      </trkpt>
      <trkpt lat="48.668801" lon="1.946271">
        <ele>162.371269</ele>
        <time>2023-02-22T20:07:59.454Z</time>
      </trkpt>
      <trkpt lat="48.668692" lon="1.945789">
        <ele>161.814536</ele>
        <time>2023-02-22T20:08:04.291Z</time>
      </trkpt>
      <trkpt lat="48.668131" lon="1.943460">
        <ele>161.830040</ele>
        <time>2023-02-22T20:08:29.681Z</time>
      </trkpt>
      <trkpt lat="48.667390" lon="1.940913">
        <ele>161.705568</ele>
        <time>2023-02-22T20:08:55.826Z</time>
      </trkpt>
      <trkpt lat="48.667130" lon="1.940048">
        <ele>162.134998</ele>
        <time>2023-02-22T20:09:05.344Z</time>
      </trkpt>
      <trkpt lat="48.666812" lon="1.939234">
        <ele>162.653623</ele>
        <time>2023-02-22T20:09:16.586Z</time>
      </trkpt>
      <trkpt lat="48.666385" lon="1.938547">
        <ele>163.170957</ele>
        <time>2023-02-22T20:09:28.985Z</time>
      </trkpt>
      <trkpt lat="48.665727" lon="1.937537">
        <ele>165.175744</ele>
        <time>2023-02-22T20:09:50.126Z</time>
      </trkpt>
      <trkpt lat="48.665565" lon="1.937191">
        <ele>165.785037</ele>
        <time>2023-02-22T20:09:56.970Z</time>
      </trkpt>
      <trkpt lat="48.665374" lon="1.936699">
        <ele>166.604900</ele>
        <time>2023-02-22T20:10:06.546Z</time>
      </trkpt>
      <trkpt lat="48.664723" lon="1.934681">
        <ele>170.228223</ele>
        <time>2023-02-22T20:10:44.401Z</time>
      </trkpt>
      <trkpt lat="48.664316" lon="1.933495">
        <ele>171.861370</ele>
        <time>2023-02-22T20:11:05.704Z</time>
      </trkpt>
      <trkpt lat="48.664130" lon="1.932961">
        <ele>172.186777</ele>
        <time>2023-02-22T20:11:13.643Z</time>
      </trkpt>
      <trkpt lat="48.663969" lon="1.932277">
        <ele>172.578177</ele>
        <time>2023-02-22T20:11:22.305Z</time>
      </trkpt>
      <trkpt lat="48.663879" lon="1.931561">
        <ele>172.971040</ele>
        <time>2023-02-22T20:11:29.116Z</time>
      </trkpt>
      <trkpt lat="48.663876" lon="1.931426">
        <ele>173.043849</ele>
        <time>2023-02-22T20:11:30.243Z</time>
      </trkpt>
      <trkpt lat="48.663866" lon="1.930931">
        <ele>172.759465</ele>
        <time>2023-02-22T20:11:34.366Z</time>
      </trkpt>
      <trkpt lat="48.663792" lon="1.929965">
        <ele>172.160859</ele>
        <time>2023-02-22T20:11:42.026Z</time>
      </trkpt>
      <trkpt lat="48.663742" lon="1.929663">
        <ele>171.969212</ele>
        <time>2023-02-22T20:11:44.321Z</time>
      </trkpt>
      <trkpt lat="48.663726" lon="1.929563">
        <ele>171.905877</ele>
        <time>2023-02-22T20:11:45.127Z</time>
      </trkpt>
      <trkpt lat="48.663701" lon="1.929466">
        <ele>171.841783</ele>
        <time>2023-02-22T20:11:45.955Z</time>
      </trkpt>
      <trkpt lat="48.663183" lon="1.927427">
        <ele>171.193875</ele>
        <time>2023-02-22T20:12:04.435Z</time>
      </trkpt>
      <trkpt lat="48.662943" lon="1.926488">
        <ele>171.064839</ele>
        <time>2023-02-22T20:12:15.258Z</time>
      </trkpt>
      <trkpt lat="48.662650" lon="1.925532">
        <ele>171.134845</ele>
        <time>2023-02-22T20:12:27.018Z</time>
      </trkpt>
      <trkpt lat="48.661806" lon="1.923269">
        <ele>171.240997</ele>
        <time>2023-02-22T20:12:53.330Z</time>
      </trkpt>
      <trkpt lat="48.660730" lon="1.918578">
        <ele>169.950106</ele>
        <time>2023-02-22T20:13:36.189Z</time>
      </trkpt>
      <trkpt lat="48.660467" lon="1.917371">
        <ele>170.762231</ele>
        <time>2023-02-22T20:13:50.440Z</time>
      </trkpt>
      <trkpt lat="48.660410" lon="1.917187">
        <ele>170.892092</ele>
        <time>2023-02-22T20:13:52.965Z</time>
      </trkpt>
      <trkpt lat="48.660239" lon="1.916790">
        <ele>171.194938</ele>
        <time>2023-02-22T20:13:59.490Z</time>
      </trkpt>
      <trkpt lat="48.659402" lon="1.915333">
        <ele>173.335846</ele>
        <time>2023-02-22T20:14:29.870Z</time>
      </trkpt>
      <trkpt lat="48.659265" lon="1.915033">
        <ele>173.819793</ele>
        <time>2023-02-22T20:14:35.696Z</time>
      </trkpt>
      <trkpt lat="48.659221" lon="1.914875">
        <ele>174.047317</ele>
        <time>2023-02-22T20:14:38.628Z</time>
      </trkpt>
      <trkpt lat="48.657840" lon="1.908979">
        <ele>180.108808</ele>
        <time>2023-02-22T20:16:03.995Z</time>
      </trkpt>
      <trkpt lat="48.657981" lon="1.904479">
        <ele>180.982531</ele>
        <time>2023-02-22T20:16:50.750Z</time>
      </trkpt>
      <trkpt lat="48.657708" lon="1.904336">
        <ele>181.020679</ele>
        <time>2023-02-22T20:17:13.660Z</time>
      </trkpt>
      <trkpt lat="48.656349" lon="1.902816">
        <ele>180.977150</ele>
        <time>2023-02-22T20:19:27.581Z</time>
      </trkpt>
      <trkpt lat="48.652754" lon="1.898847">
        <ele>180.113655</ele>
        <time>2023-02-22T20:25:19.044Z</time>
      </trkpt>
      <trkpt lat="48.652296" lon="1.898353">
        <ele>179.557240</ele>
        <time>2023-02-22T20:25:38.272Z</time>
      </trkpt>
      <trkpt lat="48.650145" lon="1.895974">
        <ele>176.101234</ele>
        <time>2023-02-22T20:26:22.109Z</time>
      </trkpt>
      <trkpt lat="48.649254" lon="1.895151">
        <ele>175.288549</ele>
        <time>2023-02-22T20:26:40.152Z</time>
      </trkpt>
      <trkpt lat="48.648907" lon="1.894779">
        <ele>174.957480</ele>
        <time>2023-02-22T20:26:47.886Z</time>
      </trkpt>
      <trkpt lat="48.645111" lon="1.890508">
        <ele>174.605775</ele>
        <time>2023-02-22T20:28:21.621Z</time>
      </trkpt>
      <trkpt lat="48.641234" lon="1.886235">
        <ele>176.616021</ele>
        <time>2023-02-22T20:30:08.861Z</time>
      </trkpt>
      <trkpt lat="48.637876" lon="1.882331">
        <ele>176.587449</ele>
        <time>2023-02-22T20:31:33.651Z</time>
      </trkpt>
      <trkpt lat="48.634147" lon="1.878151">
        <ele>176.722426</ele>
        <time>2023-02-22T20:33:08.442Z</time>
      </trkpt>
      <trkpt lat="48.634130" lon="1.878055">
        <ele>176.698067</ele>
        <time>2023-02-22T20:33:09.772Z</time>
      </trkpt>
      <trkpt lat="48.634065" lon="1.877945">
        <ele>176.661900</ele>
        <time>2023-02-22T20:33:11.720Z</time>
      </trkpt>
      <trkpt lat="48.633904" lon="1.877877">
        <ele>176.599906</ele>
        <time>2023-02-22T20:33:15.210Z</time>
      </trkpt>
      <trkpt lat="48.630572" lon="1.874135">
        <ele>174.792178</ele>
        <time>2023-02-22T20:34:10.934Z</time>
      </trkpt>
      <trkpt lat="48.628421" lon="1.871735">
        <ele>172.736943</ele>
        <time>2023-02-22T20:34:44.056Z</time>
      </trkpt>
      <trkpt lat="48.627780" lon="1.871004">
        <ele>172.562302</ele>
        <time>2023-02-22T20:34:54.973Z</time>
      </trkpt>
      <trkpt lat="48.627220" lon="1.870365">
        <ele>172.409697</ele>
        <time>2023-02-22T20:35:05.159Z</time>
      </trkpt>
      <trkpt lat="48.627096" lon="1.870224">
        <ele>172.375949</ele>
        <time>2023-02-22T20:35:07.676Z</time>
      </trkpt>
      <trkpt lat="48.623092" lon="1.865751">
        <ele>172.979785</ele>
        <time>2023-02-22T20:36:25.373Z</time>
      </trkpt>
      <trkpt lat="48.619130" lon="1.861273">
        <ele>170.789193</ele>
        <time>2023-02-22T20:37:29.714Z</time>
      </trkpt>
      <trkpt lat="48.618575" lon="1.860639">
        <ele>170.774261</ele>
        <time>2023-02-22T20:37:40.436Z</time>
      </trkpt>
      <trkpt lat="48.619130" lon="1.861273">
        <ele>171.404711</ele>
        <time>2023-02-22T20:37:52.982Z</time>
      </trkpt>
      <trkpt lat="48.620654" lon="1.857719">
        <ele>175.375826</ele>
        <time>2023-02-22T20:38:54.627Z</time>
      </trkpt>
      <trkpt lat="48.622375" lon="1.853593">
        <ele>175.787715</ele>
        <time>2023-02-22T20:39:42.803Z</time>
      </trkpt>
      <trkpt lat="48.622931" lon="1.852190">
        <ele>175.298657</ele>
        <time>2023-02-22T20:39:56.853Z</time>
      </trkpt>
      <trkpt lat="48.623941" lon="1.849643">
        <ele>173.368940</ele>
        <time>2023-02-22T20:40:21.059Z</time>
      </trkpt>
      <trkpt lat="48.624615" lon="1.847940">
        <ele>171.617015</ele>
        <time>2023-02-22T20:40:36.203Z</time>
      </trkpt>
      <trkpt lat="48.626275" lon="1.843784">
        <ele>165.818775</ele>
        <time>2023-02-22T20:41:12.085Z</time>
      </trkpt>
      <trkpt lat="48.626431" lon="1.843929">
        <ele>165.477510</ele>
        <time>2023-02-22T20:41:13.927Z</time>
      </trkpt>
      <trkpt lat="48.627203" lon="1.844139">
        <ele>164.777954</ele>
        <time>2023-02-22T20:41:22.891Z</time>
      </trkpt>
      <trkpt lat="48.627623" lon="1.844345">
        <ele>164.519051</ele>
        <time>2023-02-22T20:41:28.446Z</time>
      </trkpt>
      <trkpt lat="48.627799" lon="1.844586">
        <ele>164.379854</ele>
        <time>2023-02-22T20:41:31.200Z</time>
      </trkpt>
      <trkpt lat="48.627956" lon="1.844923">
        <ele>164.220056</ele>
        <time>2023-02-22T20:41:36.167Z</time>
      </trkpt>
      <trkpt lat="48.628088" lon="1.845884">
        <ele>164.674194</ele>
        <time>2023-02-22T20:41:49.196Z</time>
      </trkpt>
      <trkpt lat="48.628606" lon="1.846912">
        <ele>165.963219</ele>
        <time>2023-02-22T20:42:08.090Z</time>
      </trkpt>
      <trkpt lat="48.629222" lon="1.847815">
        <ele>166.875378</ele>
        <time>2023-02-22T20:42:26.585Z</time>
      </trkpt>
      <trkpt lat="48.629644" lon="1.848825">
        <ele>167.099578</ele>
        <time>2023-02-22T20:42:40.330Z</time>
      </trkpt>
      <trkpt lat="48.629975" lon="1.849708">
        <ele>167.290048</ele>
        <time>2023-02-22T20:42:48.786Z</time>
      </trkpt>
      <trkpt lat="48.630010" lon="1.850055">
        <ele>167.165187</ele>
        <time>2023-02-22T20:42:51.619Z</time>
      </trkpt>
      <trkpt lat="48.630295" lon="1.850415">
        <ele>166.926512</ele>
        <time>2023-02-22T20:42:56.095Z</time>
      </trkpt>
      <trkpt lat="48.630353" lon="1.850487">
        <ele>166.878282</ele>
        <time>2023-02-22T20:42:56.945Z</time>
      </trkpt>
      <trkpt lat="48.630500" lon="1.850629">
        <ele>166.766162</ele>
        <time>2023-02-22T20:42:59.081Z</time>
      </trkpt>
      <trkpt lat="48.630617" lon="1.850648">
        <ele>166.690514</ele>
        <time>2023-02-22T20:43:00.536Z</time>
      </trkpt>
      <trkpt lat="48.630888" lon="1.850251">
        <ele>166.448018</ele>
        <time>2023-02-22T20:43:05.135Z</time>
      </trkpt>
      <trkpt lat="48.632632" lon="1.847816">
        <ele>166.538359</ele>
        <time>2023-02-22T20:43:42.054Z</time>
      </trkpt>
      <trkpt lat="48.633763" lon="1.846236">
        <ele>167.442526</ele>
        <time>2023-02-22T20:44:09.423Z</time>
      </trkpt>
      <trkpt lat="48.634711" lon="1.844913">
        <ele>167.776914</ele>
        <time>2023-02-22T20:45:54.004Z</time>
      </trkpt>
      <trkpt lat="48.636458" lon="1.842502">
        <ele>167.254515</ele>
        <time>2023-02-22T20:48:59.455Z</time>
      </trkpt>
      <trkpt lat="48.637167" lon="1.841400">
        <ele>166.345831</ele>
        <time>2023-02-22T20:50:15.943Z</time>
      </trkpt>
      <trkpt lat="48.637218" lon="1.841321">
        <ele>166.276346</ele>
        <time>2023-02-22T20:50:21.416Z</time>
      </trkpt>
      <trkpt lat="48.637552" lon="1.840128">
        <ele>165.494890</ele>
        <time>2023-02-22T20:50:31.951Z</time>
      </trkpt>
      <trkpt lat="48.637645" lon="1.839223">
        <ele>165.410547</ele>
        <time>2023-02-22T20:50:39.819Z</time>
      </trkpt>
      <trkpt lat="48.637744" lon="1.838425">
        <ele>165.335776</ele>
        <time>2023-02-22T20:50:47.059Z</time>
      </trkpt>
      <trkpt lat="48.637852" lon="1.838283">
        <ele>165.315838</ele>
        <time>2023-02-22T20:50:49.419Z</time>
      </trkpt>
      <trkpt lat="48.638285" lon="1.837445">
        <ele>165.442212</ele>
        <time>2023-02-22T20:51:01.681Z</time>
      </trkpt>
      <trkpt lat="48.638482" lon="1.837369">
        <ele>165.611630</ele>
        <time>2023-02-22T20:51:06.525Z</time>
      </trkpt>
      <trkpt lat="48.638536" lon="1.837350">
        <ele>165.657831</ele>
        <time>2023-02-22T20:51:07.580Z</time>
      </trkpt>
      <trkpt lat="48.638571" lon="1.837288">
        <ele>165.702735</ele>
        <time>2023-02-22T20:51:08.679Z</time>
      </trkpt>
      <trkpt lat="48.638565" lon="1.837162">
        <ele>165.772300</ele>
        <time>2023-02-22T20:51:10.361Z</time>
      </trkpt>
      <trkpt lat="48.638492" lon="1.837099">
        <ele>165.842330</ele>
        <time>2023-02-22T20:51:11.914Z</time>
      </trkpt>
      <trkpt lat="48.638555" lon="1.836876">
        <ele>165.975883</ele>
        <time>2023-02-22T20:51:15.014Z</time>
      </trkpt>
      <trkpt lat="48.638884" lon="1.836205">
        <ele>166.435990</ele>
        <time>2023-02-22T20:51:24.866Z</time>
      </trkpt>
      <trkpt lat="48.639528" lon="1.835268">
        <ele>166.920704</ele>
        <time>2023-02-22T20:51:41.241Z</time>
      </trkpt>
      <trkpt lat="48.639691" lon="1.835045">
        <ele>166.993602</ele>
        <time>2023-02-22T20:51:45.318Z</time>
      </trkpt>
      <trkpt lat="48.639763" lon="1.834898">
        <ele>167.033714</ele>
        <time>2023-02-22T20:51:47.449Z</time>
      </trkpt>
      <trkpt lat="48.639935" lon="1.834903">
        <ele>167.090787</ele>
        <time>2023-02-22T20:51:50.832Z</time>
      </trkpt>
      <trkpt lat="48.639928" lon="1.834985">
        <ele>167.108912</ele>
        <time>2023-02-22T20:51:52.253Z</time>
      </trkpt>
      <trkpt lat="48.640038" lon="1.835074">
        <ele>167.150293</ele>
        <time>2023-02-22T20:51:55.031Z</time>
      </trkpt>
      <trkpt lat="48.640490" lon="1.835926">
        <ele>167.227146</ele>
        <time>2023-02-22T20:52:08.830Z</time>
      </trkpt>
      <trkpt lat="48.640692" lon="1.836153">
        <ele>167.003518</ele>
        <time>2023-02-22T20:52:13.346Z</time>
      </trkpt>
      <trkpt lat="48.640759" lon="1.836294">
        <ele>166.901518</ele>
        <time>2023-02-22T20:52:15.404Z</time>
      </trkpt>
      <trkpt lat="48.640819" lon="1.836398">
        <ele>166.820433</ele>
        <time>2023-02-22T20:52:16.889Z</time>
      </trkpt>
      <trkpt lat="48.640938" lon="1.836430">
        <ele>166.713007</ele>
        <time>2023-02-22T20:52:19.364Z</time>
      </trkpt>
      <trkpt lat="48.640994" lon="1.836479">
        <ele>166.655512</ele>
        <time>2023-02-22T20:52:20.640Z</time>
      </trkpt>
      <trkpt lat="48.641160" lon="1.836888">
        <ele>166.373608</ele>
        <time>2023-02-22T20:52:26.182Z</time>
      </trkpt>
      <trkpt lat="48.641302" lon="1.837063">
        <ele>166.210842</ele>
        <time>2023-02-22T20:52:29.338Z</time>
      </trkpt>
      <trkpt lat="48.641465" lon="1.837146">
        <ele>166.057983</ele>
        <time>2023-02-22T20:52:32.234Z</time>
      </trkpt>
      <trkpt lat="48.642398" lon="1.837026">
        <ele>165.111677</ele>
        <time>2023-02-22T20:52:47.667Z</time>
      </trkpt>
      <trkpt lat="48.642459" lon="1.836881">
        <ele>164.988634</ele>
        <time>2023-02-22T20:52:49.524Z</time>
      </trkpt>
      <trkpt lat="48.643463" lon="1.836705">
        <ele>163.893722</ele>
        <time>2023-02-22T20:53:07.350Z</time>
      </trkpt>
      <trkpt lat="48.643369" lon="1.836066">
        <ele>163.624240</ele>
        <time>2023-02-22T20:53:12.849Z</time>
      </trkpt>
      <trkpt lat="48.643139" lon="1.833567">
        <ele>162.889181</ele>
        <time>2023-02-22T20:53:35.360Z</time>
      </trkpt>
      <trkpt lat="48.643015" lon="1.832508">
        <ele>162.889181</ele>
        <time>2023-02-22T20:53:44.734Z</time>
      </trkpt>
      <trkpt lat="48.642968" lon="1.832158">
        <ele>162.889181</ele>
        <time>2023-02-22T20:53:47.880Z</time>
      </trkpt>
      <trkpt lat="48.643099" lon="1.832124">
        <ele>162.889181</ele>
        <time>2023-02-22T20:53:49.643Z</time>
      </trkpt>
      <trkpt lat="48.643134" lon="1.832115">
        <ele>162.889181</ele>
        <time>2023-02-22T20:53:50.110Z</time>
      </trkpt>
      <trkpt lat="48.643292" lon="1.832236">
        <ele>162.889181</ele>
        <time>2023-02-22T20:53:52.487Z</time>
      </trkpt>
      <trkpt lat="48.643340" lon="1.832288">
        <ele>162.889181</ele>
        <time>2023-02-22T20:53:53.247Z</time>
      </trkpt>
      <trkpt lat="48.643393" lon="1.832369">
        <ele>162.889181</ele>
        <time>2023-02-22T20:53:54.663Z</time>
      </trkpt>
      <trkpt lat="48.643441" lon="1.832446">
        <ele>162.889181</ele>
        <time>2023-02-22T20:53:55.597Z</time>
      </trkpt>
      <trkpt lat="48.643499" lon="1.832553">
        <ele>162.889181</ele>
        <time>2023-02-22T20:53:56.836Z</time>
      </trkpt>
      <trkpt lat="48.643560" lon="1.832627">
        <ele>162.889181</ele>
        <time>2023-02-22T20:53:58.290Z</time>
      </trkpt>
      <trkpt lat="48.643576" lon="1.832600">
        <ele>162.889181</ele>
        <time>2023-02-22T20:53:59.955Z</time>
      </trkpt>
      <trkpt lat="48.643543" lon="1.832436">
        <ele>162.889181</ele>
        <time>2023-02-22T20:54:07.858Z</time>
      </trkpt>
    </trkseg>
  </trk>
</gpx>